Provisional Data: North Branch Muddy Creek near Muddy Creek Forks, PA


Please select a monitoring station.
Please select start date.
Please select start date.

Toggle Unit: C/F Toggle Unit: C/F
Sample Time Temperature (C) Temperature (F) Specific Conductivity (mS/cm) pH   Turbidity (NTU+) DO (mg/L)
10/22/2021 12:00:00 AM 13.61 56.498 0.167 7.12 1.36 8.53
10/22/2021 12:15:00 AM 13.57 56.426 0.167 7.12 0.8 8.52
10/22/2021 12:30:00 AM 13.55 56.39 0.167 7.12 1.23 8.61
10/22/2021 12:45:00 AM 13.52 56.336 0.167 7.13 1.24 8.53
10/22/2021 1:00:00 AM 13.5 56.3 0.167 7.11 1.19 8.53
10/22/2021 1:15:00 AM 13.47 56.246 0.167 7.12 1.15 8.57
10/22/2021 1:30:00 AM 13.44 56.192 0.167 7.11 1.22 8.59
10/22/2021 1:45:00 AM 13.43 56.174 0.167 7.11 1.31 8.63
10/22/2021 2:00:00 AM 13.42 56.156 0.167 7.11 1.22 8.62
10/22/2021 2:15:00 AM 13.42 56.156 0.167 7.11 1.21 8.63
10/22/2021 2:30:00 AM 13.41 56.138 0.167 7.11 1.21 8.69
10/22/2021 2:45:00 AM 13.41 56.138 0.167 7.1 1.27 8.71
10/22/2021 3:00:00 AM 13.42 56.156 0.167 7.09 1.33 8.66
10/22/2021 3:15:00 AM 13.42 56.156 0.167 7.08 1.23 8.6
10/22/2021 3:30:00 AM 13.42 56.156 0.167 7.08 1.36 8.6
10/22/2021 3:45:00 AM 13.41 56.138 0.167 7.07 1.19 8.66
10/22/2021 4:00:00 AM 13.41 56.138 0.167 7.06 1.25 8.63
10/22/2021 4:15:00 AM 13.4 56.12 0.167 7.07 1.23 8.59
10/22/2021 4:30:00 AM 13.39 56.102 0.167 7.07 1.67 8.68
10/22/2021 4:45:00 AM 13.37 56.066 0.167 7.07 1.45 8.7
10/22/2021 5:00:00 AM 13.36 56.048 0.167 7.07 1.35 8.71
10/22/2021 5:15:00 AM 13.34 56.012 0.167 7.06 1.4 8.66
10/22/2021 5:30:00 AM 13.34 56.012 0.167 7.06 1.3 8.71
10/22/2021 5:45:00 AM 13.32 55.976 0.167 7.06 1.42 8.69
10/22/2021 6:00:00 AM 13.31 55.958 0.167 7.05 1.35 8.66
10/22/2021 6:15:00 AM 13.31 55.958 0.167 7.05 1.45 8.7
10/22/2021 6:30:00 AM 13.3 55.94 0.167 7.05 1.73 8.7
10/22/2021 6:45:00 AM 13.28 55.904 0.167 7.04 1.47 8.75
10/22/2021 7:00:00 AM 13.27 55.886 0.167 7.05 1.43 8.72
10/22/2021 7:15:00 AM 13.26 55.868 0.167 7.04 1.24 8.69
10/22/2021 7:30:00 AM 13.25 55.85 0.167 7.05 1.36 8.74
10/22/2021 7:45:00 AM 13.23 55.814 0.167 7.05 1.37 8.71
10/22/2021 8:00:00 AM 13.22 55.796 0.167 7.04 1.26 8.79
10/22/2021 8:15:00 AM 13.21 55.778 0.167 7.04 1.19 8.85
10/22/2021 8:30:00 AM 13.21 55.778 0.166 7.03 1.41 8.92
10/22/2021 8:45:00 AM 13.21 55.778 0.166 7.02 0.54 8.96
10/22/2021 9:00:00 AM 13.22 55.796 0.166 7.02 1.23 9.09
10/22/2021 9:15:00 AM 13.24 55.832 0.166 7.02 1.23 9.23
10/22/2021 9:30:00 AM 13.25 55.85 0.166 7.02 1.23 9.31
10/22/2021 9:45:00 AM 13.26 55.868 0.166 7.01 1.12 9.42
10/22/2021 10:00:00 AM 13.28 55.904 0.166 7.01 1.64 9.49
10/22/2021 10:15:00 AM 13.3 55.94 0.166 7 1.41 9.58
10/22/2021 10:30:00 AM 13.35 56.03 0.166 7 1.59 9.65
10/22/2021 10:45:00 AM 13.39 56.102 0.166 7 1.47 9.74
10/22/2021 11:00:00 AM 13.43 56.174 0.166 7.01 1.2 9.82
10/22/2021 11:15:00 AM 13.5 56.3 0.166 7.03 1.15 9.98
10/22/2021 11:30:00 AM 13.61 56.498 0.166 7.04 1.14 10
10/22/2021 11:45:00 AM 13.74 56.732 0.166 7.06 1.27 10.1
10/22/2021 12:00:00 PM 13.82 56.876 0.166 7.06 1.23 10.29
10/22/2021 12:15:00 PM 13.97 57.146 0.165 7.08 1.33 10.32
10/22/2021 12:30:00 PM 14.17 57.506 0.165 7.09 1.35 10.48
10/22/2021 12:45:00 PM 14.28 57.704 0.165 7.11 1.66 10.66
10/22/2021 1:00:00 PM 14.47 58.046 0.165 7.11 0.68 10.64
10/22/2021 1:15:00 PM 14.61 58.298 0.165 7.12 0.79 10.62
10/22/2021 1:30:00 PM 14.83 58.694 0.164 7.15 0.89 10.74
10/22/2021 1:45:00 PM 15.04 59.072 0.164 7.17 1.33 10.88
10/22/2021 2:00:00 PM 15.2 59.36 0.164 7.19 0.57 10.9
10/22/2021 2:15:00 PM 15.27 59.486 0.164 7.2 1.1 10.86
10/22/2021 2:30:00 PM 15.4 59.72 0.164 7.19 0.66 10.81
10/22/2021 2:45:00 PM 15.52 59.936 0.164 7.2 1.09 10.89
10/22/2021 3:00:00 PM 15.66 60.188 0.164 7.19 0.74 10.78
10/22/2021 3:15:00 PM 15.74 60.332 0.164 7.19 1.36 10.76
10/22/2021 3:30:00 PM 15.81 60.458 0.164 7.2 1.11 10.75
10/22/2021 3:45:00 PM 15.82 60.476 0.164 7.2 1.17 10.73
10/22/2021 4:00:00 PM 15.84 60.512 0.164 7.21 1.11 10.67
10/22/2021 4:15:00 PM 15.82 60.476 0.165 7.24 0.71 10.63
10/22/2021 4:30:00 PM 15.79 60.422 0.165 7.26 0.72 10.41
10/22/2021 4:45:00 PM 15.75 60.35 0.164 7.31 1.13 10.32
10/22/2021 5:00:00 PM 15.72 60.296 0.164 7.33 1.05 10.21
10/22/2021 5:15:00 PM 15.69 60.242 0.165 7.35 1.3 10.03
10/22/2021 5:30:00 PM 15.66 60.188 0.165 7.36 1.2 9.93
10/22/2021 5:45:00 PM 15.64 60.152 0.165 7.37 1.08 9.78
10/22/2021 6:00:00 PM 15.6 60.08 0.165 7.37 1 9.65
10/22/2021 6:15:00 PM 15.55 59.99 0.165 7.37 1.72 9.55
10/22/2021 6:30:00 PM 15.49 59.882 0.165 7.37 1.25 9.4
10/22/2021 6:45:00 PM 15.42 59.756 0.166 7.37 1.19 9.32
10/22/2021 7:00:00 PM 15.35 59.63 0.166 7.39 1.6 9.12
10/22/2021 7:15:00 PM 15.28 59.504 0.166 7.37 1.74 9.02
10/22/2021 7:30:00 PM 15.21 59.378 0.166 7.36 1.7 8.88
10/22/2021 7:45:00 PM 15.13 59.234 0.166 7.35 1.09 8.8
10/22/2021 8:00:00 PM 15.07 59.126 0.166 7.34 1.62 8.79
10/22/2021 8:15:00 PM 14.99 58.982 0.167 7.32 1.33 8.75
10/22/2021 8:30:00 PM 14.92 58.856 0.167 7.31 1.12 8.71
10/22/2021 8:45:00 PM 14.86 58.748 0.167 7.29 2.08 8.59
10/22/2021 9:00:00 PM 14.8 58.64 0.167 7.29 2.16 8.58
10/22/2021 9:15:00 PM 14.73 58.514 0.167 7.27 1.21 8.64
10/22/2021 9:30:00 PM 14.67 58.406 0.167 7.27 1.24 8.52
10/22/2021 9:45:00 PM 14.6 58.28 0.167 7.25 1.21 8.45
10/22/2021 10:00:00 PM 14.55 58.19 0.167 7.24 1.65 8.47
10/22/2021 10:15:00 PM 14.48 58.064 0.167 7.23 1.12 8.48
10/22/2021 10:30:00 PM 14.43 57.974 0.168 7.22 1.29 8.43
10/22/2021 10:45:00 PM 14.37 57.866 0.167 7.21 2.15 8.52
10/22/2021 11:00:00 PM 14.32 57.776 0.167 7.2 1.21 8.48
10/22/2021 11:15:00 PM 14.27 57.686 0.167 7.19 1.4 8.42
10/22/2021 11:30:00 PM 14.22 57.596 0.167 7.18 2 8.44
10/22/2021 11:45:00 PM 14.18 57.524 0.167 7.18 1.56 8.39
10/23/2021 12:00:00 AM 14.14 57.452 0.168 7.17 1.27 8.4
10/23/2021 12:15:00 AM 14.11 57.398 0.167 7.16 1.03 8.33
10/23/2021 12:30:00 AM 14.06 57.308 0.168 7.15 1.9 8.32
10/23/2021 12:45:00 AM 14.03 57.254 0.167 7.15 1.81 8.34
10/23/2021 1:00:00 AM 13.99 57.182 0.168 7.14 1.12 8.41
10/23/2021 1:15:00 AM 13.95 57.11 0.168 7.14 1.03 8.42
10/23/2021 1:30:00 AM 13.9 57.02 0.168 7.13 1.6 8.49
10/23/2021 1:45:00 AM 13.85 56.93 0.168 7.13 1.8 8.43
10/23/2021 2:00:00 AM 13.82 56.876 0.168 7.12 1.88 8.42
10/23/2021 2:15:00 AM 13.78 56.804 0.167 7.11 1.09 8.54
10/23/2021 2:30:00 AM 13.74 56.732 0.168 7.11 1.95 8.48
10/23/2021 2:45:00 AM 13.71 56.678 0.167 7.1 1.98 8.55
10/23/2021 3:00:00 AM 13.68 56.624 0.167 7.09 2.23 8.51
10/23/2021 3:15:00 AM 13.66 56.588 0.167 7.09 3.16 8.52
10/23/2021 3:30:00 AM 13.63 56.534 0.167 7.08 2.14 8.58
10/23/2021 3:45:00 AM 13.61 56.498 0.167 7.07 1.98 8.64
10/23/2021 4:00:00 AM 13.59 56.462 0.167 7.07 1.05 8.62
10/23/2021 4:15:00 AM 13.57 56.426 0.167 7.07 2.01 8.62
10/23/2021 4:30:00 AM 13.54 56.372 0.167 7.07 1.16 8.65
10/23/2021 4:45:00 AM 13.53 56.354 0.167 7.06 1.98 8.69
10/23/2021 5:00:00 AM 13.51 56.318 0.167 7.06 2.86 8.72
10/23/2021 5:15:00 AM 13.5 56.3 0.167 7.05 1.8 8.71
10/23/2021 5:30:00 AM 13.48 56.264 0.167 7.04 1.88 8.74
10/23/2021 5:45:00 AM 13.47 56.246 0.167 7.04 2.08 8.78
10/23/2021 6:00:00 AM 13.46 56.228 0.167 7.03 1.87 8.74
10/23/2021 6:15:00 AM 13.44 56.192 0.167 7.03 1.76 8.73
10/23/2021 6:30:00 AM 13.44 56.192 0.167 7.03 1.92 8.76
10/23/2021 6:45:00 AM 13.43 56.174 0.167 7.02 2.06 8.76
10/23/2021 7:00:00 AM 13.42 56.156 0.167 7.02 1.89 8.71
10/23/2021 7:15:00 AM 13.41 56.138 0.167 7.01 1.88 8.75
10/23/2021 7:30:00 AM 13.4 56.12 0.167 7.01 2.31 8.76
10/23/2021 7:45:00 AM 13.4 56.12 0.167 7.01 1.86 8.77
10/23/2021 8:00:00 AM 13.39 56.102 0.167 7.01 1.99 8.83
10/23/2021 8:15:00 AM 13.39 56.102 0.167 7 2.18 8.85
10/23/2021 8:30:00 AM 13.39 56.102 0.167 7 2.04 8.84
10/23/2021 8:45:00 AM 13.39 56.102 0.167 7 1.91 8.83
10/23/2021 9:00:00 AM 13.4 56.12 0.167 6.99 2.18 8.92
10/23/2021 9:15:00 AM 13.41 56.138 0.167 7 1.9 9.04
10/23/2021 9:30:00 AM 13.43 56.174 0.167 7 1.9 9.13
10/23/2021 9:45:00 AM 13.44 56.192 0.167 7 1.94 9.23
10/23/2021 10:00:00 AM 13.46 56.228 0.167 7.01 1.91 9.33
10/23/2021 10:15:00 AM 13.48 56.264 0.166 7 2.32 9.44
10/23/2021 10:30:00 AM 13.5 56.3 0.167 7 1.87 9.62
10/23/2021 10:45:00 AM 13.53 56.354 0.166 7 1.82 9.74
10/23/2021 11:00:00 AM 13.57 56.426 0.166 7.01 1.15 9.9
10/23/2021 11:15:00 AM 13.62 56.516 0.166 7.01 2.1 10.03
10/23/2021 11:30:00 AM 13.68 56.624 0.166 7.01 1.9 10.23
10/23/2021 11:45:00 AM 13.73 56.714 0.166 7.01 1.93 10.39
10/23/2021 12:00:00 PM 13.78 56.804 0.165 7.02 1.8 10.49
10/23/2021 12:15:00 PM 13.85 56.93 0.165 7.03 1.98 10.63
10/23/2021 12:30:00 PM 13.92 57.056 0.165 7.02 1.81 10.7
10/23/2021 12:45:00 PM 14.02 57.236 0.165 7.03 1.93 10.78
10/23/2021 1:00:00 PM 14.19 57.542 0.165 7.04 1.23 10.84
10/23/2021 1:15:00 PM 14.32 57.776 0.165 7.04 2.13 10.92
10/23/2021 1:30:00 PM 14.38 57.884 0.164 7.04 2.16 11.01
10/23/2021 1:45:00 PM 14.35 57.83 0.165 7.07 1.55 10.93
10/23/2021 2:00:00 PM 14.31 57.758 0.165 7.09 2.06 10.74
10/23/2021 2:15:00 PM 14.35 57.83 0.165 7.11 2 10.72
10/23/2021 2:30:00 PM 14.46 58.028 0.164 7.13 1.46 10.74
10/23/2021 2:45:00 PM 14.56 58.208 0.164 7.14 1.76 10.75
10/23/2021 3:00:00 PM 14.64 58.352 0.164 7.16 1.17 10.91
10/23/2021 3:15:00 PM 14.69 58.442 0.164 7.18 1.28 10.89
10/23/2021 3:30:00 PM 14.69 58.442 0.164 7.18 1.94 10.8
10/23/2021 3:45:00 PM 14.67 58.406 0.164 7.19 1.69 10.62
10/23/2021 4:00:00 PM 14.66 58.388 0.164 7.21 2.06 10.38
10/23/2021 4:15:00 PM 14.68 58.424 0.163 7.22 2.75 10.31
10/23/2021 4:30:00 PM 14.7 58.46 0.163 7.23 1.27 10.29
10/23/2021 4:45:00 PM 14.7 58.46 0.163 7.22 2.19 10.33
10/23/2021 5:00:00 PM 14.69 58.442 0.163 7.23 1.37 10.32
10/23/2021 5:15:00 PM 14.66 58.388 0.163 7.23 1.87 10.27
10/23/2021 5:30:00 PM 14.62 58.316 0.163 7.23 1.55 10.08
10/23/2021 5:45:00 PM 14.58 58.244 0.163 7.23 1.31 10.03
10/23/2021 6:00:00 PM 14.54 58.172 0.163 7.22 1.24 9.88
10/23/2021 6:15:00 PM 14.48 58.064 0.163 7.23 2.06 9.68
10/23/2021 6:30:00 PM 14.42 57.956 0.164 7.24 1.3 9.54
10/23/2021 6:45:00 PM 14.37 57.866 0.164 7.23 1.31 9.44
10/23/2021 7:00:00 PM 14.31 57.758 0.164 7.23 2.02 9.27
10/23/2021 7:15:00 PM 14.26 57.668 0.164 7.24 1.95 9.14
10/23/2021 7:30:00 PM 14.2 57.56 0.164 7.24 1.22 9.13
10/23/2021 7:45:00 PM 14.14 57.452 0.165 7.25 2.03 9.03
10/23/2021 8:00:00 PM 14.08 57.344 0.165 7.25 1.49 8.92
10/23/2021 8:15:00 PM 14 57.2 0.165 7.23 1.29 8.85
10/23/2021 8:30:00 PM 13.94 57.092 0.165 7.21 1.62 8.83
10/23/2021 8:45:00 PM 13.88 56.984 0.165 7.19 2.05 8.84
10/23/2021 9:00:00 PM 13.83 56.894 0.165 7.18 2.07 8.83
10/23/2021 9:15:00 PM 13.78 56.804 0.165 7.17 2.05 8.77
10/23/2021 9:30:00 PM 13.73 56.714 0.165 7.16 1.35 8.69
10/23/2021 9:45:00 PM 13.66 56.588 0.165 7.16 1.9 8.65
10/23/2021 10:00:00 PM 13.6 56.48 0.165 7.16 1.59 8.61
10/23/2021 10:15:00 PM 13.53 56.354 0.165 7.16 1.34 8.64
10/23/2021 10:30:00 PM 13.48 56.264 0.165 7.15 2.16 8.63
10/23/2021 10:45:00 PM 13.43 56.174 0.165 7.14 2.22 8.64
10/23/2021 11:00:00 PM 13.37 56.066 0.166 7.13 2.16 8.55
10/23/2021 11:15:00 PM 13.32 55.976 0.166 7.12 2.91 8.6
10/23/2021 11:30:00 PM 13.27 55.886 0.166 7.12 3.34 8.64
10/23/2021 11:45:00 PM 13.23 55.814 0.166 7.12 2.66 8.62
10/24/2021 12:00:00 AM 13.16 55.688 0.166 7.12 2.32 8.68
10/24/2021 12:15:00 AM 13.11 55.598 0.166 7.11 1.89 8.7
10/24/2021 12:30:00 AM 13.04 55.472 0.166 7.11 2.1 8.79
10/24/2021 12:45:00 AM 12.99 55.382 0.166 7.1 2.14 8.73
10/24/2021 1:00:00 AM 12.93 55.274 0.166 7.1 2.3 8.8
10/24/2021 1:15:00 AM 12.86 55.148 0.166 7.1 2.11 8.77
10/24/2021 1:30:00 AM 12.81 55.058 0.166 7.09 2.2 8.71
10/24/2021 1:45:00 AM 12.75 54.95 0.166 7.09 2.18 8.75
10/24/2021 2:00:00 AM 12.7 54.86 0.166 7.09 2.71 8.72
10/24/2021 2:15:00 AM 12.63 54.734 0.166 7.09 2.06 8.75
10/24/2021 2:30:00 AM 12.57 54.626 0.166 7.09 2.04 8.8
10/24/2021 2:45:00 AM 12.51 54.518 0.166 7.08 2.11 8.92
10/24/2021 3:00:00 AM 12.46 54.428 0.166 7.09 2.12 8.81
10/24/2021 3:15:00 AM 12.4 54.32 0.166 7.08 2.25 8.98
10/24/2021 3:30:00 AM 12.34 54.212 0.166 7.08 1.4 9.07
10/24/2021 3:45:00 AM 12.3 54.14 0.166 7.08 2.59 9.04
10/24/2021 4:00:00 AM 12.26 54.068 0.166 7.07 2.32 9.04
10/24/2021 4:15:00 AM 12.22 53.996 0.166 7.06 1.64 9.07
10/24/2021 4:30:00 AM 12.19 53.942 0.166 7.06 3.47 9.07
10/24/2021 4:45:00 AM 12.16 53.888 0.166 7.05 2.32 9.05
10/24/2021 5:00:00 AM 12.12 53.816 0.166 7.04 2.5 9.1
10/24/2021 5:15:00 AM 12.1 53.78 0.166 7.04 2.04 9.1
10/24/2021 5:30:00 AM 12.07 53.726 0.166 7.03 2.34 9.1
10/24/2021 5:45:00 AM 12.05 53.69 0.166 7.03 1.27 9.12
10/24/2021 6:00:00 AM 12.01 53.618 0.166 7.03 2.1 9.14
10/24/2021 6:15:00 AM 11.99 53.582 0.166 7.03 2.23 9.17
10/24/2021 6:30:00 AM 11.96 53.528 0.166 7.03 3.86 9.2
10/24/2021 6:45:00 AM 11.94 53.492 0.166 7.04 2.19 9.2
10/24/2021 7:00:00 AM 11.91 53.438 0.166 7.03 2.94 9.19
10/24/2021 7:15:00 AM 11.89 53.402 0.166 7.02 1.31 9.13
10/24/2021 7:30:00 AM 11.88 53.384 0.166 7.02 1.24 9.06
10/24/2021 7:45:00 AM 11.86 53.348 0.166 7.01 2.32 9.14
10/24/2021 8:00:00 AM 11.85 53.33 0.166 7.01 1.4 9.16
10/24/2021 8:15:00 AM 11.83 53.294 0.165 7.01 2.52 9.2
10/24/2021 8:30:00 AM 11.83 53.294 0.166 7.01 1.31 9.22
10/24/2021 8:45:00 AM 11.84 53.312 0.166 7.01 1.32 9.31
10/24/2021 9:00:00 AM 11.84 53.312 0.166 7.01 2.11 9.39
10/24/2021 9:15:00 AM 11.86 53.348 0.165 7 1.4 9.51
10/24/2021 9:30:00 AM 11.88 53.384 0.165 7 1.19 9.71
10/24/2021 9:45:00 AM 11.9 53.42 0.165 7 1.38 9.84
10/24/2021 10:00:00 AM 11.92 53.456 0.165 7 1.42 9.9
10/24/2021 10:15:00 AM 11.94 53.492 0.165 7.01 2.32 10.02
10/24/2021 10:30:00 AM 11.96 53.528 0.165 7.06 1.33 10.12
10/24/2021 10:45:00 AM 11.98 53.564 0.165 7.1 1.33 10.18
10/24/2021 11:00:00 AM 12.01 53.618 0.165 7.13 2.36 10.22
10/24/2021 11:15:00 AM 12.04 53.672 0.165 7.15 2.11 10.31
10/24/2021 11:30:00 AM 12.09 53.762 0.165 7.19 2.19 10.44
10/24/2021 11:45:00 AM 12.14 53.852 0.164 7.23 1.37 10.56
10/24/2021 12:00:00 PM 12.22 53.996 0.164 7.25 2.33 10.7
10/24/2021 12:15:00 PM 12.28 54.104 0.164 7.26 1.52 10.85
10/24/2021 12:30:00 PM 12.33 54.194 0.164 7.28 2.2 10.98
10/24/2021 12:45:00 PM 12.37 54.266 0.164 7.3 2.14 11.04
10/24/2021 1:00:00 PM 12.43 54.374 0.164 7.32 1.46 11.11
10/24/2021 1:15:00 PM 12.5 54.5 0.164 7.34 2.89 11.17
10/24/2021 1:30:00 PM 12.6 54.68 0.163 7.36 2.22 11.28
10/24/2021 1:45:00 PM 12.69 54.842 0.163 7.37 2.51 11.32
10/24/2021 2:00:00 PM 12.82 55.076 0.163 7.37 2.27 11.38
10/24/2021 2:15:00 PM 12.96 55.328 0.163 7.42 2.27 11.5
10/24/2021 2:30:00 PM 13.13 55.634 0.163 7.46 2.33 11.54
10/24/2021 2:45:00 PM 13.2 55.76 0.163 7.48 2.56 11.49
10/24/2021 3:00:00 PM 13.31 55.958 0.162 7.49 2.27 11.49
10/24/2021 3:15:00 PM 13.36 56.048 0.162 7.51 2.29 11.39
10/24/2021 3:30:00 PM 13.39 56.102 0.162 7.52 2.17 11.32
10/24/2021 3:45:00 PM 13.42 56.156 0.163 7.54 2.45 11.27
10/24/2021 4:00:00 PM 13.47 56.246 0.163 7.56 1.63 11.25
10/24/2021 4:15:00 PM 13.48 56.264 0.162 7.57 3.01 11.16
10/24/2021 4:30:00 PM 13.47 56.246 0.162 7.58 2.25 11.09
10/24/2021 4:45:00 PM 13.46 56.228 0.162 7.59 2.29 10.93
10/24/2021 5:00:00 PM 13.45 56.21 0.163 7.59 2.35 10.83
10/24/2021 5:15:00 PM 13.43 56.174 0.163 7.6 2.54 10.74
10/24/2021 5:30:00 PM 13.43 56.174 0.162 7.61 2.74 10.61
10/24/2021 5:45:00 PM 13.42 56.156 0.163 7.61 2.57 10.46
10/24/2021 6:00:00 PM 13.4 56.12 0.163 7.61 2.24 10.36
10/24/2021 6:15:00 PM 13.37 56.066 0.163 7.6 3.3 10.23
10/24/2021 6:30:00 PM 13.33 55.994 0.163 7.6 2.36 10.09
10/24/2021 6:45:00 PM 13.29 55.922 0.163 7.58 2.25 9.94
10/24/2021 7:00:00 PM 13.24 55.832 0.163 7.56 2.48 9.83
10/24/2021 7:15:00 PM 13.19 55.742 0.163 7.55 2.46 9.71
10/24/2021 7:30:00 PM 13.15 55.67 0.164 7.54 2.3 9.62
10/24/2021 7:45:00 PM 13.1 55.58 0.164 7.52 2.45 9.51
10/24/2021 8:00:00 PM 13.06 55.508 0.164 7.49 2.38 9.49
10/24/2021 8:15:00 PM 13.03 55.454 0.164 7.48 2.57 9.42
10/24/2021 8:30:00 PM 13 55.4 0.164 7.46 2.54 9.36
10/24/2021 8:45:00 PM 12.97 55.346 0.164 7.45 2.9 9.29
10/24/2021 9:00:00 PM 12.95 55.31 0.164 7.43 2.58 9.31
10/24/2021 9:15:00 PM 12.93 55.274 0.164 7.41 2.71 9.26
10/24/2021 9:30:00 PM 12.91 55.238 0.165 7.4 2.69 9.29
10/24/2021 9:45:00 PM 12.9 55.22 0.165 7.38 2.75 9.22
10/24/2021 10:00:00 PM 12.88 55.184 0.165 7.37 3.12 9.19
10/24/2021 10:15:00 PM 12.87 55.166 0.165 7.36 2.66 9.17
10/24/2021 10:30:00 PM 12.85 55.13 0.165 7.34 2.79 9.13
10/24/2021 10:45:00 PM 12.84 55.112 0.165 7.33 2.71 9.13
10/24/2021 11:00:00 PM 12.82 55.076 0.165 7.33 3.28 9.13
10/24/2021 11:15:00 PM 12.81 55.058 0.165 7.31 2.55 9.1
10/24/2021 11:30:00 PM 12.79 55.022 0.165 7.3 2.77 9.12
10/24/2021 11:45:00 PM 12.78 55.004 0.165 7.3 2.77 9.14
10/25/2021 12:00:00 AM 12.76 54.968 0.165 7.29 2.51 9.09
10/25/2021 12:15:00 AM 12.75 54.95 0.165 7.28 2.64 9.08
10/25/2021 12:30:00 AM 12.73 54.914 0.165 7.27 2.98 9.12
10/25/2021 12:45:00 AM 12.72 54.896 0.165 7.27 2.55 9.09
10/25/2021 1:00:00 AM 12.71 54.878 0.165 7.26 2.75 9.08
10/25/2021 1:15:00 AM 12.7 54.86 0.165 7.25 2.67 9.12
10/25/2021 1:30:00 AM 12.69 54.842 0.165 7.24 2.39 9.1
10/25/2021 1:45:00 AM 12.68 54.824 0.165 7.23 2.99 9.12
10/25/2021 2:00:00 AM 12.67 54.806 0.165 7.23 2.67 9.12
10/25/2021 2:15:00 AM 12.65 54.77 0.165 7.23 2.5 9.05
10/25/2021 2:30:00 AM 12.63 54.734 0.165 7.23 3.01 9.03
10/25/2021 2:45:00 AM 12.61 54.698 0.165 7.22 1.82 9.07
10/25/2021 3:00:00 AM 12.59 54.662 0.165 7.22 5.29 9.06
10/25/2021 3:15:00 AM 12.57 54.626 0.165 7.22 1.84 9.11
10/25/2021 3:30:00 AM 12.54 54.572 0.165 7.22 2.52 9.08
10/25/2021 3:45:00 AM 12.52 54.536 0.165 7.22 1.77 9.07
10/25/2021 4:00:00 AM 12.51 54.518 0.165 7.21 2.97 9.05
10/25/2021 4:15:00 AM 12.5 54.5 0.165 7.21 2.49 9.07
10/25/2021 4:30:00 AM 12.49 54.482 0.165 7.21 2.86 9.06
10/25/2021 4:45:00 AM 12.48 54.464 0.165 7.21 3.07 9.04
10/25/2021 5:00:00 AM 12.47 54.446 0.165 7.2 2.67 9.08
10/25/2021 5:15:00 AM 12.46 54.428 0.165 7.2 2.52 9.09
10/25/2021 5:30:00 AM 12.46 54.428 0.165 7.2 2.63 9.1
10/25/2021 5:45:00 AM 12.45 54.41 0.166 7.19 2.96 8.96
10/25/2021 6:00:00 AM 12.44 54.392 0.166 7.19 2.85 9
10/25/2021 6:15:00 AM 12.42 54.356 0.166 7.18 2.62 8.96
10/25/2021 6:30:00 AM 12.41 54.338 0.166 7.18 3.23 9.06
10/25/2021 6:45:00 AM 12.4 54.32 0.166 7.18 2.71 9.02
10/25/2021 7:00:00 AM 12.39 54.302 0.166 7.18 3.25 9.06
10/25/2021 7:15:00 AM 12.38 54.284 0.166 7.18 3.14 9.01
10/25/2021 7:30:00 AM 12.37 54.266 0.166 7.18 2.87 9.04
10/25/2021 7:45:00 AM 12.36 54.248 0.166 7.18 3.02 9.1
10/25/2021 8:00:00 AM 12.35 54.23 0.165 7.18 1.87 9.06
10/25/2021 8:15:00 AM 12.35 54.23 0.165 7.18 2.48 9.03
10/25/2021 8:30:00 AM 12.36 54.248 0.166 7.18 2.52 9.11
10/25/2021 8:45:00 AM 12.37 54.266 0.165 7.18 1.7 9.02
10/25/2021 9:00:00 AM 12.39 54.302 0.166 7.18 2.9 9.22
10/25/2021 9:15:00 AM 12.42 54.356 0.166 7.19 2.66 9.28
10/25/2021 9:30:00 AM 12.46 54.428 0.165 7.2 3.09 9.48
10/25/2021 9:45:00 AM 12.51 54.518 0.165 7.21 2.84 9.83
10/25/2021 10:00:00 AM 12.57 54.626 0.165 7.23 2.65 10.05
10/25/2021 10:15:00 AM 12.65 54.77 0.165 7.24 2.91 10.18
10/25/2021 10:30:00 AM 12.73 54.914 0.164 7.27 2.32 10.41
10/25/2021 10:45:00 AM 12.81 55.058 0.164 7.29 2.54 10.49
10/25/2021 11:00:00 AM 12.88 55.184 0.164 7.32 2.48 10.59
10/25/2021 11:15:00 AM 12.98 55.364 0.164 7.34 2.51 10.67
10/25/2021 11:30:00 AM 13.1 55.58 0.164 7.36 2.51 10.65
10/25/2021 11:45:00 AM 13.25 55.85 0.164 7.38 2.85 10.72
10/25/2021 12:00:00 PM 13.37 56.066 0.164 7.39 3.04 10.69
10/25/2021 12:15:00 PM 13.54 56.372 0.164 7.41 2.51 10.78
10/25/2021 12:30:00 PM 13.71 56.678 0.163 7.42 1.72 10.75
10/25/2021 12:45:00 PM 13.91 57.038 0.163 7.44 2.86 10.79
10/25/2021 1:00:00 PM 14.08 57.344 0.163 7.46 2.44 10.8
10/25/2021 1:15:00 PM 14.26 57.668 0.163 7.45 2.66 10.76
10/25/2021 1:30:00 PM 14.54 58.172 0.163 7.46 1.9 10.77
10/25/2021 1:45:00 PM 14.8 58.64 0.163 7.49 2.4 10.85
10/25/2021 2:00:00 PM 15.02 59.036 0.163 7.49 2.72 10.83
10/25/2021 2:15:00 PM 15.25 59.45 0.163 7.51 2.87 10.89
10/25/2021 2:30:00 PM 15.42 59.756 0.163 7.55 2.06 10.94
10/25/2021 2:45:00 PM 15.54 59.972 0.163 7.56 2.41 10.92
10/25/2021 3:00:00 PM 15.65 60.17 0.163 7.58 2.19 10.82
10/25/2021 3:15:00 PM 15.77 60.386 0.163 7.58 2.84 10.79
10/25/2021 3:30:00 PM 15.83 60.494 0.163 7.58 2.57 10.77
10/25/2021 3:45:00 PM 15.87 60.566 0.163 7.58 2.57 10.72
10/25/2021 4:00:00 PM 15.93 60.674 0.163 7.6 2.24 10.66
10/25/2021 4:15:00 PM 15.99 60.782 0.163 7.62 2.27 10.59
10/25/2021 4:30:00 PM 16.02 60.836 0.163 7.63 2.36 10.54
10/25/2021 4:45:00 PM 16.05 60.89 0.163 7.63 2.93 10.46
10/25/2021 5:00:00 PM 16.06 60.908 0.163 7.64 2.7 10.33
10/25/2021 5:15:00 PM 16.04 60.872 0.163 7.63 2.56 10.25
10/25/2021 5:30:00 PM 16.01 60.818 0.164 7.6 2.47 10.06
10/25/2021 5:45:00 PM 15.96 60.728 0.164 7.59 2.57 9.85
10/25/2021 6:00:00 PM 15.92 60.656 0.164 7.59 2.57 9.62
10/25/2021 6:15:00 PM 15.87 60.566 0.164 7.57 2.35 9.42
10/25/2021 6:30:00 PM 15.82 60.476 0.164 7.54 2.44 9.24
10/25/2021 6:45:00 PM 15.77 60.386 0.165 7.51 2.35 9.05
10/25/2021 7:00:00 PM 15.72 60.296 0.165 7.51 2.57 8.86
10/25/2021 7:15:00 PM 15.68 60.224 0.165 7.49 2.05 8.75
10/25/2021 7:30:00 PM 15.67 60.206 0.165 7.46 2.55 8.73
10/25/2021 7:45:00 PM 15.66 60.188 0.165 7.45 4.03 8.73
10/25/2021 8:00:00 PM 15.65 60.17 0.164 7.44 3.13 8.65
10/25/2021 8:15:00 PM 15.62 60.116 0.164 7.41 3.26 8.51
10/25/2021 8:30:00 PM 15.58 60.044 0.164 7.39 3.08 8.54
10/25/2021 8:45:00 PM 15.53 59.954 0.163 7.37 2.9 8.49
10/25/2021 9:00:00 PM 15.49 59.882 0.162 7.35 2.61 8.45
10/25/2021 9:15:00 PM 15.44 59.792 0.162 7.33 2.9 8.43
10/25/2021 9:30:00 PM 15.38 59.684 0.162 7.32 3.98 8.39
10/25/2021 9:45:00 PM 15.33 59.594 0.161 7.28 4 8.45
10/25/2021 10:00:00 PM 15.27 59.486 0.159 7.24 3.98 8.5
10/25/2021 10:15:00 PM 15.22 59.396 0.158 7.21 4.59 8.5
10/25/2021 10:30:00 PM 15.18 59.324 0.157 7.2 5.88 8.5
10/25/2021 10:45:00 PM 15.15 59.27 0.156 7.16 5.93 8.49
10/25/2021 11:00:00 PM 15.13 59.234 0.156 7.13 5 8.53
10/25/2021 11:15:00 PM 15.1 59.18 0.154 7.15 6.37 8.51
10/25/2021 11:30:00 PM 15.07 59.126 0.153 7.16 5.98 8.5
10/25/2021 11:45:00 PM 15.05 59.09 0.151 7.17 5.76 8.5
10/26/2021 12:00:00 AM 15.03 59.054 0.149 7.18 9.44 8.57
10/26/2021 12:15:00 AM 15 59 0.147 7.18 55.47 8.59
10/26/2021 12:30:00 AM 14.99 58.982 0.144 7.17 123.5 8.61
10/26/2021 12:45:00 AM 14.98 58.964 0.143 7.16 193.3 8.64
10/26/2021 1:00:00 AM 14.99 58.982 0.143 7.16 105 8.63
10/26/2021 1:15:00 AM 15 59 0.143 7.16 95.92 8.67
10/26/2021 1:30:00 AM 15.03 59.054 0.144 7.16 72.19 8.65
10/26/2021 1:45:00 AM 15.08 59.144 0.145 7.16 58.18 8.66
10/26/2021 2:00:00 AM 15.14 59.252 0.145 7.17 61.87 8.72
10/26/2021 2:15:00 AM 15.18 59.324 0.146 7.18 68.42 8.69
10/26/2021 2:30:00 AM 15.18 59.324 0.147 7.18 88.39 8.72
10/26/2021 2:45:00 AM 15.17 59.306 0.147 7.2 98.37 8.76
10/26/2021 3:00:00 AM 15.16 59.288 0.147 7.2 99.34 8.77
10/26/2021 3:15:00 AM 15.16 59.288 0.147 7.18 38.89 8.78
10/26/2021 3:30:00 AM 15.17 59.306 0.147 7.2 58.2 8.75
10/26/2021 3:45:00 AM 15.16 59.288 0.148 7.2 76.32 8.75
10/26/2021 4:00:00 AM 15.14 59.252 0.149 7.2 73.96 8.78
10/26/2021 4:15:00 AM 15.12 59.216 0.15 7.21 55.69 8.78
10/26/2021 4:30:00 AM 15.1 59.18 0.152 7.22 58.86 8.78
10/26/2021 4:45:00 AM 15.08 59.144 0.152 7.21 53.97 8.79
10/26/2021 5:00:00 AM 15.06 59.108 0.153 7.23 37.25 8.77
10/26/2021 5:15:00 AM 15.05 59.09 0.153 7.23 39.3 8.76
10/26/2021 5:30:00 AM 15.03 59.054 0.152 7.24 44.72 8.75
10/26/2021 5:45:00 AM 15.02 59.036 0.152 7.23 32.43 8.72
10/26/2021 6:00:00 AM 15.01 59.018 0.152 7.22 32.68 8.7
10/26/2021 6:15:00 AM 14.99 58.982 0.151 7.22 35.76 8.73
10/26/2021 6:30:00 AM 14.98 58.964 0.151 7.22 26.49 8.68
10/26/2021 6:45:00 AM 14.96 58.928 0.152 7.21 25.62 8.66
10/26/2021 7:00:00 AM 14.95 58.91 0.152 7.2 21.99 8.67
10/26/2021 7:15:00 AM 14.94 58.892 0.152 7.19 28.36 8.62
10/26/2021 7:30:00 AM 14.93 58.874 0.152 7.18 24.21 8.62
10/26/2021 7:45:00 AM 14.92 58.856 0.153 7.17 17.78 8.56
10/26/2021 8:00:00 AM 14.91 58.838 0.153 7.16 17.28 8.56
10/26/2021 8:15:00 AM 14.91 58.838 0.153 7.16 20.23 8.58
10/26/2021 8:30:00 AM 14.91 58.838 0.153 7.15 27.11 8.52
10/26/2021 8:45:00 AM 14.9 58.82 0.152 7.15 19.68 8.4
10/26/2021 9:00:00 AM 14.9 58.82 0.152 7.12 17.18 8.36
10/26/2021 9:15:00 AM 14.92 58.856 0.152 7.11 18.06 8.53
10/26/2021 9:30:00 AM 14.95 58.91 0.151 7.11 17.69 8.53
10/26/2021 9:45:00 AM 14.99 58.982 0.151 7.1 17.27 8.51
10/26/2021 10:00:00 AM 15.03 59.054 0.15 7.08 18.14 8.53
10/26/2021 10:15:00 AM 15.09 59.162 0.15 7.09 15.33 8.59
10/26/2021 10:30:00 AM 15.14 59.252 0.15 7.08 14.59 8.61
10/26/2021 10:45:00 AM 15.2 59.36 0.15 7.08 15.77 8.68
10/26/2021 11:00:00 AM 15.27 59.486 0.15 7.08 16.08 8.66
10/26/2021 11:15:00 AM 15.33 59.594 0.15 7.07 12.63 8.64
10/26/2021 11:30:00 AM 15.4 59.72 0.15 7.08 13.32 8.67
10/26/2021 11:45:00 AM 15.46 59.828 0.151 7.08 13.25 8.45
10/26/2021 12:00:00 PM 15.53 59.954 0.151 7.07 15.77 8.64
10/26/2021 12:15:00 PM 15.59 60.062 0.151 7.07 11.39 8.47
10/26/2021 12:30:00 PM 15.65 60.17 0.152 7.07 10.98 8.59
10/26/2021 12:45:00 PM 15.74 60.332 0.152 7.04 14.2 8.61
10/26/2021 1:00:00 PM 15.77 60.386 0.152 7.01 12.8 8.67
10/26/2021 1:15:00 PM 15.8 60.44 0.152 6.98 9.81 8.63
10/26/2021 1:30:00 PM 15.9 60.62 0.153 6.94 9.8 8.86
10/26/2021 1:45:00 PM 15.93 60.674 0.153 6.91 9.4 9
10/26/2021 2:00:00 PM 15.89 60.602 0.153 6.9 8.93 8.74
10/26/2021 2:15:00 PM 15.82 60.476 0.153 6.88 8.88 8.44
10/26/2021 2:30:00 PM 15.79 60.422 0.153 6.88 10.11 8.18
10/26/2021 2:45:00 PM 15.74 60.332 0.153 6.89 11.62 8.58
10/26/2021 3:00:00 PM 15.7 60.26 0.153 6.91 8.8 8.63
10/26/2021 3:15:00 PM 15.64 60.152 0.153 6.94 9.01 8.63
10/26/2021 3:30:00 PM 15.58 60.044 0.153 6.95 7.71 8.52
10/26/2021 3:45:00 PM 15.51 59.918 0.153 6.94 8.34 8.49
10/26/2021 4:00:00 PM 15.45 59.81 0.153 6.94 8.14 8.61
10/26/2021 4:15:00 PM 15.37 59.666 0.153 6.94 6.71 8.4
10/26/2021 4:30:00 PM 15.31 59.558 0.153 6.93 7.14 8.45
10/26/2021 4:45:00 PM 15.23 59.414 0.153 6.93 7.41 8.4
10/26/2021 5:00:00 PM 15.16 59.288 0.153 6.95 7.13 8.63
10/26/2021 5:15:00 PM 15.08 59.144 0.153 6.95 6.11 8.48
10/26/2021 5:30:00 PM 15.01 59.018 0.153 6.96 6.48 8.36
10/26/2021 5:45:00 PM 14.94 58.892 0.153 6.97 6.22 8.44
10/26/2021 6:00:00 PM 14.86 58.748 0.153 6.97 8.17 8.53
10/26/2021 6:15:00 PM 14.78 58.604 0.153 6.98 5.56 8.51
10/26/2021 6:30:00 PM 14.7 58.46 0.153 6.99 4.78 8.2
10/26/2021 6:45:00 PM 14.61 58.298 0.153 6.99 5.34 8.02
10/26/2021 7:00:00 PM 14.54 58.172 0.153 7 9.28 7.93
10/26/2021 7:15:00 PM 14.46 58.028 0.153 6.99 4.89 8.04
10/26/2021 7:30:00 PM 14.38 57.884 0.153 7 5.47 8.16
10/26/2021 7:45:00 PM 14.31 57.758 0.153 7 4.62 8.27
10/26/2021 8:00:00 PM 14.24 57.632 0.153 7.01 5.35 8.22
10/26/2021 8:15:00 PM 14.18 57.524 0.153 7 4.78 8.21
10/26/2021 8:30:00 PM 14.11 57.398 0.153 7.01 4.47 8.03
10/26/2021 8:45:00 PM 14.04 57.272 0.153 7 5.83 8.03
10/26/2021 9:00:00 PM 13.97 57.146 0.153 7.01 4.95 8
10/26/2021 9:15:00 PM 13.93 57.074 0.153 7.01 7.61 8.05
10/26/2021 9:30:00 PM 13.88 56.984 0.153 7 5.86 8.35
10/26/2021 9:45:00 PM 13.83 56.894 0.154 7 6.39 8.58
10/26/2021 10:00:00 PM 13.78 56.804 0.154 7.01 6.62 8.51
10/26/2021 10:15:00 PM 13.72 56.696 0.154 7 5.19 8.32
10/26/2021 10:30:00 PM 13.67 56.606 0.154 7 3.83 8.4
10/26/2021 10:45:00 PM 13.62 56.516 0.154 7 5.3 8.09
10/26/2021 11:00:00 PM 13.57 56.426 0.154 7 3.96 8.25
10/26/2021 11:15:00 PM 13.52 56.336 0.155 6.99 4.81 8.49
10/26/2021 11:30:00 PM 13.47 56.246 0.155 7 6.11 8.58
10/26/2021 11:45:00 PM 13.43 56.174 0.155 6.99 4.3 8.65
10/27/2021 12:00:00 AM 13.38 56.084 0.155 6.98 4.54 8.7
10/27/2021 12:15:00 AM 13.35 56.03 0.155 6.98 5.33 8.53
10/27/2021 12:30:00 AM 13.32 55.976 0.155 6.97 4.37 8.79
10/27/2021 12:45:00 AM 13.28 55.904 0.155 6.97 5.04 8.63
10/27/2021 1:00:00 AM 13.24 55.832 0.156 6.96 4.02 8.62
10/27/2021 1:15:00 AM 13.21 55.778 0.156 6.95 6.61 8.55
10/27/2021 1:30:00 AM 13.17 55.706 0.156 6.95 4.13 8.66
10/27/2021 1:45:00 AM 13.14 55.652 0.156 6.96 3.32 8.45
10/27/2021 2:00:00 AM 13.11 55.598 0.156 6.96 5.26 8.75
10/27/2021 2:15:00 AM 13.08 55.544 0.156 6.94 5.95 8.69
10/27/2021 2:30:00 AM 13.06 55.508 0.156 6.94 3.94 8.66
10/27/2021 2:45:00 AM 13.04 55.472 0.157 6.94 3.61 8.68
10/27/2021 3:00:00 AM 13.01 55.418 0.157 6.93 4.16 8.67
10/27/2021 3:15:00 AM 12.99 55.382 0.157 6.94 3.6 8.5
10/27/2021 3:30:00 AM 12.97 55.346 0.157 6.93 3.71 8.69
10/27/2021 3:45:00 AM 12.96 55.328 0.157 6.92 3.04 8.77
10/27/2021 4:00:00 AM 12.94 55.292 0.158 6.92 3.11 8.68
10/27/2021 4:15:00 AM 12.93 55.274 0.158 6.92 2.94 8.5
10/27/2021 4:30:00 AM 12.9 55.22 0.158 6.92 5.54 8.64
10/27/2021 4:45:00 AM 12.88 55.184 0.158 6.92 3.15 8.73
10/27/2021 5:00:00 AM 12.85 55.13 0.158 6.92 3.31 8.79
10/27/2021 5:15:00 AM 12.84 55.112 0.158 6.93 3.15 8.57
10/27/2021 5:30:00 AM 12.82 55.076 0.158 6.92 2.98 8.63
10/27/2021 5:45:00 AM 12.81 55.058 0.158 6.91 2.84 8.44
10/27/2021 6:00:00 AM 12.79 55.022 0.159 6.9 3.67 8.47
10/27/2021 6:15:00 AM 12.77 54.986 0.159 6.89 3.08 8.33
10/27/2021 6:30:00 AM 12.75 54.95 0.159 6.89 3.97 8.8
10/27/2021 6:45:00 AM 12.74 54.932 0.159 6.88 3.66 8.74
10/27/2021 7:00:00 AM 12.73 54.914 0.159 6.89 3.14 8.8
10/27/2021 7:15:00 AM 12.71 54.878 0.159 6.89 3.39 8.61
10/27/2021 7:30:00 AM 12.69 54.842 0.159 6.9 3.54 8.55
10/27/2021 7:45:00 AM 12.66 54.788 0.159 6.91 2.99 8.78
10/27/2021 8:00:00 AM 12.64 54.752 0.159 6.91 2.44 8.77
10/27/2021 8:15:00 AM 12.62 54.716 0.159 6.91 2.88 8.75
10/27/2021 8:30:00 AM 12.6 54.68 0.176 6.96 120.9 9.41
10/27/2021 8:45:00 AM 12.6 54.68 0.176 7.15 4.94 9.47
10/27/2021 9:00:00 AM 12.59 54.662 0.176 7.22 2.73 9.48
10/27/2021 9:15:00 AM 12.57 54.626 0.176 7.28 4.42 9.52
10/27/2021 9:30:00 AM 12.58 54.644 0.176 7.3 3.15 9.58
10/27/2021 9:45:00 AM 12.59 54.662 0.176 7.34 1.21 9.63
10/27/2021 10:00:00 AM 12.62 54.716 0.176 7.36 1.88 9.74
10/27/2021 10:15:00 AM 12.63 54.734 0.176 7.38 1.84 9.8
10/27/2021 10:30:00 AM 12.66 54.788 0.176 7.4 1.93 9.83
10/27/2021 10:45:00 AM 12.7 54.86 0.176 7.42 1.7 9.87
10/27/2021 11:00:00 AM 12.74 54.932 0.177 7.43 1.29 9.9
10/27/2021 11:15:00 AM 12.8 55.04 0.177 7.44 1.66 9.97
10/27/2021 11:30:00 AM 12.89 55.202 0.177 7.46 1.48 10.03
10/27/2021 11:45:00 AM 13 55.4 0.177 7.48 1.34 10.09
10/27/2021 12:00:00 PM 13.13 55.634 0.177 7.49 1.14 10.17
10/27/2021 12:15:00 PM 13.3 55.94 0.177 7.5 1.43 10.24
10/27/2021 12:30:00 PM 13.5 56.3 0.177 7.52 1.95 10.3
10/27/2021 12:45:00 PM 13.67 56.606 0.177 7.55 1.25 10.34
10/27/2021 1:00:00 PM 13.84 56.912 0.177 7.57 1.4 10.34
10/27/2021 1:15:00 PM 13.99 57.182 0.177 7.58 1.24 10.35
10/27/2021 1:30:00 PM 14.22 57.596 0.177 7.6 0.59 10.35
10/27/2021 1:45:00 PM 14.46 58.028 0.177 7.6 0.95 10.38
10/27/2021 2:00:00 PM 14.66 58.388 0.177 7.63 0.79 10.36
10/27/2021 2:15:00 PM 14.79 58.622 0.177 7.65 1.33 10.36
10/27/2021 2:30:00 PM 14.87 58.766 0.178 7.66 1.03 10.37
10/27/2021 2:45:00 PM 14.9 58.82 0.178 7.67 0.74 10.28
10/27/2021 3:00:00 PM 14.98 58.964 0.178 7.68 0.57 10.28
10/27/2021 3:15:00 PM 15.04 59.072 0.178 7.69 1.14 10.22
10/27/2021 3:30:00 PM 15.08 59.144 0.178 7.69 0.75 10.2
10/27/2021 3:45:00 PM 15.11 59.198 0.178 7.69 1.03 10.15
10/27/2021 4:00:00 PM 15.13 59.234 0.178 7.7 1.18 10.1
10/27/2021 4:15:00 PM 15.08 59.144 0.178 7.7 1.77 10.05
10/27/2021 4:30:00 PM 15 59 0.178 7.69 1.6 9.96
10/27/2021 4:45:00 PM 14.94 58.892 0.179 7.68 1.19 9.89
10/27/2021 5:00:00 PM 14.86 58.748 0.179 7.66 1.15 9.79
10/27/2021 5:15:00 PM 14.79 58.622 0.179 7.65 0.52 9.68
10/27/2021 5:30:00 PM 14.73 58.514 0.179 7.63 1.21 9.65
10/27/2021 5:45:00 PM 14.65 58.37 0.179 7.61 1.42 9.58
10/27/2021 6:00:00 PM 14.58 58.244 0.179 7.59 0.62 9.52
10/27/2021 6:15:00 PM 14.5 58.1 0.179 7.57 1.07 9.46
10/27/2021 6:30:00 PM 14.43 57.974 0.179 7.55 1.58 9.39
10/27/2021 6:45:00 PM 14.35 57.83 0.18 7.54 0.49 9.35
10/27/2021 7:00:00 PM 14.28 57.704 0.18 7.52 0.7 9.28
10/27/2021 7:15:00 PM 14.21 57.578 0.18 7.5 1.42 9.23
10/27/2021 7:30:00 PM 14.14 57.452 0.18 7.48 1.4 9.22
10/27/2021 7:45:00 PM 14.08 57.344 0.18 7.47 1.07 9.18
10/27/2021 8:00:00 PM 14.02 57.236 0.18 7.45 1.78 9.16
10/27/2021 8:15:00 PM 13.97 57.146 0.18 7.44 1.15 9.14
10/27/2021 8:30:00 PM 13.92 57.056 0.18 7.42 2.75 9.11
10/27/2021 8:45:00 PM 13.88 56.984 0.18 7.41 2.21 9.1
10/27/2021 9:00:00 PM 13.83 56.894 0.18 7.41 1.5 9.09
10/27/2021 9:15:00 PM 13.78 56.804 0.18 7.4 1.23 9.07
10/27/2021 9:30:00 PM 13.73 56.714 0.18 7.39 0.86 9.08
10/27/2021 9:45:00 PM 13.69 56.642 0.18 7.38 1.29 9.08
10/27/2021 10:00:00 PM 13.64 56.552 0.18 7.37 1.21 9.07
10/27/2021 10:15:00 PM 13.59 56.462 0.18 7.37 1.98 9.08
10/27/2021 10:30:00 PM 13.54 56.372 0.18 7.37 1.31 9.09
10/27/2021 10:45:00 PM 13.49 56.282 0.18 7.36 1.73 9.07
10/27/2021 11:00:00 PM 13.45 56.21 0.18 7.36 1.6 9.09
10/27/2021 11:15:00 PM 13.41 56.138 0.18 7.36 2.78 9.09
10/27/2021 11:30:00 PM 13.35 56.03 0.18 7.35 1.63 9.12
10/27/2021 11:45:00 PM 13.3 55.94 0.18 7.34 1.52 9.1
10/28/2021 12:00:00 AM 13.25 55.85 0.18 7.34 1.5 9.14
10/28/2021 12:15:00 AM 13.2 55.76 0.18 7.34 1.56 9.14
10/28/2021 12:30:00 AM 13.15 55.67 0.181 7.34 2.88 9.15
10/28/2021 12:45:00 AM 13.1 55.58 0.181 7.33 1.64 9.17
10/28/2021 1:00:00 AM 13.05 55.49 0.181 7.33 2.62 9.18
10/28/2021 1:15:00 AM 13 55.4 0.181 7.33 1.52 9.18
10/28/2021 1:30:00 AM 12.95 55.31 0.181 7.33 1.76 9.19
10/28/2021 1:45:00 AM 12.9 55.22 0.181 7.32 3.36 9.21
10/28/2021 2:00:00 AM 12.85 55.13 0.181 7.33 1.6 9.23
10/28/2021 2:15:00 AM 12.81 55.058 0.181 7.32 1.06 9.24
10/28/2021 2:30:00 AM 12.77 54.986 0.181 7.33 1.58 9.24
10/28/2021 2:45:00 AM 12.72 54.896 0.181 7.32 1.68 9.26
10/28/2021 3:00:00 AM 12.68 54.824 0.181 7.32 1.19 9.28
10/28/2021 3:15:00 AM 12.63 54.734 0.181 7.32 1.11 9.31
10/28/2021 3:30:00 AM 12.59 54.662 0.18 7.32 0.97 9.31
10/28/2021 3:45:00 AM 12.55 54.59 0.18 7.32 2.56 9.32
10/28/2021 4:00:00 AM 12.51 54.518 0.18 7.32 4.01 9.31
10/28/2021 4:15:00 AM 12.46 54.428 0.18 7.32 1.73 9.35
10/28/2021 4:30:00 AM 12.42 54.356 0.18 7.32 1.23 9.36
10/28/2021 4:45:00 AM 12.38 54.284 0.18 7.32 0.43 9.37
10/28/2021 5:00:00 AM 12.34 54.212 0.18 7.33 1.06 9.36
10/28/2021 5:15:00 AM 12.3 54.14 0.18 7.33 1.31 9.38
10/28/2021 5:30:00 AM 12.26 54.068 0.18 7.32 1.43 9.38
10/28/2021 5:45:00 AM 12.21 53.978 0.18 7.32 1.32 9.42
10/28/2021 6:00:00 AM 12.17 53.906 0.18 7.32 1.64 9.42
10/28/2021 6:15:00 AM 12.13 53.834 0.18 7.32 1.65 9.42
10/28/2021 6:30:00 AM 12.08 53.744 0.18 7.31 1.86 9.46
10/28/2021 6:45:00 AM 12.04 53.672 0.18 7.32 1.11 9.45
10/28/2021 7:00:00 AM 11.99 53.582 0.18 7.31 1.01 9.5
10/28/2021 7:15:00 AM 11.95 53.51 0.18 7.32 1.99 9.5
10/28/2021 7:30:00 AM 11.9 53.42 0.18 7.32 0.91 9.52
10/28/2021 7:45:00 AM 11.86 53.348 0.18 7.32 0.47 9.54
10/28/2021 8:00:00 AM 11.81 53.258 0.18 7.33 0.26 9.57
10/28/2021 8:15:00 AM 11.77 53.186 0.18 7.33 0.62 9.59
10/28/2021 8:30:00 AM 11.73 53.114 0.18 7.33 0.5 9.63
10/28/2021 8:45:00 AM 11.69 53.042 0.181 7.33 0.4 9.65
10/28/2021 9:00:00 AM 11.66 52.988 0.181 7.34 0.22 9.71
10/28/2021 9:15:00 AM 11.63 52.934 0.181 7.34 0.42 9.79
10/28/2021 9:30:00 AM 11.61 52.898 0.181 7.35 1.68 9.82
10/28/2021 9:45:00 AM 11.6 52.88 0.181 7.35 1.39 9.89
10/28/2021 10:00:00 AM 11.61 52.898 0.181 7.37 1.13 9.97
10/28/2021 10:15:00 AM 11.63 52.934 0.181 7.37 0.87 10.03
10/28/2021 10:30:00 AM 11.65 52.97 0.181 7.38 1.33 10.09
10/28/2021 10:45:00 AM 11.69 53.042 0.181 7.39 0.07 10.15
10/28/2021 11:00:00 AM 11.76 53.168 0.181 7.41 0.36 10.24
10/28/2021 11:15:00 AM 11.86 53.348 0.18 7.43 0.25 10.35
10/28/2021 11:30:00 AM 12 53.6 0.18 7.44 0.15 10.44
10/28/2021 11:45:00 AM 12.13 53.834 0.18 7.47 0.46 10.52
10/28/2021 12:00:00 PM 12.25 54.05 0.18 7.49 2.11 10.61
10/28/2021 12:15:00 PM 12.45 54.41 0.18 7.5 0.33 10.66
10/28/2021 12:30:00 PM 12.63 54.734 0.18 7.52 1.36 10.73
10/28/2021 12:45:00 PM 12.77 54.986 0.18 7.55 1.25 10.8
10/28/2021 1:00:00 PM 12.97 55.346 0.18 7.57 0.59 10.82
10/28/2021 1:15:00 PM 13.15 55.67 0.18 7.59 0.79 10.84
10/28/2021 1:30:00 PM 13.4 56.12 0.18 7.61 0.67 10.88
10/28/2021 1:45:00 PM 13.62 56.516 0.18 7.63 0.77 10.93
10/28/2021 2:00:00 PM 13.74 56.732 0.179 7.66 1.17 10.96
10/28/2021 2:15:00 PM 13.78 56.804 0.18 7.69 0.49 10.92
10/28/2021 2:30:00 PM 13.85 56.93 0.18 7.71 0.2 10.89
10/28/2021 2:45:00 PM 13.91 57.038 0.179 7.73 0.56 10.9
10/28/2021 3:00:00 PM 14.05 57.29 0.179 7.75 0.79 10.87
10/28/2021 3:15:00 PM 14.21 57.578 0.179 7.77 0.14 10.9
10/28/2021 3:30:00 PM 14.31 57.758 0.179 7.8 0.47 10.91
10/28/2021 3:45:00 PM 14.33 57.794 0.18 7.81 0.85 10.85
10/28/2021 4:00:00 PM 14.28 57.704 0.18 7.82 1.37 10.81
10/28/2021 4:15:00 PM 14.24 57.632 0.18 7.83 0.56 10.7
10/28/2021 4:30:00 PM 14.22 57.596 0.18 7.82 0.16 10.59
10/28/2021 4:45:00 PM 14.21 57.578 0.18 7.82 0.28 10.53
10/28/2021 5:00:00 PM 14.18 57.524 0.18 7.82 0.86 10.54
10/28/2021 5:15:00 PM 14.13 57.434 0.18 7.8 0.28 10.49
10/28/2021 5:30:00 PM 14.07 57.326 0.18 7.8 0.29 10.38
10/28/2021 5:45:00 PM 14.01 57.218 0.18 7.78 0.12 10.22
10/28/2021 6:00:00 PM 13.95 57.11 0.181 7.75 0.61 10.1
10/28/2021 6:15:00 PM 13.88 56.984 0.181 7.73 0.77 9.99
10/28/2021 6:30:00 PM 13.81 56.858 0.181 7.69 0.71 9.88
10/28/2021 6:45:00 PM 13.73 56.714 0.181 7.66 0.22 9.79
10/28/2021 7:00:00 PM 13.67 56.606 0.181 7.62 0.67 9.71
10/28/2021 7:15:00 PM 13.6 56.48 0.181 7.6 0.87 9.66
10/28/2021 7:30:00 PM 13.54 56.372 0.181 7.57 1.17 9.6
10/28/2021 7:45:00 PM 13.5 56.3 0.181 7.54 1.34 9.56
10/28/2021 8:00:00 PM 13.46 56.228 0.181 7.52 2.01 9.52
10/28/2021 8:15:00 PM 13.43 56.174 0.181 7.5 1.26 9.49
10/28/2021 8:30:00 PM 13.41 56.138 0.181 7.49 2.42 9.45
10/28/2021 8:45:00 PM 13.38 56.084 0.181 7.47 1.23 9.41
10/28/2021 9:00:00 PM 13.35 56.03 0.181 7.46 0.88 9.4
10/28/2021 9:15:00 PM 13.32 55.976 0.181 7.44 1.73 9.38
10/28/2021 9:30:00 PM 13.3 55.94 0.181 7.43 1.98 9.35
10/28/2021 9:45:00 PM 13.28 55.904 0.181 7.42 1.19 9.32
10/28/2021 10:00:00 PM 13.27 55.886 0.181 7.41 2.21 9.31
10/28/2021 10:15:00 PM 13.26 55.868 0.182 7.4 0.87 9.29
10/28/2021 10:30:00 PM 13.25 55.85 0.181 7.4 0.96 9.29
10/28/2021 10:45:00 PM 13.24 55.832 0.181 7.39 1.03 9.3
10/28/2021 11:00:00 PM 13.24 55.832 0.181 7.38 1.94 9.27
10/28/2021 11:15:00 PM 13.23 55.814 0.181 7.37 4.02 9.27
10/28/2021 11:30:00 PM 13.22 55.796 0.181 7.36 2.27 9.26
10/28/2021 11:45:00 PM 13.22 55.796 0.181 7.36 1.77 9.22
10/29/2021 12:00:00 AM 13.21 55.778 0.181 7.35 1.68 9.22
10/29/2021 12:15:00 AM 13.2 55.76 0.181 7.35 0.98 9.24
10/29/2021 12:30:00 AM 13.2 55.76 0.181 7.35 7.51 9.24
10/29/2021 12:45:00 AM 13.19 55.742 0.181 7.34 1.77 9.24
10/29/2021 1:00:00 AM 13.18 55.724 0.181 7.34 1.56 9.23
10/29/2021 1:15:00 AM 13.18 55.724 0.181 7.35 1.13 9.23
10/29/2021 1:30:00 AM 13.18 55.724 0.181 7.34 0.76 9.23
10/29/2021 1:45:00 AM 13.17 55.706 0.181 7.33 2.02 9.21
10/29/2021 2:00:00 AM 13.17 55.706 0.181 7.33 1.03 9.22
10/29/2021 2:15:00 AM 13.16 55.688 0.181 7.32 0.86 9.22
10/29/2021 2:30:00 AM 13.15 55.67 0.181 7.33 1.32 9.23
10/29/2021 2:45:00 AM 13.15 55.67 0.181 7.33 2 9.23
10/29/2021 3:00:00 AM 13.14 55.652 0.181 7.31 0.97 9.24
10/29/2021 3:15:00 AM 13.14 55.652 0.181 7.33 4.99 9.22
10/29/2021 3:30:00 AM 13.13 55.634 0.181 7.32 1.16 9.23
10/29/2021 3:45:00 AM 13.12 55.616 0.181 7.33 0.82 9.24
10/29/2021 4:00:00 AM 13.12 55.616 0.182 7.32 1.07 9.22
10/29/2021 4:15:00 AM 13.11 55.598 0.182 7.33 1.09 9.23
10/29/2021 4:30:00 AM 13.1 55.58 0.182 7.33 1.25 9.22
10/29/2021 4:45:00 AM 13.09 55.562 0.182 7.32 1.8 9.21
10/29/2021 5:00:00 AM 13.09 55.562 0.182 7.32 2.46 9.22
10/29/2021 5:15:00 AM 13.08 55.544 0.182 7.32 1.16 9.22
10/29/2021 5:30:00 AM 13.07 55.526 0.182 7.32 1.2 9.2
10/29/2021 5:45:00 AM 13.06 55.508 0.182 7.32 0.74 9.22
10/29/2021 6:00:00 AM 13.05 55.49 0.182 7.31 0.78 9.25
10/29/2021 6:15:00 AM 13.03 55.454 0.181 7.32 1.07 9.19
10/29/2021 6:30:00 AM 13.02 55.436 0.182 7.31 1.26 9.23
10/29/2021 6:45:00 AM 13.01 55.418 0.181 7.3 1.56 9.23
10/29/2021 7:00:00 AM 12.99 55.382 0.181 7.31 0.96 9.23
10/29/2021 7:15:00 AM 12.98 55.364 0.181 7.3 2.09 9.23
10/29/2021 7:30:00 AM 12.97 55.346 0.181 7.3 1.03 9.22
10/29/2021 7:45:00 AM 12.95 55.31 0.181 7.31 1.79 9.22
10/29/2021 8:00:00 AM 12.94 55.292 0.181 7.31 1.77 9.23
10/29/2021 8:15:00 AM 12.93 55.274 0.181 7.32 0.83 9.24
10/29/2021 8:30:00 AM 12.92 55.256 0.181 7.32 0.66 9.27
10/29/2021 8:45:00 AM 12.9 55.22 0.181 7.32 1.68 9.3
10/29/2021 9:00:00 AM 12.9 55.22 0.181 7.33 0.54 9.34
10/29/2021 9:15:00 AM 12.89 55.202 0.181 7.33 0.82 9.39
10/29/2021 9:30:00 AM 12.89 55.202 0.181 7.34 0.92 9.45
10/29/2021 9:45:00 AM 12.88 55.184 0.181 7.35 0.88 9.54
10/29/2021 10:00:00 AM 12.88 55.184 0.181 7.36 0.93 9.64
10/29/2021 10:15:00 AM 12.88 55.184 0.181 7.35 0.68 9.7
10/29/2021 10:30:00 AM 12.89 55.202 0.181 7.37 1.35 9.81
10/29/2021 10:45:00 AM 12.89 55.202 0.181 7.38 0.88 9.83
10/29/2021 11:00:00 AM 12.9 55.22 0.18 7.39 0.9 9.92
10/29/2021 11:15:00 AM 12.93 55.274 0.18 7.39 1.62 10.01
10/29/2021 11:30:00 AM 12.95 55.31 0.18 7.41 2.21 10.13
10/29/2021 11:45:00 AM 12.96 55.328 0.18 7.42 1.14 10.19
10/29/2021 12:00:00 PM 12.97 55.346 0.18 7.42 0.88 10.19
10/29/2021 12:15:00 PM 12.98 55.364 0.18 7.42 1.1 10.2
10/29/2021 12:30:00 PM 12.99 55.382 0.18 7.43 1.15 10.22
10/29/2021 12:45:00 PM 13.01 55.418 0.18 7.43 0.73 10.32
10/29/2021 1:00:00 PM 13.02 55.436 0.179 7.44 0.82 10.36
10/29/2021 1:15:00 PM 13.04 55.472 0.179 7.46 1.15 10.38
10/29/2021 1:30:00 PM 13.06 55.508 0.179 7.48 0.77 10.36
10/29/2021 1:45:00 PM 13.07 55.526 0.179 7.5 1.14 10.36
10/29/2021 2:00:00 PM 13.07 55.526 0.179 7.5 1.05 10.31
10/29/2021 2:15:00 PM 13.08 55.544 0.178 7.52 1.14 10.27
10/29/2021 2:30:00 PM 13.08 55.544 0.177 7.53 1.21 10.22
10/29/2021 2:45:00 PM 13.08 55.544 0.177 7.52 1.16 10.18
10/29/2021 3:00:00 PM 13.07 55.526 0.177 7.53 1.96 10.15
10/29/2021 3:15:00 PM 13.07 55.526 0.177 7.53 1.32 10.08
10/29/2021 3:30:00 PM 13.07 55.526 0.176 7.52 1.95 10.01
10/29/2021 3:45:00 PM 13.05 55.49 0.175 7.51 5.46 9.97
10/29/2021 4:00:00 PM 13.04 55.472 0.173 7.51 6.26 9.89
10/29/2021 4:15:00 PM 13.04 55.472 0.171 7.5 3.97 9.88
10/29/2021 4:30:00 PM 13.03 55.454 0.167 7.49 4.23 9.85
10/29/2021 4:45:00 PM 13.03 55.454 0.165 7.49 3.91 9.88
10/29/2021 5:00:00 PM 13.03 55.454 0.165 7.47 3.39 9.83
10/29/2021 5:15:00 PM 13.03 55.454 0.165 7.45 4.67 9.76
10/29/2021 5:30:00 PM 13.02 55.436 0.166 7.43 4.71 9.68
10/29/2021 5:45:00 PM 13.01 55.418 0.165 7.42 6.69 9.63
10/29/2021 6:00:00 PM 13 55.4 0.164 7.41 6.19 9.6
10/29/2021 6:15:00 PM 12.98 55.364 0.163 7.39 6.82 9.58
10/29/2021 6:30:00 PM 12.95 55.31 0.161 7.38 17.43 9.55
10/29/2021 6:45:00 PM 12.93 55.274 0.157 7.36 129.2 9.53
10/29/2021 7:00:00 PM 12.92 55.256 0.153 7.33 250.1 9.5
10/29/2021 7:15:00 PM 12.9 55.22 0.152 7.31 217.3 9.48
10/29/2021 7:30:00 PM 12.89 55.202 0.151 7.3 166.4 9.49
10/29/2021 7:45:00 PM 12.88 55.184 0.152 7.3 127.8 9.51
10/29/2021 8:00:00 PM 12.87 55.166 0.153 7.31 84.8 9.5
10/29/2021 8:15:00 PM 12.86 55.148 0.153 7.32 92.5 9.5
10/29/2021 8:30:00 PM 12.83 55.094 0.153 7.33 89.92 9.53
10/29/2021 8:45:00 PM 12.82 55.076 0.153 7.32 110.8 9.54
10/29/2021 9:00:00 PM 12.82 55.076 0.152 7.33 95.82 9.54
10/29/2021 9:15:00 PM 12.82 55.076 0.149 7.33 140.3 9.55
10/29/2021 9:30:00 PM 12.82 55.076 0.146 7.32 172 9.53
10/29/2021 9:45:00 PM 12.81 55.058 0.144 7.32 206.1 9.53
10/29/2021 10:00:00 PM 12.82 55.076 0.144 7.32 158 9.54
10/29/2021 10:15:00 PM 12.82 55.076 0.144 7.33 167.2 9.52
10/29/2021 10:30:00 PM 12.83 55.094 0.144 7.32 144.2 9.54
10/29/2021 10:45:00 PM 12.82 55.076 0.146 7.33 186.9 9.55
10/29/2021 11:00:00 PM 12.81 55.058 0.145 7.34 237.6 9.55
10/29/2021 11:15:00 PM 12.81 55.058 0.14 7.35 313.1 9.55
10/29/2021 11:30:00 PM 12.82 55.076 0.135 7.36 277.3 9.54
10/29/2021 11:45:00 PM 12.82 55.076 0.131 7.35 413.8 9.55
10/30/2021 12:00:00 AM 12.82 55.076 0.13 7.36 410.4 9.57
10/30/2021 12:15:00 AM 12.81 55.058 0.131 7.36 387.1 9.56
10/30/2021 12:30:00 AM 12.8 55.04 0.13 7.35 393.6 9.57
10/30/2021 12:45:00 AM 12.79 55.022 0.13 7.35 424.6 9.58
10/30/2021 1:00:00 AM 12.78 55.004 0.129 7.34 378.4 9.59
10/30/2021 1:15:00 AM 12.78 55.004 0.128 7.33 354.9 9.58
10/30/2021 1:30:00 AM 12.77 54.986 0.127 7.32 331 9.58
10/30/2021 1:45:00 AM 12.77 54.986 0.126 7.33 248.9 9.59
10/30/2021 2:00:00 AM 12.76 54.968 0.126 7.31 177.5 9.57
10/30/2021 2:15:00 AM 12.76 54.968 0.126 7.3 265 9.56
10/30/2021 2:30:00 AM 12.75 54.95 0.125 7.29 260.6 9.57
10/30/2021 2:45:00 AM 12.75 54.95 0.125 7.29 222.6 9.55
10/30/2021 3:00:00 AM 12.75 54.95 0.125 7.27 176.5 9.56
10/30/2021 3:15:00 AM 12.75 54.95 0.126 7.26 190.9 9.55
10/30/2021 3:30:00 AM 12.75 54.95 0.126 7.25 177.6 9.54
10/30/2021 3:45:00 AM 12.75 54.95 0.127 7.25 163.3 9.54
10/30/2021 4:00:00 AM 12.75 54.95 0.127 7.23 144.3 9.54
10/30/2021 4:15:00 AM 12.75 54.95 0.128 7.22 134.5 9.52
10/30/2021 4:30:00 AM 12.75 54.95 0.129 7.23 138.6 9.53
10/30/2021 4:45:00 AM 12.75 54.95 0.129 7.21 101.3 9.51
10/30/2021 5:00:00 AM 12.75 54.95 0.13 7.22 89.97 9.51
10/30/2021 5:15:00 AM 12.76 54.968 0.131 7.2 100.3 9.51
10/30/2021 5:30:00 AM 12.76 54.968 0.126 7.2 101.4 9.5
10/30/2021 5:45:00 AM 12.76 54.968 0.132 7.2 82.9 9.5
10/30/2021 6:00:00 AM 12.77 54.986 0.132 7.2 91.88 9.5
10/30/2021 6:15:00 AM 12.77 54.986 0.134 7.2 82.38 9.49
10/30/2021 6:30:00 AM 12.78 55.004 0.134 7.19 100.7 9.49
10/30/2021 6:45:00 AM 12.78 55.004 0.134 7.19 70.82 9.48
10/30/2021 7:00:00 AM 12.78 55.004 0.136 7.19 51.8 9.49
10/30/2021 7:15:00 AM 12.79 55.022 0.136 7.19 61.08 9.49
10/30/2021 7:30:00 AM 12.79 55.022 0.137 7.19 62.97 9.49
10/30/2021 7:45:00 AM 12.8 55.04 0.138 7.18 53.33 9.47
10/30/2021 8:00:00 AM 12.8 55.04 0.138 7.19 49.37 9.48
10/30/2021 8:15:00 AM 12.81 55.058 0.139 7.18 51.03 9.48
10/30/2021 8:30:00 AM 12.82 55.076 0.14 7.19 42.57 9.48
10/30/2021 8:45:00 AM 12.83 55.094 0.14 7.18 44.85 9.48
10/30/2021 9:00:00 AM 12.84 55.112 0.141 7.18 40.99 9.5
10/30/2021 9:15:00 AM 12.85 55.13 0.141 7.18 30.11 9.48
10/30/2021 9:30:00 AM 12.87 55.166 0.141 7.18 34.43 9.51
10/30/2021 9:45:00 AM 12.9 55.22 0.143 7.18 35.62 9.49
10/30/2021 10:00:00 AM 12.93 55.274 0.143 7.19 26.41 9.51
10/30/2021 10:15:00 AM 12.97 55.346 0.144 7.19 31.45 9.55
10/30/2021 10:30:00 AM 13 55.4 0.145 7.18 30.53 9.56
10/30/2021 10:45:00 AM 13.03 55.454 0.145 7.19 30.66 9.57
10/30/2021 11:00:00 AM 13.11 55.598 0.146 7.19 25.58 9.6
10/30/2021 11:15:00 AM 13.17 55.706 0.146 7.2 22.75 9.64
10/30/2021 11:30:00 AM 13.2 55.76 0.147 7.2 24.92 9.66
10/30/2021 11:45:00 AM 13.25 55.85 0.148 7.21 18.08 9.68
10/30/2021 12:00:00 PM 13.31 55.958 0.148 7.21 19.63 9.69
10/30/2021 12:15:00 PM 13.36 56.048 0.149 7.21 17.11 9.72
10/30/2021 12:30:00 PM 13.42 56.156 0.149 7.22 19.58 9.72
10/30/2021 12:45:00 PM 13.47 56.246 0.15 7.22 17.43 9.75
10/30/2021 1:00:00 PM 13.56 56.408 0.15 7.23 14.77 9.79
10/30/2021 1:15:00 PM 13.65 56.57 0.15 7.23 15.32 9.82
10/30/2021 1:30:00 PM 13.78 56.804 0.151 7.24 13.18 9.84
10/30/2021 1:45:00 PM 13.84 56.912 0.151 7.24 13.29 9.86
10/30/2021 2:00:00 PM 13.86 56.948 0.152 7.24 9.92 9.85
10/30/2021 2:15:00 PM 13.94 57.092 0.152 7.25 13.59 9.85
10/30/2021 2:30:00 PM 14.03 57.254 0.153 7.25 12.17 9.84
10/30/2021 2:45:00 PM 14.08 57.344 0.153 7.26 10.73 9.83
10/30/2021 3:00:00 PM 14.13 57.434 0.154 7.25 13.47 9.82
10/30/2021 3:15:00 PM 14.18 57.524 0.154 7.27 7.12 9.81
10/30/2021 3:30:00 PM 14.19 57.542 0.154 7.27 8.15 9.82
10/30/2021 3:45:00 PM 14.21 57.578 0.155 7.26 7.54 9.8
10/30/2021 4:00:00 PM 14.22 57.596 0.155 7.28 6.12 9.74
10/30/2021 4:15:00 PM 14.2 57.56 0.156 7.28 8.73 9.72
10/30/2021 4:30:00 PM 14.18 57.524 0.156 7.27 9.98 9.68
10/30/2021 4:45:00 PM 14.15 57.47 0.156 7.27 8.56 9.63
10/30/2021 5:00:00 PM 14.13 57.434 0.157 7.26 10.13 9.6
10/30/2021 5:15:00 PM 14.12 57.416 0.157 7.27 8.2 9.6
10/30/2021 5:30:00 PM 14.08 57.344 0.157 7.26 6.98 9.58
10/30/2021 5:45:00 PM 14.05 57.29 0.158 7.26 4.88 9.53
10/30/2021 6:00:00 PM 14.02 57.236 0.158 7.26 16.19 9.47
10/30/2021 6:15:00 PM 13.99 57.182 0.158 7.25 7.08 9.44
10/30/2021 6:30:00 PM 13.95 57.11 0.159 7.25 10.44 9.39
10/30/2021 6:45:00 PM 13.92 57.056 0.159 7.24 14.24 9.37
10/30/2021 7:00:00 PM 13.88 56.984 0.159 7.23 8.7 9.36
10/30/2021 7:15:00 PM 13.84 56.912 0.16 7.23 9.64 9.33
10/30/2021 7:30:00 PM 13.8 56.84 0.16 7.21 10.39 9.29
10/30/2021 7:45:00 PM 13.76 56.768 0.16 7.22 10.4 9.31
10/30/2021 8:00:00 PM 13.72 56.696 0.16 7.21 10.35 9.29
10/30/2021 8:15:00 PM 13.68 56.624 0.161 7.21 10.77 9.29
10/30/2021 8:30:00 PM 13.63 56.534 0.161 7.2 15.06 9.29
10/30/2021 8:45:00 PM 13.59 56.462 0.161 7.2 12.44 9.28
10/30/2021 9:00:00 PM 13.54 56.372 0.162 7.2 9.42 9.29
10/30/2021 9:15:00 PM 13.49 56.282 0.162 7.2 9.82 9.29
10/30/2021 9:30:00 PM 13.45 56.21 0.162 7.19 11.72 9.29
10/30/2021 9:45:00 PM 13.4 56.12 0.162 7.19 11.28 9.29
10/30/2021 10:00:00 PM 13.36 56.048 0.162 7.19 6.55 9.3
10/30/2021 10:15:00 PM 13.31 55.958 0.163 7.19 7.74 9.31
10/30/2021 10:30:00 PM 13.26 55.868 0.163 7.19 7.26 9.32
10/30/2021 10:45:00 PM 13.22 55.796 0.163 7.19 10.1 9.32
10/30/2021 11:00:00 PM 13.18 55.724 0.163 7.2 9.93 9.33
10/30/2021 11:15:00 PM 13.13 55.634 0.163 7.19 6.85 9.33
10/30/2021 11:30:00 PM 13.09 55.562 0.164 7.19 9.75 9.36
10/30/2021 11:45:00 PM 13.05 55.49 0.164 7.18 8.86 9.36
10/31/2021 12:00:00 AM 13.01 55.418 0.164 7.19 6.08 9.37
10/31/2021 12:15:00 AM 12.96 55.328 0.164 7.19 6.62 9.38
10/31/2021 12:30:00 AM 12.92 55.256 0.164 7.18 7.82 9.38
10/31/2021 12:45:00 AM 12.86 55.148 0.165 7.18 6.84 9.39
10/31/2021 1:00:00 AM 12.83 55.094 0.165 7.18 9.06 9.42
10/31/2021 1:15:00 AM 12.79 55.022 0.165 7.19 5.85 9.41
10/31/2021 1:30:00 AM 12.73 54.914 0.165 7.18 6.81 9.43
10/31/2021 1:45:00 AM 12.69 54.842 0.165 7.18 7.27 9.45
10/31/2021 2:00:00 AM 12.64 54.752 0.165 7.19 7.3 9.47
10/31/2021 2:15:00 AM 12.59 54.662 0.166 7.18 6.66 9.46
10/31/2021 2:30:00 AM 12.54 54.572 0.166 7.18 7.65 9.48
10/31/2021 2:45:00 AM 12.49 54.482 0.166 7.19 5.7 9.5
10/31/2021 3:00:00 AM 12.44 54.392 0.166 7.19 4.19 9.51
10/31/2021 3:15:00 AM 12.38 54.284 0.166 7.18 7.5 9.53
10/31/2021 3:30:00 AM 12.33 54.194 0.166 7.18 5.48 9.52
10/31/2021 3:45:00 AM 12.28 54.104 0.166 7.18 7.57 9.55
10/31/2021 4:00:00 AM 12.23 54.014 0.167 7.18 5.61 9.57
10/31/2021 4:15:00 AM 12.17 53.906 0.167 7.19 5.75 9.58
10/31/2021 4:30:00 AM 12.12 53.816 0.167 7.19 6.16 9.61
10/31/2021 4:45:00 AM 12.07 53.726 0.167 7.19 3.99 9.62
10/31/2021 5:00:00 AM 12.01 53.618 0.167 7.19 8.02 9.62
10/31/2021 5:15:00 AM 11.96 53.528 0.167 7.18 6.92 9.65
10/31/2021 5:30:00 AM 11.9 53.42 0.167 7.19 8.79 9.67
10/31/2021 5:45:00 AM 11.85 53.33 0.167 7.19 3.74 9.68
10/31/2021 6:00:00 AM 11.79 53.222 0.167 7.18 4.34 9.68
10/31/2021 6:15:00 AM 11.74 53.132 0.168 7.18 5.72 9.69
10/31/2021 6:30:00 AM 11.69 53.042 0.168 7.19 4.69 9.75
10/31/2021 6:45:00 AM 11.64 52.952 0.168 7.19 3.8 9.72
10/31/2021 7:00:00 AM 11.6 52.88 0.168 7.18 3.6 9.76
10/31/2021 7:15:00 AM 11.55 52.79 0.168 7.19 2.87 9.76
10/31/2021 7:30:00 AM 11.51 52.718 0.168 7.19 2.65 9.78
10/31/2021 7:45:00 AM 11.47 52.646 0.168 7.19 2.8 9.81
10/31/2021 8:00:00 AM 11.44 52.592 0.168 7.19 2.78 9.8
10/31/2021 8:15:00 AM 11.42 52.556 0.168 7.19 3.49 9.87
10/31/2021 8:30:00 AM 11.42 52.556 0.168 7.19 3.25 9.9
10/31/2021 8:45:00 AM 11.41 52.538 0.168 7.19 3.98 9.97
10/31/2021 9:00:00 AM 11.42 52.556 0.168 7.2 2.26 10.03
10/31/2021 9:15:00 AM 11.42 52.556 0.168 7.21 2.44 10.03
10/31/2021 9:30:00 AM 11.42 52.556 0.168 7.2 2.65 10.07
10/31/2021 9:45:00 AM 11.44 52.592 0.168 7.2 3.67 10.13
10/31/2021 10:00:00 AM 11.46 52.628 0.168 7.2 1.89 10.17
10/31/2021 10:15:00 AM 11.48 52.664 0.168 7.2 1.86 10.22
10/31/2021 10:30:00 AM 11.5 52.7 0.168 7.2 2.16 10.2
10/31/2021 10:45:00 AM 11.54 52.772 0.168 7.22 1.44 10.23
10/31/2021 11:00:00 AM 11.59 52.862 0.168 7.21 1.86 10.3
10/31/2021 11:15:00 AM 11.66 52.988 0.168 7.22 1.57 10.36
10/31/2021 11:30:00 AM 11.7 53.06 0.168 7.23 2.03 10.4
10/31/2021 11:45:00 AM 11.78 53.204 0.168 7.23 1.9 10.4
10/31/2021 12:00:00 PM 11.87 53.366 0.168 7.23 2.21 10.48
10/31/2021 12:15:00 PM 11.96 53.528 0.168 7.23 1.93 10.49
10/31/2021 12:30:00 PM 12.07 53.726 0.168 7.23 2.44 10.54
10/31/2021 12:45:00 PM 12.17 53.906 0.168 7.25 2.54 10.52
10/31/2021 1:00:00 PM 12.32 54.176 0.168 7.26 3.64 10.55
10/31/2021 1:15:00 PM 12.41 54.338 0.169 7.26 2.15 10.56
10/31/2021 1:30:00 PM 12.5 54.5 0.169 7.27 3.51 10.55
10/31/2021 1:45:00 PM 12.56 54.608 0.169 7.29 2.22 10.56
10/31/2021 2:00:00 PM 12.58 54.644 0.169 7.3 2.47 10.48
10/31/2021 2:15:00 PM 12.72 54.896 0.169 7.28 3.12 10.43
10/31/2021 2:30:00 PM 12.84 55.112 0.168 7.28 2.66 10.49
10/31/2021 2:45:00 PM 12.86 55.148 0.168 7.29 3.02 10.48
10/31/2021 3:00:00 PM 12.88 55.184 0.168 7.29 2.79 10.41
10/31/2021 3:15:00 PM 12.99 55.382 0.168 7.31 2.51 10.38
10/31/2021 3:30:00 PM 13.04 55.472 0.168 7.31 2.98 10.36
10/31/2021 3:45:00 PM 13.02 55.436 0.168 7.29 3.89 10.31
10/31/2021 4:00:00 PM 13 55.4 0.168 7.27 3.01 10.17
10/31/2021 4:15:00 PM 13.02 55.436 0.168 7.28 4.23 10.15
10/31/2021 4:30:00 PM 13.02 55.436 0.168 7.27 4.51 10.15
10/31/2021 4:45:00 PM 13.02 55.436 0.168 7.27 2.43 10.15
10/31/2021 5:00:00 PM 13.02 55.436 0.168 7.27 2.82 10.14
10/31/2021 5:15:00 PM 13 55.4 0.169 7.25 2.69 10.06
10/31/2021 5:30:00 PM 12.98 55.364 0.169 7.24 2.48 9.95
10/31/2021 5:45:00 PM 12.95 55.31 0.169 7.24 2.44 9.88
10/31/2021 6:00:00 PM 12.94 55.292 0.169 7.24 2.43 9.88
10/31/2021 6:15:00 PM 12.93 55.274 0.169 7.23 2.41 9.81
10/31/2021 6:30:00 PM 12.93 55.274 0.169 7.23 1.58 9.77
10/31/2021 6:45:00 PM 12.92 55.256 0.169 7.22 3.74 9.73
10/31/2021 7:00:00 PM 12.89 55.202 0.169 7.24 2.07 9.7
10/31/2021 7:15:00 PM 12.87 55.166 0.169 7.23 3.35 9.69
10/31/2021 7:30:00 PM 12.84 55.112 0.169 7.22 2.67 9.65
10/31/2021 7:45:00 PM 12.81 55.058 0.169 7.22 3.36 9.65
10/31/2021 8:00:00 PM 12.79 55.022 0.169 7.21 3.87 9.59
10/31/2021 8:15:00 PM 12.77 54.986 0.169 7.21 3.1 9.55
10/31/2021 8:30:00 PM 12.74 54.932 0.169 7.2 3.12 9.57
10/31/2021 8:45:00 PM 12.71 54.878 0.169 7.19 4.15 9.53
10/31/2021 9:00:00 PM 12.67 54.806 0.17 7.2 3.71 9.59
10/31/2021 9:15:00 PM 12.64 54.752 0.17 7.21 3.35 9.56
10/31/2021 9:30:00 PM 12.61 54.698 0.17 7.2 3.83 9.57
10/31/2021 9:45:00 PM 12.58 54.644 0.17 7.21 2.33 9.6
10/31/2021 10:00:00 PM 12.55 54.59 0.17 7.22 2.92 9.61
10/31/2021 10:15:00 PM 12.52 54.536 0.17 7.2 2.66 9.61
10/31/2021 10:30:00 PM 12.5 54.5 0.17 7.21 2.69 9.62
10/31/2021 10:45:00 PM 12.48 54.464 0.17 7.2 3.23 9.57
10/31/2021 11:00:00 PM 12.45 54.41 0.17 7.19 3.01 9.61
10/31/2021 11:15:00 PM 12.42 54.356 0.17 7.19 2.91 9.62
10/31/2021 11:30:00 PM 12.39 54.302 0.17 7.19 2.57 9.61
10/31/2021 11:45:00 PM 12.36 54.248 0.17 7.19 3.26 9.61
11/1/2021 12:00:00 AM 12.33 54.194 0.17 7.19 2.65 9.64
11/1/2021 12:15:00 AM 12.3 54.14 0.17 7.18 4 9.68
11/1/2021 12:30:00 AM 12.27 54.086 0.171 7.19 3.59 9.62
11/1/2021 12:45:00 AM 12.24 54.032 0.171 7.19 4.8 9.65
11/1/2021 1:00:00 AM 12.21 53.978 0.171 7.19 6.2 9.64
11/1/2021 1:15:00 AM 12.17 53.906 0.171 7.18 2.1 9.66
11/1/2021 1:30:00 AM 12.13 53.834 0.171 7.18 3.2 9.68
11/1/2021 1:45:00 AM 12.09 53.762 0.171 7.18 1.94 9.68
11/1/2021 2:00:00 AM 12.05 53.69 0.171 7.2 1.91 9.69
11/1/2021 2:15:00 AM 12.01 53.618 0.171 7.19 3.56 9.73
11/1/2021 2:30:00 AM 11.98 53.564 0.171 7.2 3.55 9.75
11/1/2021 2:45:00 AM 11.95 53.51 0.171 7.19 2.03 9.72
11/1/2021 3:00:00 AM 11.92 53.456 0.171 7.19 9.07 9.75
11/1/2021 3:15:00 AM 11.88 53.384 0.171 7.19 5.07 9.78
11/1/2021 3:30:00 AM 11.84 53.312 0.171 7.2 2.87 9.77
11/1/2021 3:45:00 AM 11.8 53.24 0.171 7.19 2.09 9.75
11/1/2021 4:00:00 AM 11.76 53.168 0.171 7.2 3.62 9.82
11/1/2021 4:15:00 AM 11.72 53.096 0.172 7.2 1.2 9.81
11/1/2021 4:30:00 AM 11.68 53.024 0.171 7.19 4.18 9.83
11/1/2021 4:45:00 AM 11.64 52.952 0.172 7.19 1.84 9.86
11/1/2021 5:00:00 AM 11.59 52.862 0.172 7.2 2.32 9.85
11/1/2021 5:15:00 AM 11.54 52.772 0.172 7.19 2.33 9.88
11/1/2021 5:30:00 AM 11.5 52.7 0.172 7.2 2.88 9.9
11/1/2021 5:45:00 AM 11.45 52.61 0.172 7.21 2.74 9.9
11/1/2021 6:00:00 AM 11.4 52.52 0.172 7.2 1.66 9.93
11/1/2021 6:15:00 AM 11.37 52.466 0.172 7.2 2.15 9.94
11/1/2021 6:30:00 AM 11.33 52.394 0.172 7.2 2.16 9.94
11/1/2021 6:45:00 AM 11.31 52.358 0.172 7.21 1.55 9.95
11/1/2021 7:00:00 AM 11.29 52.322 0.172 7.2 1.91 9.94
11/1/2021 7:15:00 AM 11.27 52.286 0.172 7.21 1.26 9.99
11/1/2021 7:30:00 AM 11.26 52.268 0.172 7.2 2.28 9.95
11/1/2021 7:45:00 AM 11.24 52.232 0.172 7.2 1.46 9.98
11/1/2021 8:00:00 AM 11.22 52.196 0.172 7.2 2.21 9.99
11/1/2021 8:15:00 AM 11.2 52.16 0.172 7.2 1.65 10.05
11/1/2021 8:30:00 AM 11.17 52.106 0.172 7.2 2.25 10.05
11/1/2021 8:45:00 AM 11.15 52.07 0.172 7.19 1.18 10.09
11/1/2021 9:00:00 AM 11.14 52.052 0.172 7.2 1.68 10.13
11/1/2021 9:15:00 AM 11.12 52.016 0.172 7.2 1.62 10.16
11/1/2021 9:30:00 AM 11.1 51.98 0.172 7.2 1.02 10.18
11/1/2021 9:45:00 AM 11.09 51.962 0.172 7.2 1.14 10.25
11/1/2021 10:00:00 AM 11.07 51.926 0.172 7.21 1.52 10.29
11/1/2021 10:15:00 AM 11.07 51.926 0.172 7.22 1.89 10.35
11/1/2021 10:30:00 AM 11.07 51.926 0.172 7.23 0.97 10.38
11/1/2021 10:45:00 AM 11.09 51.962 0.172 7.23 1.09 10.45
11/1/2021 11:00:00 AM 11.13 52.034 0.172 7.24 1.19 10.47
11/1/2021 11:15:00 AM 11.2 52.16 0.172 7.24 2.18 10.54
11/1/2021 11:30:00 AM 11.3 52.34 0.172 7.25 1.31 10.6
11/1/2021 11:45:00 AM 11.42 52.556 0.172 7.26 1.89 10.68
11/1/2021 12:00:00 PM 11.53 52.754 0.172 7.27 1.74 10.73
11/1/2021 12:15:00 PM 11.67 53.006 0.172 7.26 1.27 10.75
11/1/2021 12:30:00 PM 11.81 53.258 0.172 7.28 1.19 10.77
11/1/2021 12:45:00 PM 11.93 53.474 0.172 7.3 2.19 10.77
11/1/2021 1:00:00 PM 12.07 53.726 0.172 7.29 2.51 10.78
11/1/2021 1:15:00 PM 12.21 53.978 0.172 7.31 0.93 10.82
11/1/2021 1:30:00 PM 12.39 54.302 0.172 7.31 2.35 10.82
11/1/2021 1:45:00 PM 12.53 54.554 0.172 7.31 1.44 10.81
11/1/2021 2:00:00 PM 12.63 54.734 0.172 7.32 1.81 10.84
11/1/2021 2:15:00 PM 12.68 54.824 0.172 7.34 2.13 10.82
11/1/2021 2:30:00 PM 12.72 54.896 0.172 7.32 1.26 10.79
11/1/2021 2:45:00 PM 12.69 54.842 0.172 7.33 2.07 10.78
11/1/2021 3:00:00 PM 12.7 54.86 0.172 7.33 2.43 10.74
11/1/2021 3:15:00 PM 12.69 54.842 0.172 7.34 2.07 10.7
11/1/2021 3:30:00 PM 12.68 54.824 0.172 7.34 1.7 10.68
11/1/2021 3:45:00 PM 12.67 54.806 0.172 7.34 2.65 10.67
11/1/2021 4:00:00 PM 12.61 54.698 0.172 7.35 3.47 10.61
11/1/2021 4:15:00 PM 12.53 54.554 0.172 7.34 3.06 10.57
11/1/2021 4:30:00 PM 12.44 54.392 0.172 7.34 2.62 10.52
11/1/2021 4:45:00 PM 12.37 54.266 0.172 7.34 3.1 10.43
11/1/2021 5:00:00 PM 12.3 54.14 0.173 7.34 2.02 10.41
11/1/2021 5:15:00 PM 12.24 54.032 0.173 7.34 2.06 10.37
11/1/2021 5:30:00 PM 12.17 53.906 0.173 7.33 2.62 10.32
11/1/2021 5:45:00 PM 12.09 53.762 0.173 7.32 2.2 10.32
11/1/2021 6:00:00 PM 12.01 53.618 0.173 7.33 1.84 10.27
11/1/2021 6:15:00 PM 11.94 53.492 0.173 7.32 1.13 10.17
11/1/2021 6:30:00 PM 11.87 53.366 0.173 7.31 1.31 10.18
11/1/2021 6:45:00 PM 11.81 53.258 0.173 7.3 0.76 10.12
11/1/2021 7:00:00 PM 11.76 53.168 0.173 7.29 1.13 10.13
11/1/2021 7:15:00 PM 11.71 53.078 0.173 7.29 1.22 10.1
11/1/2021 7:30:00 PM 11.65 52.97 0.173 7.29 2.2 10.08
11/1/2021 7:45:00 PM 11.6 52.88 0.173 7.28 0.93 10.06
11/1/2021 8:00:00 PM 11.55 52.79 0.173 7.26 1.49 10.03
11/1/2021 8:15:00 PM 11.51 52.718 0.173 7.27 1.48 10.05
11/1/2021 8:30:00 PM 11.45 52.61 0.173 7.25 1.31 10.05
11/1/2021 8:45:00 PM 11.41 52.538 0.173 7.25 2.04 10.03
11/1/2021 9:00:00 PM 11.35 52.43 0.173 7.25 1.41 10.06
11/1/2021 9:15:00 PM 11.29 52.322 0.173 7.25 1.56 10.06
11/1/2021 9:30:00 PM 11.24 52.232 0.173 7.24 1.01 10.05
11/1/2021 9:45:00 PM 11.18 52.124 0.173 7.24 1.71 10.06
11/1/2021 10:00:00 PM 11.13 52.034 0.173 7.24 1.66 10.08
11/1/2021 10:15:00 PM 11.07 51.926 0.173 7.23 1.02 10.08
11/1/2021 10:30:00 PM 11.02 51.836 0.173 7.23 1.46 10.07
11/1/2021 10:45:00 PM 10.97 51.746 0.173 7.23 1.03 10.08
11/1/2021 11:00:00 PM 10.92 51.656 0.173 7.23 1.7 10.12
11/1/2021 11:15:00 PM 10.87 51.566 0.173 7.22 1.82 10.13
11/1/2021 11:30:00 PM 10.81 51.458 0.173 7.21 1.22 10.14
11/1/2021 11:45:00 PM 10.76 51.368 0.174 7.22 1.4 10.17
11/2/2021 12:00:00 AM 10.72 51.296 0.174 7.22 1.22 10.17
11/2/2021 12:15:00 AM 10.67 51.206 0.174 7.23 0.99 10.18
11/2/2021 12:30:00 AM 10.63 51.134 0.174 7.22 1.44 10.17
11/2/2021 12:45:00 AM 10.58 51.044 0.174 7.22 1.67 10.2
11/2/2021 1:00:00 AM 10.54 50.972 0.174 7.22 1.1 10.2
11/2/2021 1:15:00 AM 10.49 50.882 0.174 7.22 1.09 10.2
11/2/2021 1:30:00 AM 10.45 50.81 0.174 7.22 1.75 10.21
11/2/2021 1:45:00 AM 10.42 50.756 0.174 7.22 2.15 10.22
11/2/2021 2:00:00 AM 10.4 50.72 0.174 7.22 1.27 10.26
11/2/2021 2:15:00 AM 10.38 50.684 0.174 7.23 1.36 10.25
11/2/2021 2:30:00 AM 10.35 50.63 0.174 7.22 0.9 10.28
11/2/2021 2:45:00 AM 10.33 50.594 0.174 7.23 1.18 10.25
11/2/2021 3:00:00 AM 10.3 50.54 0.174 7.22 1.33 10.3
11/2/2021 3:15:00 AM 10.28 50.504 0.174 7.22 1.68 10.3
11/2/2021 3:30:00 AM 10.27 50.486 0.174 7.21 1.32 10.3
11/2/2021 3:45:00 AM 10.25 50.45 0.174 7.23 1.03 10.33
11/2/2021 4:00:00 AM 10.24 50.432 0.174 7.22 1.11 10.34
11/2/2021 4:15:00 AM 10.22 50.396 0.174 7.22 1.83 10.34
11/2/2021 4:30:00 AM 10.2 50.36 0.174 7.22 1.06 10.36
11/2/2021 4:45:00 AM 10.18 50.324 0.174 7.22 0.78 10.34
11/2/2021 5:00:00 AM 10.17 50.306 0.174 7.22 1.27 10.34
11/2/2021 5:15:00 AM 10.15 50.27 0.174 7.22 1.09 10.36
11/2/2021 5:30:00 AM 10.14 50.252 0.174 7.22 1.25 10.38
11/2/2021 5:45:00 AM 10.12 50.216 0.174 7.22 1.5 10.37
11/2/2021 6:00:00 AM 10.1 50.18 0.174 7.22 1.88 10.39
11/2/2021 6:15:00 AM 10.09 50.162 0.174 7.22 1.55 10.39
11/2/2021 6:30:00 AM 10.08 50.144 0.174 7.22 1.42 10.38
11/2/2021 6:45:00 AM 10.07 50.126 0.174 7.22 1.85 10.41
11/2/2021 7:00:00 AM 10.05 50.09 0.174 7.22 1.42 10.4
11/2/2021 7:15:00 AM 10.04 50.072 0.174 7.22 1.64 10.42
11/2/2021 7:30:00 AM 10.03 50.054 0.174 7.22 2.19 10.43
11/2/2021 7:45:00 AM 10.01 50.018 0.174 7.21 1.24 10.44
11/2/2021 8:00:00 AM 10 50 0.175 7.21 1.49 10.43
11/2/2021 8:15:00 AM 9.99 49.982 0.175 7.22 1.17 10.47
11/2/2021 8:30:00 AM 9.98 49.964 0.174 7.22 1.24 10.52
11/2/2021 8:45:00 AM 9.99 49.982 0.174 7.21 0.99 10.54
11/2/2021 9:00:00 AM 9.99 49.982 0.174 7.22 1.5 10.59
11/2/2021 9:15:00 AM 10 50 0.174 7.22 1.42 10.67
11/2/2021 9:30:00 AM 10.01 50.018 0.174 7.23 0.82 10.67
11/2/2021 9:45:00 AM 10.03 50.054 0.174 7.23 0.94 10.76
11/2/2021 10:00:00 AM 10.05 50.09 0.174 7.24 1.56 10.86
11/2/2021 10:15:00 AM 10.08 50.144 0.174 7.25 1.38 10.93
11/2/2021 10:30:00 AM 10.1 50.18 0.174 7.26 0.59 11
11/2/2021 10:45:00 AM 10.12 50.216 0.174 7.26 0.86 11.02
11/2/2021 11:00:00 AM 10.13 50.234 0.174 7.26 0.76 11.07
11/2/2021 11:15:00 AM 10.14 50.252 0.174 7.27 0.93 11.05
11/2/2021 11:30:00 AM 10.16 50.288 0.174 7.28 0.69 11.07
11/2/2021 11:45:00 AM 10.17 50.306 0.174 7.29 0.8 11.11
11/2/2021 12:00:00 PM 10.19 50.342 0.174 7.29 0.46 11.15
11/2/2021 12:15:00 PM 10.21 50.378 0.173 7.3 0.55 11.19
11/2/2021 12:30:00 PM 10.24 50.432 0.173 7.3 0.82 11.22
11/2/2021 12:45:00 PM 10.27 50.486 0.173 7.31 0.76 11.25
11/2/2021 1:00:00 PM 10.29 50.522 0.173 7.32 1.11 11.26
11/2/2021 1:15:00 PM 10.32 50.576 0.173 7.33 0.56 11.29
11/2/2021 1:30:00 PM 10.34 50.612 0.173 7.34 1.54 11.32
11/2/2021 1:45:00 PM 10.37 50.666 0.173 7.34 0.43 11.33
11/2/2021 2:00:00 PM 10.39 50.702 0.173 7.34 1.38 11.33
11/2/2021 2:15:00 PM 10.41 50.738 0.173 7.35 0.87 11.34
11/2/2021 2:30:00 PM 10.43 50.774 0.173 7.36 0.9 11.34
11/2/2021 2:45:00 PM 10.45 50.81 0.172 7.36 0.69 11.34
11/2/2021 3:00:00 PM 10.46 50.828 0.172 7.37 0.71 11.33
11/2/2021 3:15:00 PM 10.47 50.846 0.172 7.37 1.15 11.31
11/2/2021 3:30:00 PM 10.48 50.864 0.172 7.37 0.59 11.28
11/2/2021 3:45:00 PM 10.48 50.864 0.172 7.37 0.87 11.23
11/2/2021 4:00:00 PM 10.48 50.864 0.172 7.37 0.96 11.18
11/2/2021 4:15:00 PM 10.48 50.864 0.172 7.37 0.6 11.14
11/2/2021 4:30:00 PM 10.48 50.864 0.172 7.37 1.33 11.1
11/2/2021 4:45:00 PM 10.47 50.846 0.172 7.37 0.74 11.08
11/2/2021 5:00:00 PM 10.47 50.846 0.172 7.37 0.63 11.02
11/2/2021 5:15:00 PM 10.45 50.81 0.172 7.37 1.28 10.98
11/2/2021 5:30:00 PM 10.44 50.792 0.172 7.36 0.64 10.93
11/2/2021 5:45:00 PM 10.42 50.756 0.172 7.36 0.69 10.86
11/2/2021 6:00:00 PM 10.4 50.72 0.173 7.36 0.72 10.8
11/2/2021 6:15:00 PM 10.37 50.666 0.173 7.35 0.58 10.75
11/2/2021 6:30:00 PM 10.34 50.612 0.173 7.34 0.79 10.7
11/2/2021 6:45:00 PM 10.3 50.54 0.173 7.34 2.19 10.67
11/2/2021 7:00:00 PM 10.28 50.504 0.173 7.34 0.83 10.62
11/2/2021 7:15:00 PM 10.25 50.45 0.173 7.33 1.22 10.6
11/2/2021 7:30:00 PM 10.21 50.378 0.173 7.31 1.16 10.59
11/2/2021 7:45:00 PM 10.18 50.324 0.173 7.31 0.68 10.56
11/2/2021 8:00:00 PM 10.15 50.27 0.173 7.31 0.5 10.56
11/2/2021 8:15:00 PM 10.11 50.198 0.173 7.3 1.05 10.53
11/2/2021 8:30:00 PM 10.08 50.144 0.173 7.3 1.06 10.53
11/2/2021 8:45:00 PM 10.05 50.09 0.173 7.28 1.34 10.52
11/2/2021 9:00:00 PM 10.02 50.036 0.173 7.29 1.72 10.52
11/2/2021 9:15:00 PM 9.98 49.964 0.173 7.28 1.01 10.42
11/2/2021 9:30:00 PM 9.95 49.91 0.173 7.28 0.66 10.5
11/2/2021 9:45:00 PM 9.9 49.82 0.173 7.27 0.86 10.51
11/2/2021 10:00:00 PM 9.86 49.748 0.173 7.27 1.35 10.5
11/2/2021 10:15:00 PM 9.82 49.676 0.173 7.26 3.31 10.51
11/2/2021 10:30:00 PM 9.78 49.604 0.173 7.26 1 10.52
11/2/2021 10:45:00 PM 9.74 49.532 0.173 7.26 0.71 10.53
11/2/2021 11:00:00 PM 9.69 49.442 0.173 7.26 1.6 10.52
11/2/2021 11:15:00 PM 9.64 49.352 0.173 7.26 1.3 10.54
11/2/2021 11:30:00 PM 9.59 49.262 0.173 7.26 0.67 10.57
11/2/2021 11:45:00 PM 9.54 49.172 0.173 7.25 2.51 10.55
11/3/2021 12:00:00 AM 9.5 49.1 0.173 7.26 1.32 10.58
11/3/2021 12:15:00 AM 9.44 48.992 0.173 7.25 1.85 10.56
11/3/2021 12:30:00 AM 9.38 48.884 0.173 7.25 0.74 10.62
11/3/2021 12:45:00 AM 9.33 48.794 0.173 7.25 0.74 10.63
11/3/2021 1:00:00 AM 9.27 48.686 0.173 7.25 0.75 10.65
11/3/2021 1:15:00 AM 9.21 48.578 0.173 7.25 0.75 10.66
11/3/2021 1:30:00 AM 9.16 48.488 0.173 7.25 1.49 10.67
11/3/2021 1:45:00 AM 9.11 48.398 0.173 7.24 0.72 10.69
11/3/2021 2:00:00 AM 9.05 48.29 0.173 7.24 1.33 10.7
11/3/2021 2:15:00 AM 9 48.2 0.173 7.25 0.67 10.69
11/3/2021 2:30:00 AM 8.95 48.11 0.173 7.23 2.42 10.72
11/3/2021 2:45:00 AM 8.89 48.002 0.173 7.24 1.4 10.73
11/3/2021 3:00:00 AM 8.84 47.912 0.173 7.24 0.62 10.77
11/3/2021 3:15:00 AM 8.79 47.822 0.174 7.24 0.64 10.79
11/3/2021 3:30:00 AM 8.74 47.732 0.174 7.24 0.85 10.8
11/3/2021 3:45:00 AM 8.69 47.642 0.174 7.24 0.72 10.8
11/3/2021 4:00:00 AM 8.64 47.552 0.174 7.24 0.88 10.83
11/3/2021 4:15:00 AM 8.59 47.462 0.174 7.23 1.68 10.84
11/3/2021 4:30:00 AM 8.55 47.39 0.174 7.24 0.72 10.86
11/3/2021 4:45:00 AM 8.51 47.318 0.174 7.24 0.79 10.86
11/3/2021 5:00:00 AM 8.45 47.21 0.174 7.23 0.82 10.88
11/3/2021 5:15:00 AM 8.4 47.12 0.174 7.22 1.4 10.91
11/3/2021 5:30:00 AM 8.36 47.048 0.174 7.23 1 10.91
11/3/2021 5:45:00 AM 8.31 46.958 0.174 7.24 1.05 10.93
11/3/2021 6:00:00 AM 8.26 46.868 0.174 7.23 1 10.97
11/3/2021 6:15:00 AM 8.22 46.796 0.174 7.24 0.87 10.96
11/3/2021 6:30:00 AM 8.16 46.688 0.174 7.24 1.59 10.98
11/3/2021 6:45:00 AM 8.11 46.598 0.174 7.23 1.69 10.99
11/3/2021 7:00:00 AM 8.04 46.472 0.174 7.24 1.26 11.03
11/3/2021 7:15:00 AM 7.99 46.382 0.174 7.23 0.59 11.03
11/3/2021 7:30:00 AM 7.94 46.292 0.174 7.24 1.28 11.03
11/3/2021 7:45:00 AM 7.88 46.184 0.174 7.24 0.84 11.07
11/3/2021 8:00:00 AM 7.82 46.076 0.174 7.24 0.6 11.1
11/3/2021 8:15:00 AM 7.76 45.968 0.174 7.24 0.91 11.15
11/3/2021 8:30:00 AM 7.71 45.878 0.174 7.24 0.77 11.15
11/3/2021 8:45:00 AM 7.67 45.806 0.174 7.24 0.72 11.23
11/3/2021 9:00:00 AM 7.62 45.716 0.174 7.24 1.07 11.3
11/3/2021 9:15:00 AM 7.58 45.644 0.174 7.25 1.3 11.33
11/3/2021 9:30:00 AM 7.55 45.59 0.174 7.25 0.61 11.38
11/3/2021 9:45:00 AM 7.52 45.536 0.174 7.25 0.74 11.45
11/3/2021 10:00:00 AM 7.51 45.518 0.174 7.26 0.41 11.48
11/3/2021 10:15:00 AM 7.5 45.5 0.174 7.26 0.52 11.53
11/3/2021 10:30:00 AM 7.51 45.518 0.174 7.26 0.69 11.6
11/3/2021 10:45:00 AM 7.55 45.59 0.174 7.27 0.52 11.64
11/3/2021 11:00:00 AM 7.6 45.68 0.174 7.26 0.55 11.68
11/3/2021 11:15:00 AM 7.69 45.842 0.174 7.27 0.4 11.74
11/3/2021 11:30:00 AM 7.8 46.04 0.174 7.29 0.42 11.82
11/3/2021 11:45:00 AM 7.94 46.292 0.174 7.29 0.55 11.84
11/3/2021 12:00:00 PM 8.08 46.544 0.174 7.3 0.29 11.88
11/3/2021 12:15:00 PM 8.23 46.814 0.174 7.31 0.3 11.9
11/3/2021 12:30:00 PM 8.41 47.138 0.174 7.31 0.6 11.92
11/3/2021 12:45:00 PM 8.55 47.39 0.174 7.33 0.77 11.89
11/3/2021 1:00:00 PM 8.71 47.678 0.174 7.33 0.39 11.89
11/3/2021 1:15:00 PM 8.88 47.984 0.174 7.34 0.79 11.91
11/3/2021 1:30:00 PM 9.08 48.344 0.174 7.34 0.5 11.87
11/3/2021 1:45:00 PM 9.21 48.578 0.174 7.36 0.4 11.89
11/3/2021 2:00:00 PM 9.21 48.578 0.174 7.36 0.58 11.83
11/3/2021 2:15:00 PM 9.31 48.758 0.174 7.37 0.28 11.81
11/3/2021 2:30:00 PM 9.36 48.848 0.174 7.37 0.49 11.8
11/3/2021 2:45:00 PM 9.37 48.866 0.174 7.38 0.28 11.81
11/3/2021 3:00:00 PM 9.34 48.812 0.174 7.38 0.46 11.77
11/3/2021 3:15:00 PM 9.37 48.866 0.174 7.39 0.58 11.75
11/3/2021 3:30:00 PM 9.44 48.992 0.174 7.39 0.78 11.81
11/3/2021 3:45:00 PM 9.45 49.01 0.174 7.39 1.3 11.77
11/3/2021 4:00:00 PM 9.4 48.92 0.174 7.4 0.73 11.74
11/3/2021 4:15:00 PM 9.36 48.848 0.174 7.4 0.7 11.71
11/3/2021 4:30:00 PM 9.31 48.758 0.174 7.4 0.63 11.69
11/3/2021 4:45:00 PM 9.23 48.614 0.174 7.41 0.86 11.63
11/3/2021 5:00:00 PM 9.12 48.416 0.174 7.4 0.65 11.58
11/3/2021 5:15:00 PM 9.05 48.29 0.174 7.4 0.5 11.5
11/3/2021 5:30:00 PM 8.99 48.182 0.174 7.4 0.62 11.45
11/3/2021 5:45:00 PM 8.92 48.056 0.174 7.4 0.52 11.41
11/3/2021 6:00:00 PM 8.86 47.948 0.174 7.39 0.48 11.37
11/3/2021 6:15:00 PM 8.79 47.822 0.174 7.38 0.83 11.32
11/3/2021 6:30:00 PM 8.73 47.714 0.174 7.37 0.38 11.27
11/3/2021 6:45:00 PM 8.66 47.588 0.174 7.37 0.3 11.24
11/3/2021 7:00:00 PM 8.59 47.462 0.174 7.36 0.36 11.21
11/3/2021 7:15:00 PM 8.52 47.336 0.174 7.35 0.4 11.19
11/3/2021 7:30:00 PM 8.46 47.228 0.174 7.35 0.8 11.14
11/3/2021 7:45:00 PM 8.42 47.156 0.174 7.34 0.76 11.13
11/3/2021 8:00:00 PM 8.37 47.066 0.175 7.33 1.04 11.13
11/3/2021 8:15:00 PM 8.33 46.994 0.175 7.33 0.29 11.1
11/3/2021 8:30:00 PM 8.28 46.904 0.175 7.32 0.76 11.1
11/3/2021 8:45:00 PM 8.23 46.814 0.175 7.32 0.94 11.12
11/3/2021 9:00:00 PM 8.19 46.742 0.175 7.32 0.49 11.1
11/3/2021 9:15:00 PM 8.15 46.67 0.175 7.31 0.61 11.1
11/3/2021 9:30:00 PM 8.11 46.598 0.175 7.31 0.51 11.09
11/3/2021 9:45:00 PM 8.06 46.508 0.175 7.3 0.58 11.11
11/3/2021 10:00:00 PM 8.03 46.454 0.175 7.3 0.56 11.11
11/3/2021 10:15:00 PM 7.99 46.382 0.175 7.3 0.58 11.11
11/3/2021 10:30:00 PM 7.96 46.328 0.175 7.29 0.42 11.11
11/3/2021 10:45:00 PM 7.92 46.256 0.175 7.29 1.09 11.1
11/3/2021 11:00:00 PM 7.89 46.202 0.175 7.29 0.49 11.13
11/3/2021 11:15:00 PM 7.86 46.148 0.175 7.29 0.8 11.11
11/3/2021 11:30:00 PM 7.83 46.094 0.175 7.28 0.68 11.12
11/3/2021 11:45:00 PM 7.8 46.04 0.175 7.28 0.44 11.15
11/4/2021 12:00:00 AM 7.78 46.004 0.175 7.28 0.24 11.16
11/4/2021 12:15:00 AM 7.75 45.95 0.175 7.28 0.95 11.14
11/4/2021 12:30:00 AM 7.73 45.914 0.175 7.28 0.37 11.18
11/4/2021 12:45:00 AM 7.7 45.86 0.175 7.27 0.48 11.17
11/4/2021 1:00:00 AM 7.67 45.806 0.175 7.27 0.55 11.17
11/4/2021 1:15:00 AM 7.64 45.752 0.175 7.27 0.94 11.19
11/4/2021 1:30:00 AM 7.62 45.716 0.175 7.27 0.76 11.19
11/4/2021 1:45:00 AM 7.59 45.662 0.175 7.27 0.69 11.2
11/4/2021 2:00:00 AM 7.56 45.608 0.175 7.27 0.5 11.21
11/4/2021 2:15:00 AM 7.52 45.536 0.175 7.26 0.36 11.21
11/4/2021 2:30:00 AM 7.5 45.5 0.175 7.26 0.46 11.22
11/4/2021 2:45:00 AM 7.46 45.428 0.175 7.26 0.7 11.22
11/4/2021 3:00:00 AM 7.42 45.356 0.175 7.26 0.33 11.21
11/4/2021 3:15:00 AM 7.39 45.302 0.175 7.26 0.5 11.24
11/4/2021 3:30:00 AM 7.36 45.248 0.175 7.26 0.63 11.25
11/4/2021 3:45:00 AM 7.32 45.176 0.175 7.26 0.39 11.26
11/4/2021 4:00:00 AM 7.28 45.104 0.175 7.26 0.54 11.28
11/4/2021 4:15:00 AM 7.24 45.032 0.175 7.26 0.97 11.29
11/4/2021 4:30:00 AM 7.2 44.96 0.175 7.26 0.69 11.3
11/4/2021 4:45:00 AM 7.16 44.888 0.175 7.25 0.42 11.33
11/4/2021 5:00:00 AM 7.12 44.816 0.175 7.26 0.82 11.32
11/4/2021 5:15:00 AM 7.07 44.726 0.175 7.26 0.59 11.34
11/4/2021 5:30:00 AM 7.03 44.654 0.176 7.25 0.63 11.35
11/4/2021 5:45:00 AM 6.99 44.582 0.176 7.25 0.58 11.37
11/4/2021 6:00:00 AM 6.94 44.492 0.176 7.25 0.93 11.38
11/4/2021 6:15:00 AM 6.89 44.402 0.176 7.25 1.33 11.44
11/4/2021 6:30:00 AM 6.85 44.33 0.176 7.25 0.9 11.44
11/4/2021 6:45:00 AM 6.8 44.24 0.176 7.25 0.5 11.44
11/4/2021 7:00:00 AM 6.76 44.168 0.176 7.25 0.4 11.45
11/4/2021 7:15:00 AM 6.71 44.078 0.176 7.25 0.71 11.47
11/4/2021 7:30:00 AM 6.67 44.006 0.176 7.25 0.56 11.49
11/4/2021 7:45:00 AM 6.62 43.916 0.176 7.25 0.98 11.51
11/4/2021 8:00:00 AM 6.58 43.844 0.176 7.25 0.67 11.54
11/4/2021 8:15:00 AM 6.54 43.772 0.176 7.25 0.38 11.57
11/4/2021 8:30:00 AM 6.5 43.7 0.176 7.25 0.36 11.6
11/4/2021 8:45:00 AM 6.46 43.628 0.176 7.25 0.25 11.62
11/4/2021 9:00:00 AM 6.43 43.574 0.176 7.25 0.6 11.67
11/4/2021 9:15:00 AM 6.4 43.52 0.176 7.26 0.16 11.73
11/4/2021 9:30:00 AM 6.37 43.466 0.176 7.26 0.35 11.82
11/4/2021 9:45:00 AM 6.37 43.466 0.176 7.27 0.61 11.87
11/4/2021 10:00:00 AM 6.36 43.448 0.176 7.27 0.52 11.95
11/4/2021 10:15:00 AM 6.35 43.43 0.176 7.27 0.65 12.03
11/4/2021 10:30:00 AM 6.37 43.466 0.176 7.28 0.31 12.1
11/4/2021 10:45:00 AM 6.41 43.538 0.175 7.28 0.5 12.17
11/4/2021 11:00:00 AM 6.47 43.646 0.175 7.29 0.51 12.26
11/4/2021 11:15:00 AM 6.56 43.808 0.175 7.29 0.25 12.29
11/4/2021 11:30:00 AM 6.64 43.952 0.175 7.29 0.6 12.33
11/4/2021 11:45:00 AM 6.75 44.15 0.175 7.3 0.27 12.38
11/4/2021 12:00:00 PM 6.89 44.402 0.175 7.3 0.16 12.41
11/4/2021 12:15:00 PM 7.08 44.744 0.175 7.3 0.57 12.46
11/4/2021 12:30:00 PM 7.25 45.05 0.175 7.31 0.23 12.47
11/4/2021 12:45:00 PM 7.42 45.356 0.175 7.32 0.33 12.49
11/4/2021 1:00:00 PM 7.53 45.554 0.175 7.33 0.37 12.47
11/4/2021 1:15:00 PM 7.64 45.752 0.175 7.33 0.33 12.44
11/4/2021 1:30:00 PM 7.75 45.95 0.175 7.35 0.3 12.43
11/4/2021 1:45:00 PM 7.82 46.076 0.174 7.35 0.3 12.43
11/4/2021 2:00:00 PM 7.96 46.328 0.174 7.35 0.25 12.41
11/4/2021 2:15:00 PM 8.12 46.616 0.174 7.36 0.33 12.37
11/4/2021 2:30:00 PM 8.21 46.778 0.174 7.36 0.29 12.37
11/4/2021 2:45:00 PM 8.25 46.85 0.174 7.37 0.34 12.33
11/4/2021 3:00:00 PM 8.31 46.958 0.174 7.37 0.45 12.28
11/4/2021 3:15:00 PM 8.36 47.048 0.174 7.38 0.6 12.29
11/4/2021 3:30:00 PM 8.39 47.102 0.174 7.39 0.3 12.29
11/4/2021 3:45:00 PM 8.43 47.174 0.174 7.39 0.47 12.24
11/4/2021 4:00:00 PM 8.43 47.174 0.174 7.39 0.24 12.22
11/4/2021 4:15:00 PM 8.41 47.138 0.174 7.4 0.53 12.18
11/4/2021 4:30:00 PM 8.36 47.048 0.174 7.41 0.33 12.14
11/4/2021 4:45:00 PM 8.34 47.012 0.174 7.4 0.52 12.03
11/4/2021 5:00:00 PM 8.3 46.94 0.174 7.41 0.33 12
11/4/2021 5:15:00 PM 8.26 46.868 0.174 7.4 0.12 11.96
11/4/2021 5:30:00 PM 8.22 46.796 0.174 7.4 0.22 11.92
11/4/2021 5:45:00 PM 8.18 46.724 0.174 7.41 0.58 11.85
11/4/2021 6:00:00 PM 8.13 46.634 0.175 7.4 0.25 11.78
11/4/2021 6:15:00 PM 8.07 46.526 0.174 7.41 0.39 11.71
11/4/2021 6:30:00 PM 8.02 46.436 0.175 7.39 0.36 11.63
11/4/2021 6:45:00 PM 7.95 46.31 0.175 7.39 0.99 11.57
11/4/2021 7:00:00 PM 7.87 46.166 0.175 7.38 0.23 11.53
11/4/2021 7:15:00 PM 7.81 46.058 0.175 7.37 0.6 11.49
11/4/2021 7:30:00 PM 7.75 45.95 0.175 7.37 0.22 11.46
11/4/2021 7:45:00 PM 7.7 45.86 0.175 7.36 0.29 11.44
11/4/2021 8:00:00 PM 7.64 45.752 0.175 7.36 0.21 11.42
11/4/2021 8:15:00 PM 7.59 45.662 0.175 7.35 0.34 11.4
11/4/2021 8:30:00 PM 7.53 45.554 0.175 7.34 0.33 11.38
11/4/2021 8:45:00 PM 7.49 45.482 0.175 7.34 0.64 11.36
11/4/2021 9:00:00 PM 7.44 45.392 0.175 7.34 0.55 11.35
11/4/2021 9:15:00 PM 7.38 45.284 0.175 7.32 0.3 11.33
11/4/2021 9:30:00 PM 7.32 45.176 0.175 7.32 0.22 11.33
11/4/2021 9:45:00 PM 7.27 45.086 0.175 7.31 0.41 11.37
11/4/2021 10:00:00 PM 7.22 44.996 0.175 7.32 0.31 11.36
11/4/2021 10:15:00 PM 7.18 44.924 0.175 7.31 3.4 11.36
11/4/2021 10:30:00 PM 7.12 44.816 0.175 7.3 0.67 11.37
11/4/2021 10:45:00 PM 7.08 44.744 0.175 7.3 0.24 11.36
11/4/2021 11:00:00 PM 7.04 44.672 0.175 7.3 0.43 11.39
11/4/2021 11:15:00 PM 6.99 44.582 0.175 7.3 0.59 11.37
11/4/2021 11:30:00 PM 6.95 44.51 0.175 7.3 0.65 11.4
11/4/2021 11:45:00 PM 6.91 44.438 0.175 7.29 0.56 11.4
11/5/2021 12:00:00 AM 6.86 44.348 0.175 7.28 0.59 11.41
11/5/2021 12:15:00 AM 6.82 44.276 0.175 7.28 0.45 11.41
11/5/2021 12:30:00 AM 6.78 44.204 0.175 7.27 0.81 11.43
11/5/2021 12:45:00 AM 6.76 44.168 0.175 7.27 0.62 11.46
11/5/2021 1:00:00 AM 6.72 44.096 0.175 7.28 0.7 11.46
11/5/2021 1:15:00 AM 6.68 44.024 0.175 7.26 0.31 11.48
11/5/2021 1:30:00 AM 6.65 43.97 0.175 7.27 0.33 11.47
11/5/2021 1:45:00 AM 6.61 43.898 0.175 7.27 0.49 11.49
11/5/2021 2:00:00 AM 6.58 43.844 0.175 7.27 0.15 11.5
11/5/2021 2:15:00 AM 6.55 43.79 0.175 7.27 1.37 11.53
11/5/2021 2:30:00 AM 6.51 43.718 0.175 7.26 1.24 11.53
11/5/2021 2:45:00 AM 6.47 43.646 0.175 7.25 0.8 11.54
11/5/2021 3:00:00 AM 6.44 43.592 0.175 7.26 0.8 11.54
11/5/2021 3:15:00 AM 6.4 43.52 0.175 7.26 0.4 11.54
11/5/2021 3:30:00 AM 6.36 43.448 0.176 7.26 0.33 11.56
11/5/2021 3:45:00 AM 6.32 43.376 0.176 7.26 0.37 11.59
11/5/2021 4:00:00 AM 6.28 43.304 0.176 7.25 0.64 11.57
11/5/2021 4:15:00 AM 6.24 43.232 0.176 7.26 0.09 11.61
11/5/2021 4:30:00 AM 6.2 43.16 0.176 7.25 0.31 11.63
11/5/2021 4:45:00 AM 6.16 43.088 0.176 7.25 0.21 11.65
11/5/2021 5:00:00 AM 6.12 43.016 0.176 7.25 0.51 11.67
11/5/2021 5:15:00 AM 6.08 42.944 0.176 7.25 0.8 11.69
11/5/2021 5:30:00 AM 6.04 42.872 0.176 7.25 1.22 11.7
11/5/2021 5:45:00 AM 5.99 42.782 0.176 7.25 0.61 11.72
11/5/2021 6:00:00 AM 5.95 42.71 0.176 7.25 0.48 11.7
11/5/2021 6:15:00 AM 5.9 42.62 0.176 7.25 0.52 11.75
11/5/2021 6:30:00 AM 5.86 42.548 0.176 7.25 0.65 11.78
11/5/2021 6:45:00 AM 5.82 42.476 0.176 7.25 1.16 11.77
11/5/2021 7:00:00 AM 5.77 42.386 0.176 7.25 0.92 11.8
11/5/2021 7:15:00 AM 5.74 42.332 0.176 7.25 0.55 11.83
11/5/2021 7:30:00 AM 5.69 42.242 0.176 7.25 0.42 11.83
11/5/2021 7:45:00 AM 5.66 42.188 0.176 7.25 0.89 11.85
11/5/2021 8:00:00 AM 5.61 42.098 0.176 7.25 0.48 11.88
11/5/2021 8:15:00 AM 5.57 42.026 0.176 7.25 0.41 11.91
11/5/2021 8:30:00 AM 5.53 41.954 0.176 7.25 0.23 11.96
11/5/2021 8:45:00 AM 5.5 41.9 0.176 7.25 0.16 12.03
11/5/2021 9:00:00 AM 5.47 41.846 0.176 7.26 0.58 12.08
11/5/2021 9:15:00 AM 5.45 41.81 0.176 7.26 0 12.14
11/5/2021 9:30:00 AM 5.44 41.792 0.176 7.26 0.06 12.18
11/5/2021 9:45:00 AM 5.43 41.774 0.176 7.26 0.43 12.24
11/5/2021 10:00:00 AM 5.43 41.774 0.176 7.27 0.36 12.29
11/5/2021 10:15:00 AM 5.45 41.81 0.176 7.26 0.5 12.31
11/5/2021 10:30:00 AM 5.48 41.864 0.176 7.26 0.19 12.38
11/5/2021 10:45:00 AM 5.52 41.936 0.176 7.28 0.08 12.41
11/5/2021 11:00:00 AM 5.6 42.08 0.176 7.28 0.24 12.51
11/5/2021 11:15:00 AM 5.7 42.26 0.176 7.28 0.12 12.52
11/5/2021 11:30:00 AM 5.83 42.494 0.176 7.28 0.16 12.58
11/5/2021 11:45:00 AM 5.98 42.764 0.175 7.29 0.18 12.61
11/5/2021 12:00:00 PM 6.15 43.07 0.175 7.29 0.12 12.6
11/5/2021 12:15:00 PM 6.35 43.43 0.175 7.3 0.04 12.64
11/5/2021 12:30:00 PM 6.56 43.808 0.175 7.3 0.16 12.64
11/5/2021 12:45:00 PM 6.71 44.078 0.175 7.3 0.51 12.64
11/5/2021 1:00:00 PM 6.88 44.384 0.175 7.31 0.19 12.63
11/5/2021 1:15:00 PM 7.08 44.744 0.175 7.31 0.2 12.62
11/5/2021 1:30:00 PM 7.3 45.14 0.175 7.32 0.27 12.59
11/5/2021 1:45:00 PM 7.52 45.536 0.175 7.32 0.43 12.58
11/5/2021 2:00:00 PM 7.72 45.896 0.175 7.33 0.68 12.57
11/5/2021 2:15:00 PM 7.88 46.184 0.175 7.33 0.28 12.55
11/5/2021 2:30:00 PM 7.91 46.238 0.175 7.33 0.33 12.5
11/5/2021 2:45:00 PM 7.95 46.31 0.175 7.34 0.51 12.49
11/5/2021 3:00:00 PM 8.03 46.454 0.175 7.34 0.5 12.46
11/5/2021 3:15:00 PM 8.09 46.562 0.175 7.34 0.42 12.43
11/5/2021 3:30:00 PM 8.11 46.598 0.175 7.34 0.29 12.4
11/5/2021 3:45:00 PM 8.11 46.598 0.175 7.35 0.59 12.38
11/5/2021 4:00:00 PM 8.07 46.526 0.175 7.35 0.28 12.29
11/5/2021 4:15:00 PM 8 46.4 0.175 7.35 0.45 12.26
11/5/2021 4:30:00 PM 7.93 46.274 0.175 7.36 0.47 12.23
11/5/2021 4:45:00 PM 7.86 46.148 0.175 7.36 0.69 12.17
11/5/2021 5:00:00 PM 7.8 46.04 0.175 7.36 0.36 12.13
11/5/2021 5:15:00 PM 7.73 45.914 0.175 7.37 0.23 12.08
11/5/2021 5:30:00 PM 7.66 45.788 0.175 7.37 0.54 12.02
11/5/2021 5:45:00 PM 7.59 45.662 0.175 7.37 0.3 11.97
11/5/2021 6:00:00 PM 7.51 45.518 0.175 7.38 0.34 11.93
11/5/2021 6:15:00 PM 7.43 45.374 0.175 7.37 0.23 11.88
11/5/2021 6:30:00 PM 7.34 45.212 0.175 7.37 0.28 11.81
11/5/2021 6:45:00 PM 7.28 45.104 0.175 7.36 0.4 11.8
11/5/2021 7:00:00 PM 7.19 44.942 0.175 7.36 0.11 11.75
11/5/2021 7:15:00 PM 7.13 44.834 0.175 7.35 0.5 11.74
11/5/2021 7:30:00 PM 7.07 44.726 0.175 7.34 0.22 11.69
11/5/2021 7:45:00 PM 7.01 44.618 0.175 7.33 0.18 11.7
11/5/2021 8:00:00 PM 6.96 44.528 0.175 7.32 0.46 11.65
11/5/2021 8:15:00 PM 6.91 44.438 0.175 7.33 0.27 11.65
11/5/2021 8:30:00 PM 6.87 44.366 0.175 7.32 0.27 11.64
11/5/2021 8:45:00 PM 6.81 44.258 0.175 7.32 0.71 11.63
11/5/2021 9:00:00 PM 6.76 44.168 0.175 7.31 0.21 11.64
11/5/2021 9:15:00 PM 6.72 44.096 0.175 7.31 1.39 11.62
11/5/2021 9:30:00 PM 6.67 44.006 0.176 7.3 0.57 11.62
11/5/2021 9:45:00 PM 6.63 43.934 0.176 7.3 0.1 11.61
11/5/2021 10:00:00 PM 6.58 43.844 0.176 7.3 0.67 11.62
11/5/2021 10:15:00 PM 6.54 43.772 0.176 7.29 0.36 11.61
11/5/2021 10:30:00 PM 6.49 43.682 0.175 7.29 0.32 11.64
11/5/2021 10:45:00 PM 6.45 43.61 0.175 7.28 0.61 11.65
11/5/2021 11:00:00 PM 6.4 43.52 0.175 7.28 0.02 11.66
11/5/2021 11:15:00 PM 6.36 43.448 0.176 7.28 0.22 11.65
11/5/2021 11:30:00 PM 6.31 43.358 0.176 7.27 0.47 11.67
11/5/2021 11:45:00 PM 6.27 43.286 0.176 7.27 0.1 11.71
11/6/2021 12:00:00 AM 6.24 43.232 0.176 7.27 0.29 11.7
11/6/2021 12:15:00 AM 6.19 43.142 0.176 7.27 0.36 11.7
11/6/2021 12:30:00 AM 6.16 43.088 0.176 7.27 0.74 11.73
11/6/2021 12:45:00 AM 6.12 43.016 0.176 7.26 0.54 11.74
11/6/2021 1:00:00 AM 6.09 42.962 0.176 7.26 0.29 11.75
11/6/2021 1:15:00 AM 6.06 42.908 0.176 7.26 0.27 11.73
11/6/2021 1:30:00 AM 6.02 42.836 0.176 7.26 0.6 11.74
11/6/2021 1:45:00 AM 5.99 42.782 0.176 7.26 0.26 11.77
11/6/2021 2:00:00 AM 5.96 42.728 0.176 7.26 0.22 11.78
11/6/2021 2:15:00 AM 5.94 42.692 0.176 7.26 1.3 11.79
11/6/2021 2:30:00 AM 5.9 42.62 0.176 7.25 0.11 11.8
11/6/2021 2:45:00 AM 5.87 42.566 0.176 7.25 0.45 11.82
11/6/2021 3:00:00 AM 5.84 42.512 0.176 7.25 0.79 11.82
11/6/2021 3:15:00 AM 5.81 42.458 0.176 7.25 0.43 11.82
11/6/2021 3:30:00 AM 5.78 42.404 0.176 7.25 0.55 11.84
11/6/2021 3:45:00 AM 5.74 42.332 0.176 7.25 0.32 11.84
11/6/2021 4:00:00 AM 5.71 42.278 0.176 7.25 0.28 11.84
11/6/2021 4:15:00 AM 5.67 42.206 0.176 7.25 0.5 11.85
11/6/2021 4:30:00 AM 5.64 42.152 0.176 7.24 0.6 11.87
11/6/2021 4:45:00 AM 5.6 42.08 0.176 7.25 0.58 11.88
11/6/2021 5:00:00 AM 5.57 42.026 0.176 7.25 0.19 11.89
11/6/2021 5:15:00 AM 5.53 41.954 0.176 7.24 0.61 11.92
11/6/2021 5:30:00 AM 5.49 41.882 0.176 7.24 0.42 11.94
11/6/2021 5:45:00 AM 5.45 41.81 0.176 7.24 0.37 11.94
11/6/2021 6:00:00 AM 5.4 41.72 0.176 7.24 0.41 11.95
11/6/2021 6:15:00 AM 5.36 41.648 0.176 7.24 0.32 11.99
11/6/2021 6:30:00 AM 5.32 41.576 0.176 7.24 0.17 12
11/6/2021 6:45:00 AM 5.28 41.504 0.177 7.24 0.37 11.99
11/6/2021 7:00:00 AM 5.24 41.432 0.176 7.24 0.45 12.04
11/6/2021 7:15:00 AM 5.19 41.342 0.177 7.24 0.22 12.05
11/6/2021 7:30:00 AM 5.15 41.27 0.176 7.24 0.03 12.06
11/6/2021 7:45:00 AM 5.11 41.198 0.177 7.24 -0.07 12.08
11/6/2021 8:00:00 AM 5.08 41.144 0.176 7.24 0.14 12.09
11/6/2021 8:15:00 AM 5.04 41.072 0.176 7.24 0.2 12.13
11/6/2021 8:30:00 AM 5 41 0.176 7.25 -0.05 12.18
11/6/2021 8:45:00 AM 4.97 40.946 0.176 7.24 0.07 12.24
11/6/2021 9:00:00 AM 4.95 40.91 0.176 7.24 0.72 12.3
11/6/2021 9:15:00 AM 4.92 40.856 0.176 7.24 0.07 12.32
11/6/2021 9:30:00 AM 4.9 40.82 0.176 7.25 0.09 12.4
11/6/2021 9:45:00 AM 4.9 40.82 0.176 7.25 -0.07 12.47
11/6/2021 10:00:00 AM 4.91 40.838 0.176 7.25 0.32 12.54
11/6/2021 10:15:00 AM 4.92 40.856 0.176 7.25 0.06 12.58
11/6/2021 10:30:00 AM 4.95 40.91 0.176 7.26 0.15 12.63
11/6/2021 10:45:00 AM 4.99 40.982 0.176 7.26 0.33 12.66
11/6/2021 11:00:00 AM 5.07 41.126 0.176 7.26 0.2 12.72
11/6/2021 11:15:00 AM 5.17 41.306 0.176 7.26 -0.09 12.77
11/6/2021 11:30:00 AM 5.31 41.558 0.176 7.27 0.18 12.79
11/6/2021 11:45:00 AM 5.47 41.846 0.176 7.28 0.17 12.83
11/6/2021 12:00:00 PM 5.65 42.17 0.175 7.27 0.04 12.84
11/6/2021 12:15:00 PM 5.85 42.53 0.175 7.28 0.22 12.87
11/6/2021 12:30:00 PM 6.07 42.926 0.176 7.28 0.07 12.84
11/6/2021 12:45:00 PM 6.23 43.214 0.175 7.29 -0.03 12.86
11/6/2021 1:00:00 PM 6.42 43.556 0.175 7.29 0.01 12.82
11/6/2021 1:15:00 PM 6.61 43.898 0.175 7.29 0.19 12.84
11/6/2021 1:30:00 PM 6.85 44.33 0.175 7.3 0.36 12.81
11/6/2021 1:45:00 PM 7.1 44.78 0.175 7.3 0.33 12.8
11/6/2021 2:00:00 PM 7.31 45.158 0.175 7.31 0.07 12.8
11/6/2021 2:15:00 PM 7.48 45.464 0.175 7.31 0.3 12.76
11/6/2021 2:30:00 PM 7.54 45.572 0.175 7.32 0.12 12.71
11/6/2021 2:45:00 PM 7.58 45.644 0.175 7.32 0.42 12.68
11/6/2021 3:00:00 PM 7.62 45.716 0.175 7.33 0.62 12.62
11/6/2021 3:15:00 PM 7.66 45.788 0.175 7.33 0.26 12.6
11/6/2021 3:30:00 PM 7.69 45.842 0.175 7.33 0.45 12.55
11/6/2021 3:45:00 PM 7.72 45.896 0.175 7.35 0.29 12.53
11/6/2021 4:00:00 PM 7.71 45.878 0.175 7.35 0.33 12.48
11/6/2021 4:15:00 PM 7.67 45.806 0.175 7.35 0.34 12.42
11/6/2021 4:30:00 PM 7.62 45.716 0.175 7.35 0.87 12.36
11/6/2021 4:45:00 PM 7.56 45.608 0.175 7.36 0.52 12.34
11/6/2021 5:00:00 PM 7.49 45.482 0.175 7.36 0.39 12.28
11/6/2021 5:15:00 PM 7.43 45.374 0.175 7.36 0.22 12.21
11/6/2021 5:30:00 PM 7.36 45.248 0.175 7.36 0.36 12.16
11/6/2021 5:45:00 PM 7.3 45.14 0.175 7.36 1.32 12.11
11/6/2021 6:00:00 PM 7.22 44.996 0.175 7.35 0.43 12.09
11/6/2021 6:15:00 PM 7.16 44.888 0.175 7.35 0.37 11.99
11/6/2021 6:30:00 PM 7.09 44.762 0.175 7.35 0.13 11.94
11/6/2021 6:45:00 PM 7.04 44.672 0.175 7.35 0.12 11.89
11/6/2021 7:00:00 PM 6.97 44.546 0.175 7.34 0.34 11.82
11/6/2021 7:15:00 PM 6.91 44.438 0.175 7.32 0.43 11.8
11/6/2021 7:30:00 PM 6.85 44.33 0.175 7.33 0.32 11.78
11/6/2021 7:45:00 PM 6.81 44.258 0.175 7.32 0.12 11.77
11/6/2021 8:00:00 PM 6.76 44.168 0.175 7.32 0.14 11.74
11/6/2021 8:15:00 PM 6.72 44.096 0.175 7.31 0.14 11.72
11/6/2021 8:30:00 PM 6.68 44.024 0.175 7.31 0.28 11.71
11/6/2021 8:45:00 PM 6.65 43.97 0.175 7.3 0.17 11.69
11/6/2021 9:00:00 PM 6.61 43.898 0.175 7.3 0.27 11.68
11/6/2021 9:15:00 PM 6.57 43.826 0.175 7.3 0.27 11.66
11/6/2021 9:30:00 PM 6.54 43.772 0.176 7.29 -0.02 11.66
11/6/2021 9:45:00 PM 6.5 43.7 0.176 7.29 0.28 11.65
11/6/2021 10:00:00 PM 6.46 43.628 0.176 7.28 0.31 11.65
11/6/2021 10:15:00 PM 6.42 43.556 0.175 7.28 0.41 11.66
11/6/2021 10:30:00 PM 6.38 43.484 0.175 7.27 0.27 11.67
11/6/2021 10:45:00 PM 6.34 43.412 0.176 7.27 0.53 11.68
11/6/2021 11:00:00 PM 6.3 43.34 0.176 7.27 0.27 11.67
11/6/2021 11:15:00 PM 6.27 43.286 0.176 7.27 0.04 11.68
11/6/2021 11:30:00 PM 6.22 43.196 0.176 7.27 0.25 11.67
11/6/2021 11:45:00 PM 6.19 43.142 0.176 7.26 0.54 11.69
11/7/2021 12:00:00 AM 6.15 43.07 0.176 7.26 0.2 11.69
11/7/2021 12:15:00 AM 6.13 43.034 0.176 7.26 0.35 11.69
11/7/2021 12:30:00 AM 6.1 42.98 0.176 7.25 0.06 11.72
11/7/2021 12:45:00 AM 6.07 42.926 0.176 7.25 0.23 11.72
11/7/2021 1:00:00 AM 6.05 42.89 0.176 7.26 1.05 11.72
11/7/2021 1:15:00 AM 6.02 42.836 0.176 7.25 0.29 11.73
11/7/2021 1:30:00 AM 5.99 42.782 0.176 7.25 0.34 11.72
11/7/2021 1:45:00 AM 5.97 42.746 0.176 7.25 0.34 11.75
11/7/2021 2:00:00 AM 5.95 42.71 0.176 7.25 0.21 11.74
11/7/2021 2:15:00 AM 5.93 42.674 0.176 7.24 0.39 11.72
11/7/2021 2:30:00 AM 5.9 42.62 0.176 7.24 0.21 11.75
11/7/2021 2:45:00 AM 5.88 42.584 0.176 7.24 0.13 11.76
11/7/2021 3:00:00 AM 5.85 42.53 0.176 7.24 -0.04 11.77
11/7/2021 3:15:00 AM 5.83 42.494 0.176 7.24 0.11 11.77
11/7/2021 3:30:00 AM 5.81 42.458 0.176 7.24 0.42 11.78
11/7/2021 3:45:00 AM 5.67 42.206 0.176 7.23 0.75 11.82
11/7/2021 4:00:00 AM 5.64 42.152 0.176 7.23 0.14 11.83
11/7/2021 4:15:00 AM 5.6 42.08 0.176 7.23 0.17 11.84
11/7/2021 4:30:00 AM 5.56 42.008 0.176 7.23 0.48 11.86
11/7/2021 4:45:00 AM 5.53 41.954 0.176 7.23 0.15 11.84
11/7/2021 5:00:00 AM 5.49 41.882 0.176 7.23 0.45 11.86
11/7/2021 5:15:00 AM 5.45 41.81 0.176 7.22 0.19 11.89
11/7/2021 5:30:00 AM 5.41 41.738 0.176 7.23 0.8 11.89
11/7/2021 5:45:00 AM 5.37 41.666 0.176 7.23 0.41 11.91
11/7/2021 6:00:00 AM 5.34 41.612 0.176 7.23 0.44 11.92
11/7/2021 6:15:00 AM 5.31 41.558 0.176 7.23 0.36 11.93
11/7/2021 6:30:00 AM 5.26 41.468 0.176 7.23 0.38 11.96
11/7/2021 6:45:00 AM 5.22 41.396 0.176 7.22 0.22 11.99
11/7/2021 7:00:00 AM 5.18 41.324 0.176 7.23 0.13 12.01
11/7/2021 7:15:00 AM 5.15 41.27 0.176 7.22 0.1 12.03
11/7/2021 7:30:00 AM 5.12 41.216 0.176 7.23 0.22 12.05
11/7/2021 7:45:00 AM 5.09 41.162 0.176 7.23 0.1 12.12
11/7/2021 8:00:00 AM 5.07 41.126 0.176 7.23 0.28 12.17
11/7/2021 8:15:00 AM 5.06 41.108 0.176 7.23 0.29 12.23
11/7/2021 8:30:00 AM 5.05 41.09 0.176 7.23 0.28 12.31
11/7/2021 8:45:00 AM 5.04 41.072 0.176 7.23 0 12.38
11/7/2021 9:00:00 AM 5.04 41.072 0.176 7.23 0.23 12.45
11/7/2021 9:15:00 AM 5.05 41.09 0.176 7.24 -0.02 12.52
11/7/2021 9:30:00 AM 5.07 41.126 0.176 7.25 0.2 12.57
11/7/2021 9:45:00 AM 5.11 41.198 0.176 7.25 0.24 12.64
11/7/2021 10:00:00 AM 5.17 41.306 0.176 7.25 0.06 12.65
11/7/2021 10:15:00 AM 5.25 41.45 0.176 7.26 0.47 12.71
11/7/2021 10:30:00 AM 5.38 41.684 0.176 7.25 0.27 12.77
11/7/2021 10:45:00 AM 5.52 41.936 0.175 7.26 0.36 12.8
11/7/2021 11:00:00 AM 5.68 42.224 0.175 7.27 0.15 12.84
11/7/2021 11:15:00 AM 5.86 42.548 0.175 7.28 0.68 12.83
11/7/2021 11:30:00 AM 6.07 42.926 0.175 7.28 -0.03 12.86
11/7/2021 11:45:00 AM 6.22 43.196 0.175 7.28 1.43 12.85
11/7/2021 12:00:00 PM 6.37 43.466 0.175 7.29 0.12 12.82
11/7/2021 12:15:00 PM 6.54 43.772 0.175 7.3 0.27 12.84
11/7/2021 12:30:00 PM 6.78 44.204 0.175 7.3 0.13 12.8
11/7/2021 12:45:00 PM 6.98 44.564 0.174 7.32 0.15 12.81
11/7/2021 1:00:00 PM 7.19 44.942 0.174 7.32 0.2 12.79
11/7/2021 1:15:00 PM 7.34 45.212 0.174 7.32 0.26 12.78
11/7/2021 1:30:00 PM 7.46 45.428 0.174 7.33 0.37 12.77
11/7/2021 1:45:00 PM 7.52 45.536 0.174 7.33 0.5 12.73
11/7/2021 2:00:00 PM 7.56 45.608 0.174 7.34 0.14 12.67
11/7/2021 2:15:00 PM 7.6 45.68 0.174 7.34 0.45 12.64
11/7/2021 2:30:00 PM 7.63 45.734 0.174 7.34 0.54 12.57
11/7/2021 2:45:00 PM 7.66 45.788 0.174 7.35 0.08 12.56
11/7/2021 3:00:00 PM 7.66 45.788 0.174 7.35 0.15 12.51
11/7/2021 3:15:00 PM 7.64 45.752 0.174 7.36 0.19 12.47
11/7/2021 3:30:00 PM 7.59 45.662 0.174 7.36 0.19 12.41
11/7/2021 3:45:00 PM 7.56 45.608 0.174 7.36 0.06 12.36
11/7/2021 4:00:00 PM 7.54 45.572 0.174 7.37 0 12.35
11/7/2021 4:15:00 PM 7.51 45.518 0.174 7.37 0.15 12.33
11/7/2021 4:30:00 PM 7.48 45.464 0.174 7.37 0.12 12.27
11/7/2021 4:45:00 PM 7.43 45.374 0.174 7.37 0.17 12.22
11/7/2021 5:00:00 PM 7.37 45.266 0.174 7.36 0.35 12.14
11/7/2021 5:15:00 PM 7.31 45.158 0.175 7.37 0.61 12.05
11/7/2021 5:30:00 PM 7.25 45.05 0.175 7.36 0.26 11.93
11/7/2021 5:45:00 PM 7.19 44.942 0.175 7.36 0.24 11.89
11/7/2021 6:00:00 PM 7.14 44.852 0.175 7.36 0.32 11.81
11/7/2021 6:15:00 PM 7.09 44.762 0.175 7.35 0.05 11.77
11/7/2021 6:30:00 PM 7.05 44.69 0.175 7.34 0.34 11.73
11/7/2021 6:45:00 PM 7.01 44.618 0.175 7.34 0.24 11.7
11/7/2021 7:00:00 PM 6.97 44.546 0.175 7.33 0.27 11.67
11/7/2021 7:15:00 PM 6.94 44.492 0.175 7.33 0.22 11.63
11/7/2021 7:30:00 PM 6.9 44.42 0.175 7.32 1.49 11.61
11/7/2021 7:45:00 PM 6.87 44.366 0.175 7.32 0.23 11.59
11/7/2021 8:00:00 PM 6.84 44.312 0.175 7.32 0.15 11.59
11/7/2021 8:15:00 PM 6.81 44.258 0.175 7.31 1.21 11.57
11/7/2021 8:30:00 PM 6.77 44.186 0.175 7.3 0.26 11.55
11/7/2021 8:45:00 PM 6.74 44.132 0.175 7.29 0.39 11.53
11/7/2021 9:00:00 PM 6.71 44.078 0.175 7.29 0.6 11.53
11/7/2021 9:15:00 PM 6.68 44.024 0.175 7.29 0.32 11.54
11/7/2021 9:30:00 PM 6.65 43.97 0.175 7.28 0.17 11.53
11/7/2021 9:45:00 PM 6.61 43.898 0.175 7.28 0.36 11.52
11/7/2021 10:00:00 PM 6.57 43.826 0.175 7.27 -0.18 11.52
11/7/2021 10:15:00 PM 6.54 43.772 0.175 7.27 0.16 11.51
11/7/2021 10:30:00 PM 6.5 43.7 0.175 7.27 0.14 11.51
11/7/2021 10:45:00 PM 6.47 43.646 0.175 7.27 0.35 11.54
11/7/2021 11:00:00 PM 6.43 43.574 0.175 7.26 0.56 11.54
11/7/2021 11:15:00 PM 6.4 43.52 0.175 7.26 0.22 11.53
11/7/2021 11:30:00 PM 6.37 43.466 0.175 7.26 0.26 11.56
11/7/2021 11:45:00 PM 6.34 43.412 0.175 7.26 0.15 11.55
11/8/2021 12:00:00 AM 6.32 43.376 0.175 7.25 0.48 11.55
11/8/2021 12:15:00 AM 6.29 43.322 0.175 7.25 0.27 11.56
11/8/2021 12:30:00 AM 6.27 43.286 0.175 7.25 0.05 11.58
11/8/2021 12:45:00 AM 6.25 43.25 0.175 7.25 0.05 11.56
11/8/2021 1:00:00 AM 6.23 43.214 0.175 7.25 0.11 11.6
11/8/2021 1:15:00 AM 6.21 43.178 0.175 7.24 0.32 11.58
11/8/2021 1:30:00 AM 6.19 43.142 0.175 7.24 0.08 11.58
11/8/2021 1:45:00 AM 6.17 43.106 0.176 7.24 0.6 11.59
11/8/2021 2:00:00 AM 6.15 43.07 0.176 7.24 0.07 11.61
11/8/2021 2:15:00 AM 6.14 43.052 0.176 7.24 0.25 11.58
11/8/2021 2:30:00 AM 6.12 43.016 0.175 7.23 0.07 11.57
11/8/2021 2:45:00 AM 6.1 42.98 0.175 7.23 0.24 11.61
11/8/2021 3:00:00 AM 6.09 42.962 0.176 7.23 0.2 11.63
11/8/2021 3:15:00 AM 6.07 42.926 0.175 7.22 0.54 11.62
11/8/2021 3:30:00 AM 6.05 42.89 0.175 7.22 0.42 11.63
11/8/2021 3:45:00 AM 6.03 42.854 0.175 7.22 0.24 11.64
11/8/2021 4:00:00 AM 6.01 42.818 0.175 7.22 0.11 11.62
11/8/2021 4:15:00 AM 5.99 42.782 0.176 7.22 0.2 11.65
11/8/2021 4:30:00 AM 5.97 42.746 0.175 7.22 1.62 11.64
11/8/2021 4:45:00 AM 5.95 42.71 0.176 7.22 0.42 11.65
11/8/2021 5:00:00 AM 5.93 42.674 0.175 7.22 0.46 11.67
11/8/2021 5:15:00 AM 5.9 42.62 0.175 7.22 0.26 11.67
11/8/2021 5:30:00 AM 5.88 42.584 0.175 7.22 0.46 11.69
11/8/2021 5:45:00 AM 5.86 42.548 0.175 7.22 0.44 11.69
11/8/2021 6:00:00 AM 5.83 42.494 0.176 7.22 0.49 11.7
11/8/2021 6:15:00 AM 5.81 42.458 0.176 7.22 0.33 11.74
11/8/2021 6:30:00 AM 5.79 42.422 0.176 7.21 0.08 11.72
11/8/2021 6:45:00 AM 5.77 42.386 0.176 7.22 0.02 11.75
11/8/2021 7:00:00 AM 5.75 42.35 0.176 7.21 0.16 11.76
11/8/2021 7:15:00 AM 5.72 42.296 0.176 7.21 0.17 11.8
11/8/2021 7:30:00 AM 5.71 42.278 0.176 7.22 0.62 11.83
11/8/2021 7:45:00 AM 5.69 42.242 0.176 7.21 0.06 11.88
11/8/2021 8:00:00 AM 5.67 42.206 0.176 7.22 -0.08 11.97
11/8/2021 8:15:00 AM 5.67 42.206 0.176 7.21 0.17 11.99
11/8/2021 8:30:00 AM 5.67 42.206 0.176 7.22 0.1 12.05
11/8/2021 8:45:00 AM 5.68 42.224 0.176 7.22 0.11 12.12
11/8/2021 9:00:00 AM 5.7 42.26 0.176 7.22 0.13 12.17
11/8/2021 9:15:00 AM 5.73 42.314 0.176 7.22 0 12.21
11/8/2021 9:30:00 AM 5.78 42.404 0.175 7.22 0 12.28
11/8/2021 9:45:00 AM 5.85 42.53 0.175 7.24 -0.08 12.31
11/8/2021 10:00:00 AM 5.95 42.71 0.175 7.24 -0.07 12.38
11/8/2021 10:15:00 AM 6.08 42.944 0.175 7.24 -0.03 12.43
11/8/2021 10:30:00 AM 6.25 43.25 0.175 7.25 1.02 12.48
11/8/2021 10:45:00 AM 6.43 43.574 0.175 7.25 0.35 12.51
11/8/2021 11:00:00 AM 6.63 43.934 0.175 7.25 0.08 12.54
11/8/2021 11:15:00 AM 6.83 44.294 0.174 7.26 0.07 12.56
11/8/2021 11:30:00 AM 7.06 44.708 0.174 7.27 0.23 12.59
11/8/2021 11:45:00 AM 7.25 45.05 0.174 7.27 0.16 12.53
11/8/2021 12:00:00 PM 7.45 45.41 0.174 7.28 0.05 12.56
11/8/2021 12:15:00 PM 7.65 45.77 0.174 7.28 0.14 12.53
11/8/2021 12:30:00 PM 7.91 46.238 0.174 7.29 0.09 12.51
11/8/2021 12:45:00 PM 8.19 46.742 0.174 7.28 0.46 12.47
11/8/2021 1:00:00 PM 8.43 47.174 0.174 7.29 0.27 12.47
11/8/2021 1:15:00 PM 8.59 47.462 0.174 7.29 1.69 12.45
11/8/2021 1:30:00 PM 8.73 47.714 0.174 7.3 0.17 12.4
11/8/2021 1:45:00 PM 8.78 47.804 0.174 7.3 0.26 12.36
11/8/2021 2:00:00 PM 8.85 47.93 0.174 7.31 0.31 12.3
11/8/2021 2:15:00 PM 8.92 48.056 0.174 7.31 0.55 12.28
11/8/2021 2:30:00 PM 9 48.2 0.174 7.31 0.29 12.22
11/8/2021 2:45:00 PM 9.05 48.29 0.174 7.32 0.46 12.17
11/8/2021 3:00:00 PM 9.05 48.29 0.174 7.32 0.44 12.13
11/8/2021 3:15:00 PM 9.02 48.236 0.174 7.32 0.34 12.04
11/8/2021 3:30:00 PM 8.99 48.182 0.174 7.31 0.48 11.94
11/8/2021 3:45:00 PM 8.95 48.11 0.174 7.33 0.2 11.87
11/8/2021 4:00:00 PM 8.9 48.02 0.174 7.32 0.29 11.84
11/8/2021 4:15:00 PM 8.86 47.948 0.174 7.32 0.43 11.77
11/8/2021 4:30:00 PM 8.82 47.876 0.174 7.32 0.3 11.7
11/8/2021 4:45:00 PM 8.76 47.768 0.174 7.32 0.41 11.61
11/8/2021 5:00:00 PM 8.7 47.66 0.174 7.32 0.23 11.57
11/8/2021 5:15:00 PM 8.64 47.552 0.175 7.32 0.46 11.5
11/8/2021 5:30:00 PM 8.59 47.462 0.175 7.31 0.45 11.41
11/8/2021 5:45:00 PM 8.52 47.336 0.175 7.31 0.53 11.33
11/8/2021 6:00:00 PM 8.47 47.246 0.175 7.3 0.39 11.31
11/8/2021 6:15:00 PM 8.41 47.138 0.175 7.31 0.37 11.28
11/8/2021 6:30:00 PM 8.36 47.048 0.175 7.3 0.2 11.22
11/8/2021 6:45:00 PM 8.31 46.958 0.175 7.29 0.26 11.21
11/8/2021 7:00:00 PM 8.28 46.904 0.175 7.29 0.64 11.17
11/8/2021 7:15:00 PM 8.25 46.85 0.175 7.29 0.36 11.15
11/8/2021 7:30:00 PM 8.21 46.778 0.175 7.28 0.35 11.11
11/8/2021 7:45:00 PM 8.18 46.724 0.175 7.27 0.51 11.12
11/8/2021 8:00:00 PM 8.15 46.67 0.175 7.27 0.67 11.1
11/8/2021 8:15:00 PM 8.12 46.616 0.175 7.26 0.31 11.09
11/8/2021 8:30:00 PM 8.09 46.562 0.175 7.25 0.13 11.05
11/8/2021 8:45:00 PM 8.07 46.526 0.175 7.25 0.23 11.07
11/8/2021 9:00:00 PM 8.04 46.472 0.175 7.24 0.3 11.06
11/8/2021 9:15:00 PM 8.01 46.418 0.175 7.25 0.61 11.05
11/8/2021 9:30:00 PM 7.98 46.364 0.175 7.24 0.43 11.04
11/8/2021 9:45:00 PM 7.95 46.31 0.175 7.23 0.32 11.05
11/8/2021 10:00:00 PM 7.92 46.256 0.175 7.23 0.54 11.06
11/8/2021 10:15:00 PM 7.89 46.202 0.175 7.22 0.33 11.05
11/8/2021 10:30:00 PM 7.86 46.148 0.175 7.23 0.39 11.06
11/8/2021 10:45:00 PM 7.82 46.076 0.175 7.22 0.81 11.07
11/8/2021 11:00:00 PM 7.8 46.04 0.175 7.22 0.23 11.07
11/8/2021 11:15:00 PM 7.76 45.968 0.175 7.22 0.3 11.08
11/8/2021 11:30:00 PM 7.74 45.932 0.175 7.21 0.34 11.07
11/8/2021 11:45:00 PM 7.71 45.878 0.175 7.21 0.33 11.08
11/9/2021 12:00:00 AM 7.69 45.842 0.175 7.21 0.29 11.08
11/9/2021 12:15:00 AM 7.66 45.788 0.175 7.21 0.15 11.09
11/9/2021 12:30:00 AM 7.64 45.752 0.175 7.21 0.92 11.11
11/9/2021 12:45:00 AM 7.62 45.716 0.175 7.2 0.27 11.1
11/9/2021 1:00:00 AM 7.6 45.68 0.175 7.2 2.08 11.07
11/9/2021 1:15:00 AM 7.58 45.644 0.175 7.2 0.13 11.07
11/9/2021 1:30:00 AM 7.56 45.608 0.175 7.2 0.5 11.1
11/9/2021 1:45:00 AM 7.54 45.572 0.175 7.2 0.55 11.11
11/9/2021 2:00:00 AM 7.52 45.536 0.176 7.19 0.59 11.11
11/9/2021 2:15:00 AM 7.5 45.5 0.176 7.19 0.46 11.11
11/9/2021 2:30:00 AM 7.48 45.464 0.176 7.2 0.49 11.16
11/9/2021 2:45:00 AM 7.46 45.428 0.176 7.19 0.43 11.14
11/9/2021 3:00:00 AM 7.44 45.392 0.176 7.19 0.45 11.14
11/9/2021 3:15:00 AM 7.42 45.356 0.176 7.19 0.55 11.11
11/9/2021 3:30:00 AM 7.4 45.32 0.176 7.19 0.87 11.16
11/9/2021 3:45:00 AM 7.38 45.284 0.176 7.18 0.71 11.17
11/9/2021 4:00:00 AM 7.35 45.23 0.176 7.18 1.15 11.17
11/9/2021 4:15:00 AM 7.33 45.194 0.176 7.19 0.82 11.15
11/9/2021 4:30:00 AM 7.3 45.14 0.176 7.19 0.41 11.17
11/9/2021 4:45:00 AM 7.27 45.086 0.176 7.18 0.82 11.2
11/9/2021 5:00:00 AM 7.24 45.032 0.176 7.18 0.34 11.19
11/9/2021 5:15:00 AM 7.22 44.996 0.176 7.19 0.54 11.19
11/9/2021 5:30:00 AM 7.19 44.942 0.176 7.18 0.7 11.22
11/9/2021 5:45:00 AM 7.16 44.888 0.176 7.18 0.57 11.25
11/9/2021 6:00:00 AM 7.13 44.834 0.176 7.18 0.92 11.26
11/9/2021 6:15:00 AM 7.1 44.78 0.176 7.18 1.09 11.26
11/9/2021 6:30:00 AM 7.07 44.726 0.176 7.17 0.29 11.27
11/9/2021 6:45:00 AM 7.04 44.672 0.176 7.17 0.16 11.28
11/9/2021 7:00:00 AM 7.01 44.618 0.176 7.18 0.31 11.3
11/9/2021 7:15:00 AM 6.99 44.582 0.176 7.18 0.52 11.33
11/9/2021 7:30:00 AM 6.97 44.546 0.176 7.17 0.13 11.36
11/9/2021 7:45:00 AM 6.95 44.51 0.176 7.17 0.48 11.43
11/9/2021 8:00:00 AM 6.94 44.492 0.176 7.17 0.54 11.5
11/9/2021 8:15:00 AM 6.92 44.456 0.176 7.18 2.07 11.58
11/9/2021 8:30:00 AM 6.92 44.456 0.176 7.18 0.14 11.63
11/9/2021 8:45:00 AM 6.92 44.456 0.176 7.18 0.26 11.69
11/9/2021 9:00:00 AM 6.93 44.474 0.176 7.18 0.26 11.75
11/9/2021 9:15:00 AM 6.96 44.528 0.176 7.19 0.31 11.8
11/9/2021 9:30:00 AM 7.01 44.618 0.175 7.19 0.14 11.89
11/9/2021 9:45:00 AM 7.06 44.708 0.175 7.19 0.32 11.94
11/9/2021 10:00:00 AM 7.15 44.87 0.175 7.19 0.42 12.04
11/9/2021 10:15:00 AM 7.27 45.086 0.175 7.2 0.27 12.1
11/9/2021 10:30:00 AM 7.4 45.32 0.175 7.21 0.14 12.15
11/9/2021 10:45:00 AM 7.58 45.644 0.175 7.21 0.15 12.22
11/9/2021 11:00:00 AM 7.77 45.986 0.175 7.22 0.23 12.24
11/9/2021 11:15:00 AM 7.99 46.382 0.175 7.22 0.24 12.27
11/9/2021 11:30:00 AM 8.2 46.76 0.175 7.23 0.2 12.28
11/9/2021 11:45:00 AM 8.39 47.102 0.175 7.24 0.24 12.29
11/9/2021 12:00:00 PM 8.59 47.462 0.174 7.24 0.27 12.27
11/9/2021 12:15:00 PM 8.78 47.804 0.175 7.25 0.15 12.29
11/9/2021 12:30:00 PM 9.04 48.272 0.174 7.25 0.53 12.26
11/9/2021 12:45:00 PM 9.29 48.722 0.174 7.26 0.34 12.24
11/9/2021 1:00:00 PM 9.52 49.136 0.174 7.26 0.48 12.25
11/9/2021 1:15:00 PM 9.68 49.424 0.174 7.27 0.31 12.21
11/9/2021 1:30:00 PM 9.81 49.658 0.174 7.28 0.45 12.18
11/9/2021 1:45:00 PM 9.86 49.748 0.174 7.29 0.69 12.13
11/9/2021 2:00:00 PM 9.94 49.892 0.174 7.29 0.32 12.08
11/9/2021 2:15:00 PM 10 50 0.174 7.29 0.4 12.05
11/9/2021 2:30:00 PM 10.07 50.126 0.174 7.3 0.44 12.03
11/9/2021 2:45:00 PM 10.11 50.198 0.174 7.3 0.76 11.96
11/9/2021 3:00:00 PM 10.11 50.198 0.174 7.31 0.37 11.88
11/9/2021 3:15:00 PM 10.08 50.144 0.174 7.31 0.47 11.8
11/9/2021 3:30:00 PM 10.05 50.09 0.175 7.32 0.35 11.74
11/9/2021 3:45:00 PM 10 50 0.175 7.32 0.35 11.63
11/9/2021 4:00:00 PM 9.95 49.91 0.175 7.32 0.51 11.58
11/9/2021 4:15:00 PM 9.9 49.82 0.175 7.31 0.82 11.5
11/9/2021 4:30:00 PM 9.84 49.712 0.175 7.32 0.31 11.43
11/9/2021 4:45:00 PM 9.78 49.604 0.175 7.31 0.24 11.36
11/9/2021 5:00:00 PM 9.71 49.478 0.175 7.31 0.55 11.25
11/9/2021 5:15:00 PM 9.64 49.352 0.175 7.31 0.44 11.16
11/9/2021 5:30:00 PM 9.58 49.244 0.175 7.31 0.48 11.08
11/9/2021 5:45:00 PM 9.5 49.1 0.175 7.31 0.43 11.03
11/9/2021 6:00:00 PM 9.44 48.992 0.175 7.3 1.97 10.96
11/9/2021 6:15:00 PM 9.38 48.884 0.175 7.29 0.59 10.94
11/9/2021 6:30:00 PM 9.33 48.794 0.175 7.29 0.61 10.89
11/9/2021 6:45:00 PM 9.27 48.686 0.175 7.28 0.51 10.85
11/9/2021 7:00:00 PM 9.24 48.632 0.175 7.27 0.71 10.86
11/9/2021 7:15:00 PM 9.18 48.524 0.175 7.26 0.68 10.8
11/9/2021 7:30:00 PM 9.15 48.47 0.175 7.26 0.53 10.79
11/9/2021 7:45:00 PM 9.12 48.416 0.175 7.25 0.36 10.74
11/9/2021 8:00:00 PM 9.09 48.362 0.175 7.24 0.44 10.75
11/9/2021 8:15:00 PM 9.07 48.326 0.176 7.24 0.55 10.75
11/9/2021 8:30:00 PM 9.05 48.29 0.176 7.24 0.46 10.73
11/9/2021 8:45:00 PM 9.03 48.254 0.176 7.23 0.59 10.7
11/9/2021 9:00:00 PM 9.01 48.218 0.176 7.22 0.6 10.69
11/9/2021 9:15:00 PM 8.99 48.182 0.176 7.22 0.86 10.7
11/9/2021 9:30:00 PM 8.97 48.146 0.176 7.22 0.48 10.7
11/9/2021 9:45:00 PM 8.94 48.092 0.176 7.21 0.46 10.69
11/9/2021 10:00:00 PM 8.92 48.056 0.176 7.2 0.88 10.69
11/9/2021 10:15:00 PM 8.9 48.02 0.176 7.2 0.19 10.69
11/9/2021 10:30:00 PM 8.89 48.002 0.176 7.2 0.35 10.69
11/9/2021 10:45:00 PM 8.87 47.966 0.175 7.2 1.8 10.7
11/9/2021 11:00:00 PM 8.86 47.948 0.175 7.19 0.55 10.7
11/9/2021 11:15:00 PM 8.85 47.93 0.175 7.19 1.52 10.69
11/9/2021 11:30:00 PM 8.85 47.93 0.173 7.19 0.81 10.71
11/9/2021 11:45:00 PM 8.84 47.912 0.173 7.18 0.52 10.71
11/10/2021 12:00:00 AM 8.85 47.93 0.173 7.17 0.65 10.69
11/10/2021 12:15:00 AM 8.85 47.93 0.173 7.19 0.17 10.7
11/10/2021 12:30:00 AM 8.86 47.948 0.173 7.18 0.39 10.66
11/10/2021 12:45:00 AM 8.87 47.966 0.173 7.18 0.36 10.69
11/10/2021 1:00:00 AM 8.87 47.966 0.173 7.18 0.32 10.68
11/10/2021 1:15:00 AM 8.88 47.984 0.171 7.17 0.45 10.69
11/10/2021 1:30:00 AM 8.9 48.02 0.17 7.18 0.54 10.67
11/10/2021 1:45:00 AM 8.91 48.038 0.171 7.17 0.71 10.68
11/10/2021 2:00:00 AM 8.93 48.074 0.171 7.17 1.57 10.68
11/10/2021 2:15:00 AM 8.94 48.092 0.171 7.16 0.32 10.67
11/10/2021 2:30:00 AM 8.96 48.128 0.171 7.16 0.39 10.65
11/10/2021 2:45:00 AM 8.98 48.164 0.17 7.16 0.59 10.64
11/10/2021 3:00:00 AM 9 48.2 0.17 7.16 0.52 10.65
11/10/2021 3:15:00 AM 9.02 48.236 0.17 7.15 0.55 10.64
11/10/2021 3:30:00 AM 9.04 48.272 0.17 7.15 0.38 10.63
11/10/2021 3:45:00 AM 9.06 48.308 0.169 7.16 0.34 10.62
11/10/2021 4:00:00 AM 9.07 48.326 0.169 7.16 0.41 10.63
11/10/2021 4:15:00 AM 9.09 48.362 0.169 7.15 0.56 10.6
11/10/2021 4:30:00 AM 9.1 48.38 0.17 7.16 0.54 10.63
11/10/2021 4:45:00 AM 9.11 48.398 0.176 7.16 0.84 10.61
11/10/2021 5:00:00 AM 9.11 48.398 0.176 7.15 0.56 10.6
11/10/2021 5:15:00 AM 9.12 48.416 0.176 7.15 1.08 10.6
11/10/2021 5:30:00 AM 9.12 48.416 0.176 7.14 0.58 10.6
11/10/2021 5:45:00 AM 9.12 48.416 0.175 7.15 0.97 10.61
11/10/2021 6:00:00 AM 9.12 48.416 0.175 7.15 0.35 10.61
11/10/2021 6:15:00 AM 9.12 48.416 0.175 7.14 0.73 10.6
11/10/2021 6:30:00 AM 9.1 48.38 0.177 7.14 0.56 10.6
11/10/2021 6:45:00 AM 9.08 48.344 0.176 7.14 0.53 10.6
11/10/2021 7:00:00 AM 9.06 48.308 0.177 7.14 0.43 10.62
11/10/2021 7:15:00 AM 9.04 48.272 0.177 7.14 0.72 10.64
11/10/2021 7:30:00 AM 9.02 48.236 0.175 7.14 0.61 10.64
11/10/2021 7:45:00 AM 9 48.2 0.164 7.14 0.58 10.74
11/10/2021 8:00:00 AM 8.99 48.182 0.162 7.14 0.46 10.81
11/10/2021 8:15:00 AM 8.97 48.146 0.161 7.14 0.5 10.91
11/10/2021 8:30:00 AM 8.97 48.146 0.161 7.14 0.41 10.97
11/10/2021 8:45:00 AM 8.97 48.146 0.161 7.15 0.44 11.07
11/10/2021 9:00:00 AM 8.98 48.164 0.161 7.15 0.38 11.18
11/10/2021 9:15:00 AM 9.02 48.236 0.16 7.16 0.24 11.27
11/10/2021 9:30:00 AM 9.07 48.326 0.16 7.16 0.46 11.32
11/10/2021 9:45:00 AM 9.14 48.452 0.16 7.16 1.84 11.42
11/10/2021 10:00:00 AM 9.22 48.596 0.159 7.17 0.62 11.47
11/10/2021 10:15:00 AM 9.32 48.776 0.159 7.18 0.24 11.55
11/10/2021 10:30:00 AM 9.45 49.01 0.159 7.2 0.24 11.63
11/10/2021 10:45:00 AM 9.58 49.244 0.159 7.2 0.61 11.7
11/10/2021 11:00:00 AM 9.75 49.55 0.159 7.2 0.4 11.73
11/10/2021 11:15:00 AM 9.92 49.856 0.159 7.21 0.48 11.8
11/10/2021 11:30:00 AM 10.11 50.198 0.159 7.22 0.45 11.82
11/10/2021 11:45:00 AM 10.27 50.486 0.158 7.22 0.35 11.86
11/10/2021 12:00:00 PM 10.43 50.774 0.158 7.23 0.67 11.88
11/10/2021 12:15:00 PM 10.59 51.062 0.158 7.24 0.91 11.87
11/10/2021 12:30:00 PM 10.81 51.458 0.158 7.25 0.29 11.88
11/10/2021 12:45:00 PM 11.03 51.854 0.158 7.25 0.79 11.88
11/10/2021 1:00:00 PM 11.23 52.214 0.173 7.26 0.49 11.86
11/10/2021 1:15:00 PM 11.38 52.484 0.172 7.27 0.31 11.83
11/10/2021 1:30:00 PM 11.48 52.664 0.172 7.27 0.62 11.84
11/10/2021 1:45:00 PM 11.5 52.7 0.172 7.28 0.45 11.76
11/10/2021 2:00:00 PM 11.55 52.79 0.172 7.29 0.37 11.73
11/10/2021 2:15:00 PM 11.59 52.862 0.172 7.29 1.14 11.71
11/10/2021 2:30:00 PM 11.64 52.952 0.172 7.3 0.48 11.65
11/10/2021 2:45:00 PM 11.66 52.988 0.171 7.31 0.46 11.62
11/10/2021 3:00:00 PM 11.65 52.97 0.171 7.32 0.48 11.53
11/10/2021 3:15:00 PM 11.59 52.862 0.172 7.31 0.58 11.46
11/10/2021 3:30:00 PM 11.54 52.772 0.172 7.32 0.39 11.37
11/10/2021 3:45:00 PM 11.47 52.646 0.172 7.32 0.56 11.28
11/10/2021 4:00:00 PM 11.4 52.52 0.172 7.33 1.04 11.19
11/10/2021 4:15:00 PM 11.34 52.412 0.173 7.32 0.62 11.13
11/10/2021 4:30:00 PM 11.27 52.286 0.178 7.32 0.72 11.04
11/10/2021 4:45:00 PM 11.19 52.142 0.176 7.32 0.66 10.94
11/10/2021 5:00:00 PM 11.13 52.034 0.176 7.32 0.63 10.88
11/10/2021 5:15:00 PM 11.04 51.872 0.173 7.31 0.77 10.77
11/10/2021 5:30:00 PM 10.97 51.746 0.175 7.31 0.8 10.69
11/10/2021 5:45:00 PM 10.88 51.584 0.175 7.31 0.81 10.61
11/10/2021 6:00:00 PM 10.79 51.422 0.175 7.29 0.63 10.55
11/10/2021 6:15:00 PM 10.71 51.278 0.174 7.29 1.23 10.52
11/10/2021 6:30:00 PM 10.63 51.134 0.174 7.28 0.6 10.47
11/10/2021 6:45:00 PM 10.56 51.008 0.175 7.27 0.59 10.46
11/10/2021 7:00:00 PM 10.49 50.882 0.175 7.26 0.55 10.43
11/10/2021 7:15:00 PM 10.42 50.756 0.174 7.25 1.09 10.39
11/10/2021 7:30:00 PM 10.36 50.648 0.175 7.25 0.62 10.4
11/10/2021 7:45:00 PM 10.3 50.54 0.174 7.24 0.53 10.4
11/10/2021 8:00:00 PM 10.24 50.432 0.174 7.23 1.52 10.37
11/10/2021 8:15:00 PM 10.18 50.324 0.174 7.22 0.63 10.37
11/10/2021 8:30:00 PM 10.12 50.216 0.175 7.22 1.1 10.37
11/10/2021 8:45:00 PM 10.06 50.108 0.175 7.21 0.73 10.34
11/10/2021 9:00:00 PM 10.01 50.018 0.174 7.21 0.61 10.38
11/10/2021 9:15:00 PM 9.95 49.91 0.176 7.21 0.52 10.38
11/10/2021 9:30:00 PM 9.89 49.802 0.175 7.2 0.91 10.4
11/10/2021 9:45:00 PM 9.83 49.694 0.175 7.2 0.45 10.39
11/10/2021 10:00:00 PM 9.77 49.586 0.175 7.19 0.81 10.39
11/10/2021 10:15:00 PM 9.72 49.496 0.175 7.19 0.91 10.43
11/10/2021 10:30:00 PM 9.66 49.388 0.175 7.19 0.73 10.42
11/10/2021 10:45:00 PM 9.6 49.28 0.175 7.18 0.8 10.45
11/10/2021 11:00:00 PM 9.55 49.19 0.175 7.18 0.63 10.45
11/10/2021 11:15:00 PM 9.48 49.064 0.176 7.18 1.19 10.48
11/10/2021 11:30:00 PM 9.43 48.974 0.177 7.17 1.13 10.46
11/10/2021 11:45:00 PM 9.38 48.884 0.177 7.17 0.61 10.48
11/11/2021 12:00:00 AM 9.33 48.794 0.177 7.17 0.9 10.49
11/11/2021 12:15:00 AM 9.28 48.704 0.177 7.16 0.44 10.5
11/11/2021 12:30:00 AM 9.24 48.632 0.177 7.17 0.56 10.54
11/11/2021 12:45:00 AM 9.19 48.542 0.177 7.16 1.04 10.53
11/11/2021 1:00:00 AM 9.15 48.47 0.177 7.16 1.38 10.55
11/11/2021 1:15:00 AM 9.11 48.398 0.177 7.16 0.67 10.57
11/11/2021 1:30:00 AM 9.07 48.326 0.177 7.16 0.71 10.55
11/11/2021 1:45:00 AM 9.03 48.254 0.177 7.16 0.39 10.6
11/11/2021 2:00:00 AM 8.99 48.182 0.177 7.15 0.74 10.61
11/11/2021 2:15:00 AM 8.94 48.092 0.177 7.16 0.45 10.64
11/11/2021 2:30:00 AM 8.9 48.02 0.177 7.15 0.55 10.64
11/11/2021 2:45:00 AM 8.87 47.966 0.177 7.15 0.42 10.65
11/11/2021 3:00:00 AM 8.83 47.894 0.177 7.15 0.96 10.66
11/11/2021 3:15:00 AM 8.79 47.822 0.177 7.15 1.27 10.69
11/11/2021 3:30:00 AM 8.75 47.75 0.177 7.15 0.61 10.7
11/11/2021 3:45:00 AM 8.71 47.678 0.177 7.15 0.73 10.7
11/11/2021 4:00:00 AM 8.67 47.606 0.177 7.15 0.5 10.69
11/11/2021 4:15:00 AM 8.64 47.552 0.177 7.15 1.28 10.72
11/11/2021 4:30:00 AM 8.6 47.48 0.177 7.15 2.17 10.75
11/11/2021 4:45:00 AM 8.56 47.408 0.177 7.14 0.43 10.76
11/11/2021 5:00:00 AM 8.53 47.354 0.177 7.15 0.37 10.77
11/11/2021 5:15:00 AM 8.49 47.282 0.177 7.14 0.34 10.79
11/11/2021 5:30:00 AM 8.45 47.21 0.177 7.14 0.46 10.82
11/11/2021 5:45:00 AM 8.42 47.156 0.177 7.14 0.72 10.81
11/11/2021 6:00:00 AM 8.38 47.084 0.177 7.14 1.26 10.81
11/11/2021 6:15:00 AM 8.34 47.012 0.177 7.14 0.62 10.85
11/11/2021 6:30:00 AM 8.3 46.94 0.177 7.14 1.72 10.86
11/11/2021 6:45:00 AM 8.26 46.868 0.178 7.14 0.26 10.88
11/11/2021 7:00:00 AM 8.22 46.796 0.177 7.15 0.66 10.89
11/11/2021 7:15:00 AM 8.17 46.706 0.178 7.14 0.43 10.93
11/11/2021 7:30:00 AM 8.14 46.652 0.178 7.14 0.47 10.96
11/11/2021 7:45:00 AM 8.1 46.58 0.178 7.15 0.15 11.06
11/11/2021 8:00:00 AM 8.08 46.544 0.178 7.15 0.39 11.16
11/11/2021 8:15:00 AM 8.06 46.508 0.178 7.15 0.36 11.26
11/11/2021 8:30:00 AM 8.04 46.472 0.177 7.15 0.38 11.35
11/11/2021 8:45:00 AM 8.04 46.472 0.177 7.16 0.31 11.44
11/11/2021 9:00:00 AM 8.04 46.472 0.178 7.16 0.25 11.52
11/11/2021 9:15:00 AM 8.05 46.49 0.178 7.17 0.27 11.61
11/11/2021 9:30:00 AM 8.1 46.58 0.177 7.17 0.32 11.7
11/11/2021 9:45:00 AM 8.16 46.688 0.177 7.17 0.77 11.83
11/11/2021 10:00:00 AM 8.26 46.868 0.177 7.18 0.17 11.96
11/11/2021 10:15:00 AM 8.37 47.066 0.177 7.19 0.24 12.03
11/11/2021 10:30:00 AM 8.5 47.3 0.177 7.19 0.08 12.14
11/11/2021 10:45:00 AM 8.65 47.57 0.177 7.21 0.57 12.2
11/11/2021 11:00:00 AM 8.79 47.822 0.177 7.22 0.2 12.28
11/11/2021 11:15:00 AM 8.92 48.056 0.167 7.22 0.23 12.29
11/11/2021 11:30:00 AM 9.09 48.362 0.169 7.24 0.62 12.33
11/11/2021 11:45:00 AM 9.26 48.668 0.169 7.25 0.68 12.35
11/11/2021 12:00:00 PM 9.43 48.974 0.17 7.25 1.12 12.37
11/11/2021 12:15:00 PM 9.55 49.19 0.163 7.26 0.23 12.36
11/11/2021 12:30:00 PM 9.65 49.37 0.17 7.26 0.44 12.39
11/11/2021 12:45:00 PM 9.75 49.55 0.17 7.28 2.22 12.4
11/11/2021 1:00:00 PM 9.84 49.712 0.169 7.29 0.52 12.36
11/11/2021 1:15:00 PM 9.93 49.874 0.168 7.29 0.39 12.34
11/11/2021 1:30:00 PM 10.03 50.054 0.171 7.3 0.22 12.27
11/11/2021 1:45:00 PM 10.16 50.288 0.177 7.31 0.47 12.25
11/11/2021 2:00:00 PM 10.28 50.504 0.175 7.31 0.32 12.23
11/11/2021 2:15:00 PM 10.39 50.702 0.175 7.32 0.35 12.24
11/11/2021 2:30:00 PM 10.48 50.864 0.175 7.32 0.32 12.22
11/11/2021 2:45:00 PM 10.55 50.99 0.175 7.34 0.46 12.2
11/11/2021 3:00:00 PM 10.6 51.08 0.175 7.34 0.53 12.16
11/11/2021 3:15:00 PM 10.61 51.098 0.176 7.35 0.95 12.1
11/11/2021 3:30:00 PM 10.61 51.098 0.175 7.35 0.41 12.02
11/11/2021 3:45:00 PM 10.59 51.062 0.175 7.34 0.31 11.9
11/11/2021 4:00:00 PM 10.57 51.026 0.177 7.34 0.46 11.76
11/11/2021 4:15:00 PM 10.56 51.008 0.174 7.35 0.39 11.66
11/11/2021 4:30:00 PM 10.54 50.972 0.175 7.35 0.36 11.54
11/11/2021 4:45:00 PM 10.52 50.936 0.176 7.35 0.58 11.43
11/11/2021 5:00:00 PM 10.49 50.882 0.176 7.34 0.58 11.3
11/11/2021 5:15:00 PM 10.45 50.81 0.176 7.33 0.97 11.16
11/11/2021 5:30:00 PM 10.41 50.738 0.176 7.32 0.76 11.07
11/11/2021 5:45:00 PM 10.38 50.684 0.176 7.32 0.57 10.94
11/11/2021 6:00:00 PM 10.33 50.594 0.176 7.3 0.66 10.87
11/11/2021 6:15:00 PM 10.3 50.54 0.176 7.31 0.49 10.81
11/11/2021 6:30:00 PM 10.27 50.486 0.176 7.3 0.33 10.75
11/11/2021 6:45:00 PM 10.25 50.45 0.176 7.29 0.5 10.72
11/11/2021 7:00:00 PM 10.23 50.414 0.176 7.28 0.42 10.69
11/11/2021 7:15:00 PM 10.22 50.396 0.176 7.27 0.52 10.62
11/11/2021 7:30:00 PM 10.21 50.378 0.177 7.27 0.47 10.56
11/11/2021 7:45:00 PM 10.21 50.378 0.168 7.26 1.43 10.55
11/11/2021 8:00:00 PM 10.21 50.378 0.177 7.25 0.54 10.51
11/11/2021 8:15:00 PM 10.21 50.378 0.177 7.25 0.63 10.49
11/11/2021 8:30:00 PM 10.22 50.396 0.177 7.25 0.61 10.45
11/11/2021 8:45:00 PM 10.23 50.414 0.177 7.24 0.51 10.41
11/11/2021 9:00:00 PM 10.23 50.414 0.177 7.24 0.41 10.41
11/11/2021 9:15:00 PM 10.24 50.432 0.177 7.23 1.77 10.39
11/11/2021 9:30:00 PM 10.26 50.468 0.177 7.23 0.72 10.36
11/11/2021 9:45:00 PM 10.27 50.486 0.177 7.23 0.42 10.35
11/11/2021 10:00:00 PM 10.28 50.504 0.176 7.22 0.41 10.31
11/11/2021 10:15:00 PM 10.28 50.504 0.176 7.21 0.52 10.31
11/11/2021 10:30:00 PM 10.28 50.504 0.177 7.21 1.22 10.29
11/11/2021 10:45:00 PM 10.29 50.522 0.176 7.21 2.51 10.3
11/11/2021 11:00:00 PM 10.31 50.558 0.176 7.2 0.31 10.26
11/11/2021 11:15:00 PM 10.33 50.594 0.176 7.2 0.46 10.28
11/11/2021 11:30:00 PM 10.36 50.648 0.176 7.2 0.45 10.27
11/11/2021 11:45:00 PM 10.38 50.684 0.176 7.19 0.88 10.25
11/12/2021 12:00:00 AM 10.4 50.72 0.176 7.19 1.46 10.24
11/12/2021 12:15:00 AM 10.42 50.756 0.177 7.18 1.2 10.22
11/12/2021 12:30:00 AM 10.43 50.774 0.176 7.18 0.43 10.23
11/12/2021 12:45:00 AM 10.46 50.828 0.177 7.17 0.48 10.21
11/12/2021 1:00:00 AM 10.48 50.864 0.177 7.17 0.97 10.18
11/12/2021 1:15:00 AM 10.52 50.936 0.177 7.17 0.83 10.18
11/12/2021 1:30:00 AM 10.55 50.99 0.177 7.16 0.73 10.18
11/12/2021 1:45:00 AM 10.57 51.026 0.176 7.16 0.78 10.17
11/12/2021 2:00:00 AM 10.6 51.08 0.174 7.16 0.57 10.16
11/12/2021 2:15:00 AM 10.63 51.134 0.177 7.16 2.03 10.13
11/12/2021 2:30:00 AM 10.67 51.206 0.177 7.16 1.1 10.14
11/12/2021 2:45:00 AM 10.71 51.278 0.177 7.16 0.73 10.13
11/12/2021 3:00:00 AM 10.75 51.35 0.176 7.16 0.52 10.13
11/12/2021 3:15:00 AM 10.78 51.404 0.176 7.16 0.73 10.08
11/12/2021 3:30:00 AM 10.82 51.476 0.176 7.15 0.77 10.09
11/12/2021 3:45:00 AM 10.88 51.584 0.175 7.15 0.69 10.09
11/12/2021 4:00:00 AM 10.94 51.692 0.174 7.14 2.35 10.07
11/12/2021 4:15:00 AM 11 51.8 0.173 7.15 1.35 10.04
11/12/2021 4:30:00 AM 11.04 51.872 0.172 7.14 1.37 10.03
11/12/2021 4:45:00 AM 11.08 51.944 0.172 7.14 1.32 9.99
11/12/2021 5:00:00 AM 11.12 52.016 0.172 7.14 1.17 9.98
11/12/2021 5:15:00 AM 11.18 52.124 0.171 7.13 1.72 9.97
11/12/2021 5:30:00 AM 11.26 52.268 0.169 7.14 2.4 9.98
11/12/2021 5:45:00 AM 11.32 52.376 0.169 7.13 2.88 9.97
11/12/2021 6:00:00 AM 11.37 52.466 0.169 7.13 2.77 9.95
11/12/2021 6:15:00 AM 11.41 52.538 0.169 7.12 2.16 9.94
11/12/2021 6:30:00 AM 11.47 52.646 0.169 7.12 2.2 9.9
11/12/2021 6:45:00 AM 11.53 52.754 0.168 7.13 2.26 9.91
11/12/2021 7:00:00 AM 11.63 52.934 0.166 7.13 2.97 9.9
11/12/2021 7:15:00 AM 11.65 52.97 0.165 7.14 3.63 9.9
11/12/2021 7:30:00 AM 11.68 53.024 0.165 7.13 4.08 9.9
11/12/2021 7:45:00 AM 11.71 53.078 0.164 7.14 5.57 9.91
11/12/2021 8:00:00 AM 11.73 53.114 0.164 7.15 5.88 9.93
11/12/2021 8:15:00 AM 11.77 53.186 0.163 7.16 6.58 9.97
11/12/2021 8:30:00 AM 11.8 53.24 0.162 7.16 10.85 9.96
11/12/2021 8:45:00 AM 11.83 53.294 0.162 7.16 25.59 9.92
11/12/2021 9:00:00 AM 11.86 53.348 0.162 7.17 20.66 9.92
11/12/2021 9:15:00 AM 11.9 53.42 0.161 7.17 26.59 9.93
11/12/2021 9:30:00 AM 11.94 53.492 0.161 7.18 17.6 9.93
11/12/2021 9:45:00 AM 11.99 53.582 0.161 7.2 43.52 9.95
11/12/2021 10:00:00 AM 12.06 53.708 0.16 7.21 61.16 9.98
11/12/2021 10:15:00 AM 12.13 53.834 0.151 7.23 64.16 9.98
11/12/2021 10:30:00 AM 12.22 53.996 0.16 7.25 46.44 9.98
11/12/2021 10:45:00 AM 12.31 54.158 0.159 7.26 31.09 9.98
11/12/2021 11:00:00 AM 12.39 54.302 0.159 7.25 53.53 9.96
11/12/2021 11:15:00 AM 12.47 54.446 0.158 7.26 55.64 9.95
11/12/2021 11:30:00 AM 12.55 54.59 0.159 7.26 70.63 9.94
11/12/2021 11:45:00 AM 12.63 54.734 0.16 7.28 41.09 9.92
11/12/2021 12:00:00 PM 12.73 54.914 0.16 7.27 50.19 9.9
11/12/2021 12:15:00 PM 12.79 55.022 0.16 7.26 50.65 9.88
11/12/2021 12:30:00 PM 12.82 55.076 0.16 7.26 55.32 9.84
11/12/2021 12:45:00 PM 12.97 55.346 0.161 7.26 51.03 9.85
11/12/2021 1:00:00 PM 13.07 55.526 0.162 7.25 52.8 9.86
11/12/2021 1:15:00 PM 13.08 55.544 0.162 7.26 49.51 9.83
11/12/2021 1:30:00 PM 13.1 55.58 0.161 7.25 60.18 9.8
11/12/2021 1:45:00 PM 13.12 55.616 0.16 7.25 52.59 9.8
11/12/2021 2:00:00 PM 13.17 55.706 0.158 7.24 42.88 9.79
11/12/2021 2:15:00 PM 13.19 55.742 0.156 7.24 48.64 9.77
11/12/2021 2:30:00 PM 13.18 55.724 0.154 7.24 48.88 9.75
11/12/2021 2:45:00 PM 13.15 55.67 0.149 7.24 55.25 9.76
11/12/2021 3:00:00 PM 13.11 55.598 0.149 7.25 39.18 9.72
11/12/2021 3:15:00 PM 13.07 55.526 0.148 7.24 37.59 9.69
11/12/2021 3:30:00 PM 13.02 55.436 0.147 7.23 43.13 9.66
11/12/2021 3:45:00 PM 12.97 55.346 0.146 7.23 29.7 9.63
11/12/2021 4:00:00 PM 12.92 55.256 0.145 7.22 28.28 9.63
11/12/2021 4:15:00 PM 12.86 55.148 0.145 7.22 32.17 9.6
11/12/2021 4:30:00 PM 12.8 55.04 0.144 7.21 35.13 9.57
11/12/2021 4:45:00 PM 12.75 54.95 0.144 7.2 28.49 9.57
11/12/2021 5:00:00 PM 12.69 54.842 0.143 7.21 29.37 9.57
11/12/2021 5:15:00 PM 12.62 54.716 0.143 7.19 44.52 9.55
11/12/2021 5:30:00 PM 12.56 54.608 0.143 7.19 27.04 9.55
11/12/2021 5:45:00 PM 12.49 54.482 0.143 7.19 28.7 9.54
11/12/2021 6:00:00 PM 12.42 54.356 0.143 7.18 29.87 9.52
11/12/2021 6:15:00 PM 12.35 54.23 0.143 7.18 20.26 9.54
11/12/2021 6:30:00 PM 12.28 54.104 0.143 7.18 26.12 9.53
11/12/2021 6:45:00 PM 12.21 53.978 0.144 7.17 30.25 9.56
11/12/2021 7:00:00 PM 12.14 53.852 0.143 7.17 22.29 9.54
11/12/2021 7:15:00 PM 12.07 53.726 0.142 7.16 28.3 9.54
11/12/2021 7:30:00 PM 11.99 53.582 0.143 7.16 24.68 9.59
11/12/2021 7:45:00 PM 11.92 53.456 0.143 7.15 19.56 9.59
11/12/2021 8:00:00 PM 11.84 53.312 0.143 7.15 14.65 9.6
11/12/2021 8:15:00 PM 11.77 53.186 0.143 7.16 13.03 9.62
11/12/2021 8:30:00 PM 11.69 53.042 0.142 7.15 16.12 9.64
11/12/2021 8:45:00 PM 11.62 52.916 0.141 7.15 23.67 9.67
11/12/2021 9:00:00 PM 11.55 52.79 0.142 7.15 13.41 9.69
11/12/2021 9:15:00 PM 11.48 52.664 0.144 7.15 10.31 9.7
11/12/2021 9:30:00 PM 11.4 52.52 0.147 7.14 11.34 9.71
11/12/2021 9:45:00 PM 11.34 52.412 0.151 7.15 12.59 9.73
11/12/2021 10:00:00 PM 11.27 52.286 0.151 7.14 11.31 9.75
11/12/2021 10:15:00 PM 11.2 52.16 0.151 7.15 10.83 9.76
11/12/2021 10:30:00 PM 11.14 52.052 0.152 7.15 10.94 9.77
11/12/2021 10:45:00 PM 11.07 51.926 0.152 7.14 9.81 9.79
11/12/2021 11:00:00 PM 11 51.8 0.152 7.14 10.03 9.83
11/12/2021 11:15:00 PM 10.94 51.692 0.153 7.14 9.08 9.84
11/12/2021 11:30:00 PM 10.87 51.566 0.154 7.15 7.47 9.85
11/12/2021 11:45:00 PM 10.8 51.44 0.152 7.15 8.4 9.88
11/13/2021 12:00:00 AM 10.73 51.314 0.153 7.15 6.98 9.91
11/13/2021 12:15:00 AM 10.66 51.188 0.152 7.14 8.26 9.91
11/13/2021 12:30:00 AM 10.59 51.062 0.152 7.14 7.14 9.93
11/13/2021 12:45:00 AM 10.51 50.918 0.153 7.15 7.09 9.95
11/13/2021 1:00:00 AM 10.45 50.81 0.153 7.15 7.13 9.99
11/13/2021 1:15:00 AM 10.39 50.702 0.154 7.14 7.69 10.01
11/13/2021 1:30:00 AM 10.33 50.594 0.154 7.15 5.27 10.02
11/13/2021 1:45:00 AM 10.25 50.45 0.155 7.16 5.18 10.05
11/13/2021 2:00:00 AM 10.18 50.324 0.155 7.14 6.71 10.05
11/13/2021 2:15:00 AM 10.12 50.216 0.158 7.15 6.22 10.09
11/13/2021 2:30:00 AM 10.05 50.09 0.158 7.15 5.97 10.12
11/13/2021 2:45:00 AM 9.97 49.946 0.158 7.15 4.91 10.15
11/13/2021 3:00:00 AM 9.9 49.82 0.159 7.15 4.89 10.16
11/13/2021 3:15:00 AM 9.82 49.676 0.159 7.16 6.24 10.18
11/13/2021 3:30:00 AM 9.76 49.568 0.159 7.16 5.25 10.2
11/13/2021 3:45:00 AM 9.68 49.424 0.16 7.15 3.58 10.23
11/13/2021 4:00:00 AM 9.64 49.352 0.16 7.16 4.42 10.25
11/13/2021 4:15:00 AM 9.59 49.262 0.16 7.15 4.06 10.26
11/13/2021 4:30:00 AM 9.54 49.172 0.161 7.15 4.16 10.29
11/13/2021 4:45:00 AM 9.48 49.064 0.161 7.15 5.45 10.31
11/13/2021 5:00:00 AM 9.43 48.974 0.161 7.16 3.76 10.33
11/13/2021 5:15:00 AM 9.38 48.884 0.162 7.15 3.68 10.35
11/13/2021 5:30:00 AM 9.34 48.812 0.162 7.16 3.34 10.38
11/13/2021 5:45:00 AM 9.3 48.74 0.162 7.16 3.12 10.39
11/13/2021 6:00:00 AM 9.26 48.668 0.163 7.16 4.15 10.43
11/13/2021 6:15:00 AM 9.23 48.614 0.163 7.16 3.15 10.43
11/13/2021 6:30:00 AM 9.2 48.56 0.163 7.17 2.77 10.41
11/13/2021 6:45:00 AM 9.15 48.47 0.162 7.16 3.02 10.45
11/13/2021 7:00:00 AM 9.12 48.416 0.163 7.16 2.75 10.48
11/13/2021 7:15:00 AM 9.1 48.38 0.163 7.15 3.02 10.49
11/13/2021 7:30:00 AM 9.07 48.326 0.164 7.15 2.71 10.51
11/13/2021 7:45:00 AM 9.05 48.29 0.164 7.15 2.08 10.55
11/13/2021 8:00:00 AM 9.05 48.29 0.165 7.15 2.55 10.59
11/13/2021 8:15:00 AM 9.04 48.272 0.165 7.15 2.31 10.67
11/13/2021 8:30:00 AM 9.05 48.29 0.165 7.15 2.7 10.68
11/13/2021 8:45:00 AM 9.06 48.308 0.165 7.16 1.89 10.72
11/13/2021 9:00:00 AM 9.07 48.326 0.165 7.15 1.94 10.79
11/13/2021 9:15:00 AM 9.1 48.38 0.166 7.15 2 10.91
11/13/2021 9:30:00 AM 9.13 48.434 0.166 7.15 1.77 10.94
11/13/2021 9:45:00 AM 9.16 48.488 0.166 7.15 1.8 11.02
11/13/2021 10:00:00 AM 9.18 48.524 0.167 7.16 1.83 11.07
11/13/2021 10:15:00 AM 9.22 48.596 0.166 7.17 1.87 11.13
11/13/2021 10:30:00 AM 9.26 48.668 0.167 7.16 1.81 11.17
11/13/2021 10:45:00 AM 9.29 48.722 0.167 7.17 1.37 11.21
11/13/2021 11:00:00 AM 9.31 48.758 0.167 7.17 1.36 11.17
11/13/2021 11:15:00 AM 9.32 48.776 0.167 7.18 1.61 11.17
11/13/2021 11:30:00 AM 9.35 48.83 0.167 7.19 1.34 11.19
11/13/2021 11:45:00 AM 9.37 48.866 0.167 7.19 1.65 11.23
11/13/2021 12:00:00 PM 9.38 48.884 0.167 7.19 1.48 11.31
11/13/2021 12:15:00 PM 9.37 48.866 0.167 7.21 1.23 11.26
11/13/2021 12:30:00 PM 9.36 48.848 0.167 7.21 1.39 11.26
11/13/2021 12:45:00 PM 9.34 48.812 0.166 7.21 1.3 11.2
11/13/2021 1:00:00 PM 9.32 48.776 0.167 7.22 1.66 11.23
11/13/2021 1:15:00 PM 9.38 48.884 0.166 7.22 1.47 11.36
11/13/2021 1:30:00 PM 9.45 49.01 0.164 7.23 1.35 11.42
11/13/2021 1:45:00 PM 9.54 49.172 0.152 7.23 1.54 11.51
11/13/2021 2:00:00 PM 9.53 49.154 0.155 7.24 1.19 11.52
11/13/2021 2:15:00 PM 9.52 49.136 0.168 7.24 0.97 11.49
11/13/2021 2:30:00 PM 9.51 49.118 0.168 7.25 1.11 11.47
11/13/2021 2:45:00 PM 9.51 49.118 0.168 7.26 1.12 11.49
11/13/2021 3:00:00 PM 9.46 49.028 0.168 7.27 1.33 11.4
11/13/2021 3:15:00 PM 9.41 48.938 0.168 7.26 1 11.36
11/13/2021 3:30:00 PM 9.38 48.884 0.168 7.28 1.15 11.33
11/13/2021 3:45:00 PM 9.33 48.794 0.168 7.28 0.94 11.28
11/13/2021 4:00:00 PM 9.26 48.668 0.168 7.28 1.37 11.25
11/13/2021 4:15:00 PM 9.2 48.56 0.168 7.29 1.37 11.24
11/13/2021 4:30:00 PM 9.13 48.434 0.168 7.28 0.81 11.18
11/13/2021 4:45:00 PM 9.05 48.29 0.168 7.29 0.77 11.16
11/13/2021 5:00:00 PM 9 48.2 0.168 7.28 1.16 11.09
11/13/2021 5:15:00 PM 8.95 48.11 0.168 7.29 1.73 11.05
11/13/2021 5:30:00 PM 8.9 48.02 0.168 7.29 1.25 10.94
11/13/2021 5:45:00 PM 8.86 47.948 0.168 7.28 1.06 10.91
11/13/2021 6:00:00 PM 8.81 47.858 0.168 7.27 1.62 10.89
11/13/2021 6:15:00 PM 8.75 47.75 0.169 7.27 1.29 10.86
11/13/2021 6:30:00 PM 8.7 47.66 0.169 7.26 1.12 10.81
11/13/2021 6:45:00 PM 8.65 47.57 0.169 7.26 1.09 10.84
11/13/2021 7:00:00 PM 8.61 47.498 0.169 7.26 1.09 10.8
11/13/2021 7:15:00 PM 8.57 47.426 0.167 7.26 1.01 10.8
11/13/2021 7:30:00 PM 8.54 47.372 0.167 7.25 0.96 10.79
11/13/2021 7:45:00 PM 8.49 47.282 0.167 7.24 0.9 10.76
11/13/2021 8:00:00 PM 8.44 47.192 0.166 7.24 1.29 10.77
11/13/2021 8:15:00 PM 8.4 47.12 0.167 7.24 1.37 10.79
11/13/2021 8:30:00 PM 8.36 47.048 0.166 7.24 0.88 10.79
11/13/2021 8:45:00 PM 8.33 46.994 0.167 7.23 0.86 10.76
11/13/2021 9:00:00 PM 8.29 46.922 0.167 7.23 1.46 10.79
11/13/2021 9:15:00 PM 8.25 46.85 0.167 7.22 1.88 10.78
11/13/2021 9:30:00 PM 8.21 46.778 0.167 7.23 1.29 10.79
11/13/2021 9:45:00 PM 8.18 46.724 0.168 7.23 1.15 10.82
11/13/2021 10:00:00 PM 8.14 46.652 0.17 7.22 0.81 10.81
11/13/2021 10:15:00 PM 8.1 46.58 0.17 7.22 1.2 10.79
11/13/2021 10:30:00 PM 8.06 46.508 0.17 7.22 0.79 10.83
11/13/2021 10:45:00 PM 8.03 46.454 0.17 7.21 0.8 10.83
11/13/2021 11:00:00 PM 7.99 46.382 0.17 7.21 0.98 10.84
11/13/2021 11:15:00 PM 7.95 46.31 0.17 7.22 1.4 10.85
11/13/2021 11:30:00 PM 7.91 46.238 0.17 7.21 0.97 10.86
11/13/2021 11:45:00 PM 7.88 46.184 0.17 7.21 1.51 10.87
11/14/2021 12:00:00 AM 7.84 46.112 0.17 7.21 0.72 10.88
11/14/2021 12:15:00 AM 7.8 46.04 0.171 7.21 1.28 10.89
11/14/2021 12:30:00 AM 7.76 45.968 0.171 7.21 2.65 10.92
11/14/2021 12:45:00 AM 7.73 45.914 0.171 7.2 2.04 10.93
11/14/2021 1:00:00 AM 7.69 45.842 0.171 7.19 1.52 10.93
11/14/2021 1:15:00 AM 7.65 45.77 0.171 7.2 0.9 10.96
11/14/2021 1:30:00 AM 7.61 45.698 0.171 7.21 0.69 10.95
11/14/2021 1:45:00 AM 7.57 45.626 0.171 7.21 4.48 10.98
11/14/2021 2:00:00 AM 7.53 45.554 0.171 7.2 0.71 11
11/14/2021 2:15:00 AM 7.48 45.464 0.171 7.2 1.05 11.03
11/14/2021 2:30:00 AM 7.43 45.374 0.171 7.2 1.18 11.05
11/14/2021 2:45:00 AM 7.38 45.284 0.171 7.2 0.97 11.04
11/14/2021 3:00:00 AM 7.33 45.194 0.171 7.2 1.73 11.06
11/14/2021 3:15:00 AM 7.28 45.104 0.171 7.2 1.37 11.09
11/14/2021 3:30:00 AM 7.23 45.014 0.172 7.2 1.05 11.08
11/14/2021 3:45:00 AM 7.19 44.942 0.172 7.2 0.8 11.09
11/14/2021 4:00:00 AM 7.14 44.852 0.172 7.2 0.87 11.15
11/14/2021 4:15:00 AM 7.09 44.762 0.172 7.2 1.26 11.14
11/14/2021 4:30:00 AM 7.05 44.69 0.172 7.2 0.76 11.13
11/14/2021 4:45:00 AM 7 44.6 0.172 7.2 1.21 11.16
11/14/2021 5:00:00 AM 6.95 44.51 0.172 7.2 0.97 11.21
11/14/2021 5:15:00 AM 6.9 44.42 0.172 7.2 0.93 11.23
11/14/2021 5:30:00 AM 6.86 44.348 0.172 7.2 0.79 11.23
11/14/2021 5:45:00 AM 6.81 44.258 0.172 7.2 1.13 11.25
11/14/2021 6:00:00 AM 6.75 44.15 0.172 7.21 1.02 11.26
11/14/2021 6:15:00 AM 6.71 44.078 0.172 7.2 0.69 11.28
11/14/2021 6:30:00 AM 6.67 44.006 0.172 7.2 0.99 11.3
11/14/2021 6:45:00 AM 6.62 43.916 0.172 7.2 1.02 11.32
11/14/2021 7:00:00 AM 6.57 43.826 0.172 7.2 1 11.35
11/14/2021 7:15:00 AM 6.53 43.754 0.173 7.2 1.35 11.35
11/14/2021 7:30:00 AM 6.49 43.682 0.173 7.2 0.68 11.42
11/14/2021 7:45:00 AM 6.46 43.628 0.173 7.2 0.91 11.46
11/14/2021 8:00:00 AM 6.42 43.556 0.173 7.21 1.1 11.52
11/14/2021 8:15:00 AM 6.4 43.52 0.173 7.21 0.77 11.58
11/14/2021 8:30:00 AM 6.37 43.466 0.173 7.2 0.7 11.66
11/14/2021 8:45:00 AM 6.35 43.43 0.173 7.21 0.68 11.71
11/14/2021 9:00:00 AM 6.34 43.412 0.173 7.21 0.82 11.73
11/14/2021 9:15:00 AM 6.36 43.448 0.173 7.21 0.9 11.83
11/14/2021 9:30:00 AM 6.4 43.52 0.173 7.21 2.96 11.97
11/14/2021 9:45:00 AM 6.44 43.592 0.172 7.22 0.92 12.07
11/14/2021 10:00:00 AM 6.52 43.736 0.172 7.23 0.8 12.17
11/14/2021 10:15:00 AM 6.6 43.88 0.172 7.23 0.99 12.22
11/14/2021 10:30:00 AM 6.66 43.988 0.172 7.23 0.91 12.26
11/14/2021 10:45:00 AM 6.73 44.114 0.172 7.24 0.32 12.29
11/14/2021 11:00:00 AM 6.79 44.222 0.172 7.25 0.56 12.33
11/14/2021 11:15:00 AM 6.85 44.33 0.172 7.25 0.66 12.36
11/14/2021 11:30:00 AM 6.9 44.42 0.172 7.26 0.34 12.39
11/14/2021 11:45:00 AM 6.99 44.582 0.172 7.26 0.75 12.41
11/14/2021 12:00:00 PM 7.09 44.762 0.172 7.26 0.49 12.44
11/14/2021 12:15:00 PM 7.2 44.96 0.172 7.26 0.6 12.46
11/14/2021 12:30:00 PM 7.33 45.194 0.172 7.27 0.58 12.52
11/14/2021 12:45:00 PM 7.43 45.374 0.172 7.28 0.67 12.5
11/14/2021 1:00:00 PM 7.48 45.464 0.172 7.28 0.56 12.48
11/14/2021 1:15:00 PM 7.54 45.572 0.172 7.28 0.37 12.5
11/14/2021 1:30:00 PM 7.61 45.698 0.172 7.28 0.57 12.49
11/14/2021 1:45:00 PM 7.7 45.86 0.172 7.29 0.51 12.45
11/14/2021 2:00:00 PM 7.77 45.986 0.172 7.29 0.6 12.43
11/14/2021 2:15:00 PM 7.83 46.094 0.172 7.29 0.67 12.41
11/14/2021 2:30:00 PM 7.85 46.13 0.172 7.3 0.76 12.39
11/14/2021 2:45:00 PM 7.85 46.13 0.172 7.31 0.6 12.36
11/14/2021 3:00:00 PM 7.88 46.184 0.172 7.3 0.57 12.33
11/14/2021 3:15:00 PM 7.89 46.202 0.172 7.31 0.71 12.3
11/14/2021 3:30:00 PM 7.89 46.202 0.172 7.32 0.84 12.26
11/14/2021 3:45:00 PM 7.89 46.202 0.172 7.32 0.34 12.23
11/14/2021 4:00:00 PM 7.87 46.166 0.172 7.33 0.46 12.17
11/14/2021 4:15:00 PM 7.86 46.148 0.172 7.32 0.65 12.07
11/14/2021 4:30:00 PM 7.83 46.094 0.172 7.32 0.62 11.93
11/14/2021 4:45:00 PM 7.81 46.058 0.172 7.33 0.43 11.83
11/14/2021 5:00:00 PM 7.79 46.022 0.172 7.32 0.37 11.73
11/14/2021 5:15:00 PM 7.76 45.968 0.172 7.32 0.72 11.63
11/14/2021 5:30:00 PM 7.73 45.914 0.172 7.32 0.62 11.56
11/14/2021 5:45:00 PM 7.71 45.878 0.172 7.32 0.52 11.5
11/14/2021 6:00:00 PM 7.69 45.842 0.172 7.31 0.86 11.45
11/14/2021 6:15:00 PM 7.68 45.824 0.172 7.31 0.53 11.4
11/14/2021 6:30:00 PM 7.66 45.788 0.172 7.3 0.6 11.38
11/14/2021 6:45:00 PM 7.64 45.752 0.172 7.3 0.49 11.31
11/14/2021 7:00:00 PM 7.61 45.698 0.172 7.29 0.58 11.27
11/14/2021 7:15:00 PM 7.59 45.662 0.172 7.29 0.48 11.25
11/14/2021 7:30:00 PM 7.58 45.644 0.172 7.29 0.46 11.23
11/14/2021 7:45:00 PM 7.56 45.608 0.172 7.28 0.97 11.19
11/14/2021 8:00:00 PM 7.55 45.59 0.172 7.27 0.69 11.14
11/14/2021 8:15:00 PM 7.53 45.554 0.172 7.27 0.4 11.12
11/14/2021 8:30:00 PM 7.52 45.536 0.172 7.26 0.7 11.12
11/14/2021 8:45:00 PM 7.51 45.518 0.172 7.26 0.61 11.11
11/14/2021 9:00:00 PM 7.51 45.518 0.172 7.25 0.6 11.11
11/14/2021 9:15:00 PM 7.51 45.518 0.172 7.25 0.8 11.09
11/14/2021 9:30:00 PM 7.5 45.5 0.172 7.25 0.61 11.08
11/14/2021 9:45:00 PM 7.5 45.5 0.172 7.23 0.39 11.07
11/14/2021 10:00:00 PM 7.51 45.518 0.172 7.23 0.76 11.04
11/14/2021 10:15:00 PM 7.51 45.518 0.172 7.24 0.91 11.06
11/14/2021 10:30:00 PM 7.52 45.536 0.172 7.23 0.83 11.06
11/14/2021 10:45:00 PM 7.52 45.536 0.172 7.23 0.78 11.06
11/14/2021 11:00:00 PM 7.52 45.536 0.172 7.22 0.48 11.02
11/14/2021 11:15:00 PM 7.52 45.536 0.172 7.22 0.7 11.02
11/14/2021 11:30:00 PM 7.51 45.518 0.172 7.22 0.92 11.02
11/14/2021 11:45:00 PM 7.48 45.464 0.172 7.22 0.5 11.03
11/15/2021 12:00:00 AM 7.46 45.428 0.172 7.2 0.58 11.02
11/15/2021 12:15:00 AM 7.43 45.374 0.173 7.21 0.45 11.03
11/15/2021 12:30:00 AM 7.4 45.32 0.173 7.21 0.48 11.03
11/15/2021 12:45:00 AM 7.38 45.284 0.173 7.2 1.03 11.05
11/15/2021 1:00:00 AM 7.36 45.248 0.173 7.21 0.72 11.03
11/15/2021 1:15:00 AM 7.35 45.23 0.173 7.2 0.88 11.03
11/15/2021 1:30:00 AM 7.34 45.212 0.173 7.2 0.6 11.05
11/15/2021 1:45:00 AM 7.33 45.194 0.173 7.2 0.7 11.05
11/15/2021 2:00:00 AM 7.33 45.194 0.173 7.19 0.56 11.05
11/15/2021 2:15:00 AM 7.32 45.176 0.173 7.19 0.82 11.04
11/15/2021 2:30:00 AM 7.31 45.158 0.173 7.19 1.6 11.03
11/15/2021 2:45:00 AM 7.3 45.14 0.173 7.19 0.63 11.04
11/15/2021 3:00:00 AM 7.29 45.122 0.173 7.19 0.69 11.06
11/15/2021 3:15:00 AM 7.28 45.104 0.173 7.2 0.78 11.06
11/15/2021 3:30:00 AM 7.28 45.104 0.173 7.19 0.7 11.07
11/15/2021 3:45:00 AM 7.26 45.068 0.173 7.19 0.52 11.09
11/15/2021 4:00:00 AM 7.25 45.05 0.173 7.19 0.58 11.09
11/15/2021 4:15:00 AM 7.23 45.014 0.173 7.19 0.82 11.07
11/15/2021 4:30:00 AM 7.2 44.96 0.173 7.18 0.65 11.08
11/15/2021 4:45:00 AM 7.19 44.942 0.174 7.19 1.38 11.09
11/15/2021 5:00:00 AM 7.15 44.87 0.174 7.18 0.57 11.09
11/15/2021 5:15:00 AM 7.12 44.816 0.174 7.19 1.05 11.12
11/15/2021 5:30:00 AM 7.09 44.762 0.174 7.19 1.14 11.11
11/15/2021 5:45:00 AM 7.05 44.69 0.174 7.19 1.25 11.11
11/15/2021 6:00:00 AM 7.01 44.618 0.174 7.18 1.78 11.15
11/15/2021 6:15:00 AM 6.99 44.582 0.174 7.17 1.09 11.15
11/15/2021 6:30:00 AM 6.98 44.564 0.174 7.18 0.53 11.16
11/15/2021 6:45:00 AM 6.97 44.546 0.174 7.18 0.95 11.17
11/15/2021 7:00:00 AM 6.97 44.546 0.174 7.18 0.54 11.15
11/15/2021 7:15:00 AM 6.96 44.528 0.174 7.19 0.47 11.18
11/15/2021 7:30:00 AM 6.96 44.528 0.174 7.18 0.59 11.22
11/15/2021 7:45:00 AM 6.97 44.546 0.174 7.18 0.94 11.27
11/15/2021 8:00:00 AM 6.96 44.528 0.174 7.19 0.49 11.36
11/15/2021 8:15:00 AM 6.96 44.528 0.173 7.19 0.52 11.46
11/15/2021 8:30:00 AM 6.97 44.546 0.173 7.19 0.88 11.52
11/15/2021 8:45:00 AM 6.99 44.582 0.173 7.2 0.35 11.63
11/15/2021 9:00:00 AM 7.01 44.618 0.173 7.21 0.46 11.7
11/15/2021 9:15:00 AM